<?xml version="1.0" encoding="utf-8"?>
<gpx xmlns:xsi="http://www.w3.org/2001/XMLSchema-instance" xmlns:xsd="http://www.w3.org/2001/XMLSchema" version="1.1" creator="Shapelink.com" xmlns="http://www.topografix.com/GPX/1/1" xmlns:gpxtpx="http://www.garmin.com/xmlschemas/TrackPointExtension/v1">
  <metadata>
    <name>Längdskidåkning - Klassisk 23.36 km, 2013-03-29</name>
    <desc></desc>
    <author><name>Alexander Engvall</name></author> 
    <time>2013-03-29T12:33:08Z</time>
  </metadata>
  <trk>
    <name>Längdskidåkning - Klassisk 23.36 km, 2013-03-29</name>
    <trkseg>
      <trkpt lat="62.5013363" lon="14.1083473">
        <ele>709.6</ele>
        <time>2013-03-29T12:33:08Z</time>
      </trkpt>
      <trkpt lat="62.5013344" lon="14.1087108">
        <ele>707.2</ele>
        <time>2013-03-29T12:33:12Z</time>
      </trkpt>
      <trkpt lat="62.501354" lon="14.1088433">
        <ele>706.6</ele>
        <time>2013-03-29T12:33:13Z</time>
      </trkpt>
      <trkpt lat="62.5013672" lon="14.1089887">
        <ele>706.2</ele>
        <time>2013-03-29T12:33:14Z</time>
      </trkpt>
      <trkpt lat="62.50137" lon="14.1091256">
        <ele>705.4</ele>
        <time>2013-03-29T12:33:15Z</time>
      </trkpt>
      <trkpt lat="62.5013242" lon="14.1095542">
        <ele>702.6</ele>
        <time>2013-03-29T12:33:18Z</time>
      </trkpt>
      <trkpt lat="62.5013037" lon="14.1096857">
        <ele>702.2</ele>
        <time>2013-03-29T12:33:19Z</time>
      </trkpt>
      <trkpt lat="62.5012494" lon="14.110033">
        <ele>702.4</ele>
        <time>2013-03-29T12:33:22Z</time>
      </trkpt>
      <trkpt lat="62.5011786" lon="14.1104321">
        <ele>701</ele>
        <time>2013-03-29T12:33:26Z</time>
      </trkpt>
      <trkpt lat="62.5011418" lon="14.1106419">
        <ele>700</ele>
        <time>2013-03-29T12:33:28Z</time>
      </trkpt>
      <trkpt lat="62.5011369" lon="14.1108605">
        <ele>699</ele>
        <time>2013-03-29T12:33:30Z</time>
      </trkpt>
      <trkpt lat="62.5011372" lon="14.1109736">
        <ele>698.6</ele>
        <time>2013-03-29T12:33:31Z</time>
      </trkpt>
      <trkpt lat="62.5011589" lon="14.1113072">
        <ele>698</ele>
        <time>2013-03-29T12:33:34Z</time>
      </trkpt>
      <trkpt lat="62.5011753" lon="14.1115168">
        <ele>696.2</ele>
        <time>2013-03-29T12:33:36Z</time>
      </trkpt>
      <trkpt lat="62.501182" lon="14.1117305">
        <ele>696.4</ele>
        <time>2013-03-29T12:33:38Z</time>
      </trkpt>
      <trkpt lat="62.5011686" lon="14.111936">
        <ele>695.4</ele>
        <time>2013-03-29T12:33:40Z</time>
      </trkpt>
      <trkpt lat="62.5011303" lon="14.1121252">
        <ele>694.8</ele>
        <time>2013-03-29T12:33:42Z</time>
      </trkpt>
      <trkpt lat="62.501032" lon="14.1125659">
        <ele>692.8</ele>
        <time>2013-03-29T12:33:47Z</time>
      </trkpt>
      <trkpt lat="62.5010226" lon="14.112668">
        <ele>692.8</ele>
        <time>2013-03-29T12:33:48Z</time>
      </trkpt>
      <trkpt lat="62.5010163" lon="14.1127787">
        <ele>692.6</ele>
        <time>2013-03-29T12:33:49Z</time>
      </trkpt>
      <trkpt lat="62.5010195" lon="14.1129886">
        <ele>692</ele>
        <time>2013-03-29T12:33:51Z</time>
      </trkpt>
      <trkpt lat="62.5010354" lon="14.1131586">
        <ele>691.8</ele>
        <time>2013-03-29T12:33:53Z</time>
      </trkpt>
      <trkpt lat="62.5010693" lon="14.1134419">
        <ele>692.2</ele>
        <time>2013-03-29T12:33:57Z</time>
      </trkpt>
      <trkpt lat="62.501122" lon="14.1138157">
        <ele>695.6</ele>
        <time>2013-03-29T12:34:03Z</time>
      </trkpt>
      <trkpt lat="62.5011242" lon="14.1140982">
        <ele>697.8</ele>
        <time>2013-03-29T12:34:09Z</time>
      </trkpt>
      <trkpt lat="62.5009939" lon="14.1136641">
        <ele>708.4</ele>
        <time>2013-03-29T12:36:03Z</time>
      </trkpt>
      <trkpt lat="62.5008703" lon="14.1140032">
        <ele>704.4</ele>
        <time>2013-03-29T12:36:09Z</time>
      </trkpt>
      <trkpt lat="62.5007155" lon="14.1143411">
        <ele>701.2</ele>
        <time>2013-03-29T12:36:14Z</time>
      </trkpt>
      <trkpt lat="62.5006191" lon="14.114552">
        <ele>699.2</ele>
        <time>2013-03-29T12:36:17Z</time>
      </trkpt>
      <trkpt lat="62.5005753" lon="14.114607">
        <ele>698.8</ele>
        <time>2013-03-29T12:36:18Z</time>
      </trkpt>
      <trkpt lat="62.500417" lon="14.1148447">
        <ele>697.2</ele>
        <time>2013-03-29T12:36:22Z</time>
      </trkpt>
      <trkpt lat="62.5003607" lon="14.1150973">
        <ele>696</ele>
        <time>2013-03-29T12:36:25Z</time>
      </trkpt>
      <trkpt lat="62.5003404" lon="14.1151915">
        <ele>695.2</ele>
        <time>2013-03-29T12:36:26Z</time>
      </trkpt>
      <trkpt lat="62.5002998" lon="14.1153709">
        <ele>694</ele>
        <time>2013-03-29T12:36:28Z</time>
      </trkpt>
      <trkpt lat="62.5002277" lon="14.1155036">
        <ele>692.6</ele>
        <time>2013-03-29T12:36:30Z</time>
      </trkpt>
      <trkpt lat="62.5001958" lon="14.1155409">
        <ele>692.2</ele>
        <time>2013-03-29T12:36:31Z</time>
      </trkpt>
      <trkpt lat="62.5001191" lon="14.1156035">
        <ele>690.4</ele>
        <time>2013-03-29T12:36:33Z</time>
      </trkpt>
      <trkpt lat="62.5000425" lon="14.1156912">
        <ele>689.6</ele>
        <time>2013-03-29T12:36:35Z</time>
      </trkpt>
      <trkpt lat="62.4999069" lon="14.1157983">
        <ele>690</ele>
        <time>2013-03-29T12:36:38Z</time>
      </trkpt>
      <trkpt lat="62.4998664" lon="14.1158344">
        <ele>689.2</ele>
        <time>2013-03-29T12:36:39Z</time>
      </trkpt>
      <trkpt lat="62.4998247" lon="14.1158649">
        <ele>689</ele>
        <time>2013-03-29T12:36:40Z</time>
      </trkpt>
      <trkpt lat="62.4997467" lon="14.1159319">
        <ele>688.8</ele>
        <time>2013-03-29T12:36:42Z</time>
      </trkpt>
      <trkpt lat="62.4996627" lon="14.116001">
        <ele>689</ele>
        <time>2013-03-29T12:36:44Z</time>
      </trkpt>
      <trkpt lat="62.4994904" lon="14.1161843">
        <ele>686.6</ele>
        <time>2013-03-29T12:36:48Z</time>
      </trkpt>
      <trkpt lat="62.4994099" lon="14.1163309">
        <ele>686</ele>
        <time>2013-03-29T12:36:50Z</time>
      </trkpt>
      <trkpt lat="62.4993821" lon="14.1163951">
        <ele>686.2</ele>
        <time>2013-03-29T12:36:51Z</time>
      </trkpt>
      <trkpt lat="62.4993489" lon="14.1165169">
        <ele>687</ele>
        <time>2013-03-29T12:36:53Z</time>
      </trkpt>
      <trkpt lat="62.4993074" lon="14.1166751">
        <ele>687.4</ele>
        <time>2013-03-29T12:36:56Z</time>
      </trkpt>
      <trkpt lat="62.4992219" lon="14.116884">
        <ele>687.2</ele>
        <time>2013-03-29T12:37:00Z</time>
      </trkpt>
      <trkpt lat="62.4990747" lon="14.1171912">
        <ele>687.6</ele>
        <time>2013-03-29T12:37:06Z</time>
      </trkpt>
      <trkpt lat="62.4989302" lon="14.1175078">
        <ele>688.6</ele>
        <time>2013-03-29T12:37:12Z</time>
      </trkpt>
      <trkpt lat="62.498749" lon="14.1177366">
        <ele>686.8</ele>
        <time>2013-03-29T12:37:17Z</time>
      </trkpt>
      <trkpt lat="62.4985608" lon="14.1179083">
        <ele>687.4</ele>
        <time>2013-03-29T12:37:23Z</time>
      </trkpt>
      <trkpt lat="62.4983704" lon="14.118075">
        <ele>686.6</ele>
        <time>2013-03-29T12:37:28Z</time>
      </trkpt>
      <trkpt lat="62.4981992" lon="14.1181599">
        <ele>684.4</ele>
        <time>2013-03-29T12:37:32Z</time>
      </trkpt>
      <trkpt lat="62.4981501" lon="14.1181603">
        <ele>684.2</ele>
        <time>2013-03-29T12:37:33Z</time>
      </trkpt>
      <trkpt lat="62.4980082" lon="14.1181553">
        <ele>685.6</ele>
        <time>2013-03-29T12:37:36Z</time>
      </trkpt>
      <trkpt lat="62.4979617" lon="14.1181458">
        <ele>686.2</ele>
        <time>2013-03-29T12:37:37Z</time>
      </trkpt>
      <trkpt lat="62.4978784" lon="14.1181103">
        <ele>687.4</ele>
        <time>2013-03-29T12:37:39Z</time>
      </trkpt>
      <trkpt lat="62.4977784" lon="14.1180267">
        <ele>688.4</ele>
        <time>2013-03-29T12:37:41Z</time>
      </trkpt>
      <trkpt lat="62.4976163" lon="14.1177178">
        <ele>687.8</ele>
        <time>2013-03-29T12:37:44Z</time>
      </trkpt>
      <trkpt lat="62.4974488" lon="14.1173663">
        <ele>687.8</ele>
        <time>2013-03-29T12:37:47Z</time>
      </trkpt>
      <trkpt lat="62.497312" lon="14.1171612">
        <ele>687.4</ele>
        <time>2013-03-29T12:37:49Z</time>
      </trkpt>
      <trkpt lat="62.4972421" lon="14.1170809">
        <ele>687.4</ele>
        <time>2013-03-29T12:37:50Z</time>
      </trkpt>
      <trkpt lat="62.4970034" lon="14.1168634">
        <ele>686.2</ele>
        <time>2013-03-29T12:37:53Z</time>
      </trkpt>
      <trkpt lat="62.4968231" lon="14.1164641">
        <ele>686</ele>
        <time>2013-03-29T12:37:56Z</time>
      </trkpt>
      <trkpt lat="62.4967804" lon="14.1163184">
        <ele>686</ele>
        <time>2013-03-29T12:37:57Z</time>
      </trkpt>
      <trkpt lat="62.496703" lon="14.1160351">
        <ele>686</ele>
        <time>2013-03-29T12:37:59Z</time>
      </trkpt>
      <trkpt lat="62.496592" lon="14.1156415">
        <ele>685.8</ele>
        <time>2013-03-29T12:38:02Z</time>
      </trkpt>
      <trkpt lat="62.496451" lon="14.115232">
        <ele>685.6</ele>
        <time>2013-03-29T12:38:06Z</time>
      </trkpt>
      <trkpt lat="62.4964195" lon="14.1151688">
        <ele>685.2</ele>
        <time>2013-03-29T12:38:07Z</time>
      </trkpt>
      <trkpt lat="62.4963461" lon="14.1150508">
        <ele>686.4</ele>
        <time>2013-03-29T12:38:11Z</time>
      </trkpt>
      <trkpt lat="62.4963026" lon="14.1149554">
        <ele>688</ele>
        <time>2013-03-29T12:38:14Z</time>
      </trkpt>
      <trkpt lat="62.4961859" lon="14.1146658">
        <ele>692.6</ele>
        <time>2013-03-29T12:38:21Z</time>
      </trkpt>
      <trkpt lat="62.4960606" lon="14.1143935">
        <ele>694</ele>
        <time>2013-03-29T12:38:31Z</time>
      </trkpt>
      <trkpt lat="62.4960515" lon="14.1143814">
        <ele>694.4</ele>
        <time>2013-03-29T12:38:32Z</time>
      </trkpt>
      <trkpt lat="62.4959571" lon="14.1142198">
        <ele>693.8</ele>
        <time>2013-03-29T12:38:37Z</time>
      </trkpt>
      <trkpt lat="62.4958931" lon="14.114113">
        <ele>694</ele>
        <time>2013-03-29T12:38:40Z</time>
      </trkpt>
      <trkpt lat="62.4957666" lon="14.113781">
        <ele>694.4</ele>
        <time>2013-03-29T12:38:49Z</time>
      </trkpt>
      <trkpt lat="62.4957487" lon="14.1134064">
        <ele>699.8</ele>
        <time>2013-03-29T12:38:57Z</time>
      </trkpt>
      <trkpt lat="62.4957333" lon="14.1131022">
        <ele>701.6</ele>
        <time>2013-03-29T12:39:03Z</time>
      </trkpt>
      <trkpt lat="62.4955363" lon="14.1129093">
        <ele>713.2</ele>
        <time>2013-03-29T12:41:24Z</time>
      </trkpt>
      <trkpt lat="62.4954738" lon="14.1128431">
        <ele>714</ele>
        <time>2013-03-29T12:41:28Z</time>
      </trkpt>
      <trkpt lat="62.4954044" lon="14.1126566">
        <ele>714.2</ele>
        <time>2013-03-29T12:41:33Z</time>
      </trkpt>
      <trkpt lat="62.4953963" lon="14.1126154">
        <ele>713.8</ele>
        <time>2013-03-29T12:41:34Z</time>
      </trkpt>
      <trkpt lat="62.4954125" lon="14.1122629">
        <ele>716</ele>
        <time>2013-03-29T12:41:40Z</time>
      </trkpt>
      <trkpt lat="62.4954379" lon="14.1118766">
        <ele>718.8</ele>
        <time>2013-03-29T12:41:47Z</time>
      </trkpt>
      <trkpt lat="62.4954395" lon="14.1114466">
        <ele>718.2</ele>
        <time>2013-03-29T12:41:53Z</time>
      </trkpt>
      <trkpt lat="62.4954375" lon="14.1110312">
        <ele>717.4</ele>
        <time>2013-03-29T12:41:59Z</time>
      </trkpt>
      <trkpt lat="62.4954975" lon="14.1106415">
        <ele>717</ele>
        <time>2013-03-29T12:42:05Z</time>
      </trkpt>
      <trkpt lat="62.4955263" lon="14.1102095">
        <ele>718.4</ele>
        <time>2013-03-29T12:42:13Z</time>
      </trkpt>
      <trkpt lat="62.4955777" lon="14.1098141">
        <ele>720.6</ele>
        <time>2013-03-29T12:42:19Z</time>
      </trkpt>
      <trkpt lat="62.4956551" lon="14.1094499">
        <ele>723.6</ele>
        <time>2013-03-29T12:42:25Z</time>
      </trkpt>
      <trkpt lat="62.4957497" lon="14.1090529">
        <ele>725</ele>
        <time>2013-03-29T12:42:32Z</time>
      </trkpt>
      <trkpt lat="62.4958428" lon="14.1086705">
        <ele>727.4</ele>
        <time>2013-03-29T12:42:39Z</time>
      </trkpt>
      <trkpt lat="62.4959469" lon="14.1083009">
        <ele>728.8</ele>
        <time>2013-03-29T12:42:46Z</time>
      </trkpt>
      <trkpt lat="62.496028" lon="14.1079275">
        <ele>729.6</ele>
        <time>2013-03-29T12:42:53Z</time>
      </trkpt>
      <trkpt lat="62.496043" lon="14.107669">
        <ele>729.8</ele>
        <time>2013-03-29T12:42:59Z</time>
      </trkpt>
      <trkpt lat="62.4960067" lon="14.1075397">
        <ele>729.6</ele>
        <time>2013-03-29T12:43:03Z</time>
      </trkpt>
      <trkpt lat="62.4958615" lon="14.1072541">
        <ele>727.8</ele>
        <time>2013-03-29T12:43:12Z</time>
      </trkpt>
      <trkpt lat="62.4957311" lon="14.1069932">
        <ele>727.8</ele>
        <time>2013-03-29T12:43:19Z</time>
      </trkpt>
      <trkpt lat="62.4956195" lon="14.1066615">
        <ele>729</ele>
        <time>2013-03-29T12:43:28Z</time>
      </trkpt>
      <trkpt lat="62.4955348" lon="14.1062935">
        <ele>731</ele>
        <time>2013-03-29T12:43:37Z</time>
      </trkpt>
      <trkpt lat="62.4955005" lon="14.1061063">
        <ele>732</ele>
        <time>2013-03-29T12:43:42Z</time>
      </trkpt>
      <trkpt lat="62.4954703" lon="14.1059323">
        <ele>732.8</ele>
        <time>2013-03-29T12:43:47Z</time>
      </trkpt>
      <trkpt lat="62.4954586" lon="14.1058975">
        <ele>732.6</ele>
        <time>2013-03-29T12:43:48Z</time>
      </trkpt>
      <trkpt lat="62.4954302" lon="14.1058286">
        <ele>732.4</ele>
        <time>2013-03-29T12:43:50Z</time>
      </trkpt>
      <trkpt lat="62.4953328" lon="14.1057228">
        <ele>733.2</ele>
        <time>2013-03-29T12:43:55Z</time>
      </trkpt>
      <trkpt lat="62.4952731" lon="14.1057173">
        <ele>735</ele>
        <time>2013-03-29T12:43:58Z</time>
      </trkpt>
      <trkpt lat="62.4951405" lon="14.1057111">
        <ele>737.8</ele>
        <time>2013-03-29T12:44:04Z</time>
      </trkpt>
      <trkpt lat="62.4949485" lon="14.1056801">
        <ele>739.4</ele>
        <time>2013-03-29T12:44:12Z</time>
      </trkpt>
      <trkpt lat="62.4947556" lon="14.1057157">
        <ele>739.6</ele>
        <time>2013-03-29T12:44:18Z</time>
      </trkpt>
      <trkpt lat="62.494566" lon="14.1057478">
        <ele>739.8</ele>
        <time>2013-03-29T12:44:23Z</time>
      </trkpt>
      <trkpt lat="62.4943717" lon="14.1056898">
        <ele>740</ele>
        <time>2013-03-29T12:44:30Z</time>
      </trkpt>
      <trkpt lat="62.4942893" lon="14.1055795">
        <ele>740.4</ele>
        <time>2013-03-29T12:44:34Z</time>
      </trkpt>
      <trkpt lat="62.4942169" lon="14.1055174">
        <ele>741.2</ele>
        <time>2013-03-29T12:44:37Z</time>
      </trkpt>
      <trkpt lat="62.4940221" lon="14.1056312">
        <ele>740.2</ele>
        <time>2013-03-29T12:44:44Z</time>
      </trkpt>
      <trkpt lat="62.4938433" lon="14.1057244">
        <ele>740.2</ele>
        <time>2013-03-29T12:44:49Z</time>
      </trkpt>
      <trkpt lat="62.4936392" lon="14.1056837">
        <ele>740</ele>
        <time>2013-03-29T12:44:54Z</time>
      </trkpt>
      <trkpt lat="62.4934887" lon="14.1056866">
        <ele>738.8</ele>
        <time>2013-03-29T12:44:57Z</time>
      </trkpt>
      <trkpt lat="62.4934305" lon="14.1056931">
        <ele>738.6</ele>
        <time>2013-03-29T12:44:58Z</time>
      </trkpt>
      <trkpt lat="62.4932768" lon="14.105709">
        <ele>739</ele>
        <time>2013-03-29T12:45:01Z</time>
      </trkpt>
      <trkpt lat="62.493237" lon="14.1057148">
        <ele>739.8</ele>
        <time>2013-03-29T12:45:02Z</time>
      </trkpt>
      <trkpt lat="62.4932431" lon="14.1056556">
        <ele>744.8</ele>
        <time>2013-03-29T12:45:29Z</time>
      </trkpt>
      <trkpt lat="62.493455" lon="14.1056385">
        <ele>744</ele>
        <time>2013-03-29T12:45:33Z</time>
      </trkpt>
      <trkpt lat="62.4936464" lon="14.1056348">
        <ele>740.8</ele>
        <time>2013-03-29T12:45:37Z</time>
      </trkpt>
      <trkpt lat="62.493687" lon="14.1056349">
        <ele>741.2</ele>
        <time>2013-03-29T12:45:38Z</time>
      </trkpt>
      <trkpt lat="62.493841" lon="14.1056508">
        <ele>741.2</ele>
        <time>2013-03-29T12:45:42Z</time>
      </trkpt>
      <trkpt lat="62.4938495" lon="14.1056845">
        <ele>746.4</ele>
        <time>2013-03-29T12:46:40Z</time>
      </trkpt>
      <trkpt lat="62.4937122" lon="14.1056784">
        <ele>745.8</ele>
        <time>2013-03-29T12:46:44Z</time>
      </trkpt>
      <trkpt lat="62.493517" lon="14.1056842">
        <ele>745</ele>
        <time>2013-03-29T12:46:48Z</time>
      </trkpt>
      <trkpt lat="62.4934724" lon="14.105699">
        <ele>744.6</ele>
        <time>2013-03-29T12:46:49Z</time>
      </trkpt>
      <trkpt lat="62.4933259" lon="14.1057067">
        <ele>743.8</ele>
        <time>2013-03-29T12:46:52Z</time>
      </trkpt>
      <trkpt lat="62.493255" lon="14.1057019">
        <ele>743.8</ele>
        <time>2013-03-29T12:46:54Z</time>
      </trkpt>
      <trkpt lat="62.4931318" lon="14.1056432">
        <ele>745</ele>
        <time>2013-03-29T12:46:58Z</time>
      </trkpt>
      <trkpt lat="62.4929611" lon="14.1055377">
        <ele>743.8</ele>
        <time>2013-03-29T12:47:02Z</time>
      </trkpt>
      <trkpt lat="62.4927712" lon="14.1054619">
        <ele>743.2</ele>
        <time>2013-03-29T12:47:06Z</time>
      </trkpt>
      <trkpt lat="62.4925965" lon="14.1052686">
        <ele>740.8</ele>
        <time>2013-03-29T12:47:10Z</time>
      </trkpt>
      <trkpt lat="62.4924557" lon="14.1050895">
        <ele>740</ele>
        <time>2013-03-29T12:47:14Z</time>
      </trkpt>
      <trkpt lat="62.4924211" lon="14.1050434">
        <ele>740.2</ele>
        <time>2013-03-29T12:47:15Z</time>
      </trkpt>
      <trkpt lat="62.4922623" lon="14.1048339">
        <ele>739.8</ele>
        <time>2013-03-29T12:47:20Z</time>
      </trkpt>
      <trkpt lat="62.4920539" lon="14.1046952">
        <ele>740.4</ele>
        <time>2013-03-29T12:47:26Z</time>
      </trkpt>
      <trkpt lat="62.4920191" lon="14.1046886">
        <ele>740.4</ele>
        <time>2013-03-29T12:47:27Z</time>
      </trkpt>
      <trkpt lat="62.4918422" lon="14.1046124">
        <ele>742.2</ele>
        <time>2013-03-29T12:47:31Z</time>
      </trkpt>
      <trkpt lat="62.4916465" lon="14.1045264">
        <ele>743.6</ele>
        <time>2013-03-29T12:47:37Z</time>
      </trkpt>
      <trkpt lat="62.4914606" lon="14.104485">
        <ele>740.8</ele>
        <time>2013-03-29T12:47:41Z</time>
      </trkpt>
      <trkpt lat="62.4912596" lon="14.1044454">
        <ele>740.6</ele>
        <time>2013-03-29T12:47:45Z</time>
      </trkpt>
      <trkpt lat="62.4911248" lon="14.104421">
        <ele>741.8</ele>
        <time>2013-03-29T12:47:48Z</time>
      </trkpt>
      <trkpt lat="62.4910492" lon="14.1043706">
        <ele>742.2</ele>
        <time>2013-03-29T12:47:50Z</time>
      </trkpt>
      <trkpt lat="62.4909877" lon="14.1042741">
        <ele>741.8</ele>
        <time>2013-03-29T12:47:52Z</time>
      </trkpt>
      <trkpt lat="62.4908741" lon="14.1040676">
        <ele>741.4</ele>
        <time>2013-03-29T12:47:55Z</time>
      </trkpt>
      <trkpt lat="62.4907021" lon="14.1037748">
        <ele>738</ele>
        <time>2013-03-29T12:47:59Z</time>
      </trkpt>
      <trkpt lat="62.4906551" lon="14.1036137">
        <ele>737.8</ele>
        <time>2013-03-29T12:48:01Z</time>
      </trkpt>
      <trkpt lat="62.4906231" lon="14.1034612">
        <ele>738</ele>
        <time>2013-03-29T12:48:03Z</time>
      </trkpt>
      <trkpt lat="62.4906177" lon="14.1033824">
        <ele>738.4</ele>
        <time>2013-03-29T12:48:04Z</time>
      </trkpt>
      <trkpt lat="62.4906169" lon="14.1033078">
        <ele>738.8</ele>
        <time>2013-03-29T12:48:05Z</time>
      </trkpt>
      <trkpt lat="62.4906296" lon="14.1031459">
        <ele>740</ele>
        <time>2013-03-29T12:48:07Z</time>
      </trkpt>
      <trkpt lat="62.4906397" lon="14.1029919">
        <ele>739.8</ele>
        <time>2013-03-29T12:48:09Z</time>
      </trkpt>
      <trkpt lat="62.4906265" lon="14.1025949">
        <ele>740.4</ele>
        <time>2013-03-29T12:48:14Z</time>
      </trkpt>
      <trkpt lat="62.4905926" lon="14.102168">
        <ele>740.6</ele>
        <time>2013-03-29T12:48:19Z</time>
      </trkpt>
      <trkpt lat="62.4905624" lon="14.1017566">
        <ele>739.8</ele>
        <time>2013-03-29T12:48:24Z</time>
      </trkpt>
      <trkpt lat="62.4905345" lon="14.1013226">
        <ele>740.4</ele>
        <time>2013-03-29T12:48:30Z</time>
      </trkpt>
      <trkpt lat="62.4904713" lon="14.1009649">
        <ele>741.6</ele>
        <time>2013-03-29T12:48:35Z</time>
      </trkpt>
      <trkpt lat="62.4903372" lon="14.1006707">
        <ele>741.8</ele>
        <time>2013-03-29T12:48:40Z</time>
      </trkpt>
      <trkpt lat="62.4901423" lon="14.1005714">
        <ele>742.2</ele>
        <time>2013-03-29T12:48:46Z</time>
      </trkpt>
      <trkpt lat="62.4899382" lon="14.1005294">
        <ele>742</ele>
        <time>2013-03-29T12:48:52Z</time>
      </trkpt>
      <trkpt lat="62.4898786" lon="14.1005046">
        <ele>742.2</ele>
        <time>2013-03-29T12:48:54Z</time>
      </trkpt>
      <trkpt lat="62.4897678" lon="14.1003113">
        <ele>741.8</ele>
        <time>2013-03-29T12:48:59Z</time>
      </trkpt>
      <trkpt lat="62.4897315" lon="14.1001943">
        <ele>742</ele>
        <time>2013-03-29T12:49:01Z</time>
      </trkpt>
      <trkpt lat="62.489666" lon="14.0999897">
        <ele>742.2</ele>
        <time>2013-03-29T12:49:04Z</time>
      </trkpt>
      <trkpt lat="62.4895771" lon="14.0995974">
        <ele>743.2</ele>
        <time>2013-03-29T12:49:09Z</time>
      </trkpt>
      <trkpt lat="62.4894788" lon="14.0992296">
        <ele>743.4</ele>
        <time>2013-03-29T12:49:14Z</time>
      </trkpt>
      <trkpt lat="62.4893597" lon="14.0988795">
        <ele>744</ele>
        <time>2013-03-29T12:49:20Z</time>
      </trkpt>
      <trkpt lat="62.4892542" lon="14.0985143">
        <ele>743.6</ele>
        <time>2013-03-29T12:49:25Z</time>
      </trkpt>
      <trkpt lat="62.4891481" lon="14.0981632">
        <ele>743.6</ele>
        <time>2013-03-29T12:49:30Z</time>
      </trkpt>
      <trkpt lat="62.4890405" lon="14.0978374">
        <ele>742.6</ele>
        <time>2013-03-29T12:49:35Z</time>
      </trkpt>
      <trkpt lat="62.4889191" lon="14.0975167">
        <ele>743</ele>
        <time>2013-03-29T12:49:41Z</time>
      </trkpt>
      <trkpt lat="62.4887877" lon="14.097467">
        <ele>744.6</ele>
        <time>2013-03-29T12:49:46Z</time>
      </trkpt>
      <trkpt lat="62.4887368" lon="14.0975591">
        <ele>744.2</ele>
        <time>2013-03-29T12:49:48Z</time>
      </trkpt>
      <trkpt lat="62.4886427" lon="14.0978731">
        <ele>743.8</ele>
        <time>2013-03-29T12:49:52Z</time>
      </trkpt>
      <trkpt lat="62.4885431" lon="14.0982252">
        <ele>743</ele>
        <time>2013-03-29T12:49:56Z</time>
      </trkpt>
      <trkpt lat="62.4885017" lon="14.0984133">
        <ele>742.8</ele>
        <time>2013-03-29T12:49:58Z</time>
      </trkpt>
      <trkpt lat="62.4884814" lon="14.0986356">
        <ele>742</ele>
        <time>2013-03-29T12:50:00Z</time>
      </trkpt>
      <trkpt lat="62.4884325" lon="14.0991003">
        <ele>740.4</ele>
        <time>2013-03-29T12:50:04Z</time>
      </trkpt>
      <trkpt lat="62.4883902" lon="14.0994048">
        <ele>740.8</ele>
        <time>2013-03-29T12:50:06Z</time>
      </trkpt>
      <trkpt lat="62.4883591" lon="14.0995504">
        <ele>740.6</ele>
        <time>2013-03-29T12:50:07Z</time>
      </trkpt>
      <trkpt lat="62.4883236" lon="14.0996859">
        <ele>740.4</ele>
        <time>2013-03-29T12:50:08Z</time>
      </trkpt>
      <trkpt lat="62.488224" lon="14.0999203">
        <ele>738.6</ele>
        <time>2013-03-29T12:50:10Z</time>
      </trkpt>
      <trkpt lat="62.4880023" lon="14.1001778">
        <ele>737</ele>
        <time>2013-03-29T12:50:13Z</time>
      </trkpt>
      <trkpt lat="62.4877567" lon="14.1003725">
        <ele>735.6</ele>
        <time>2013-03-29T12:50:16Z</time>
      </trkpt>
      <trkpt lat="62.4876029" lon="14.1005129">
        <ele>735.4</ele>
        <time>2013-03-29T12:50:18Z</time>
      </trkpt>
      <trkpt lat="62.4875451" lon="14.1006123">
        <ele>735.2</ele>
        <time>2013-03-29T12:50:19Z</time>
      </trkpt>
      <trkpt lat="62.4873949" lon="14.1009241">
        <ele>732.8</ele>
        <time>2013-03-29T12:50:22Z</time>
      </trkpt>
      <trkpt lat="62.4872833" lon="14.1011491">
        <ele>731</ele>
        <time>2013-03-29T12:50:24Z</time>
      </trkpt>
      <trkpt lat="62.4872195" lon="14.1012527">
        <ele>730.6</ele>
        <time>2013-03-29T12:50:25Z</time>
      </trkpt>
      <trkpt lat="62.487034" lon="14.1015666">
        <ele>730.4</ele>
        <time>2013-03-29T12:50:28Z</time>
      </trkpt>
      <trkpt lat="62.4869688" lon="14.1016612">
        <ele>730</ele>
        <time>2013-03-29T12:50:29Z</time>
      </trkpt>
      <trkpt lat="62.4868404" lon="14.1018001">
        <ele>729.6</ele>
        <time>2013-03-29T12:50:31Z</time>
      </trkpt>
      <trkpt lat="62.4866761" lon="14.1021134">
        <ele>729.2</ele>
        <time>2013-03-29T12:50:34Z</time>
      </trkpt>
      <trkpt lat="62.4865333" lon="14.1024044">
        <ele>728.2</ele>
        <time>2013-03-29T12:50:37Z</time>
      </trkpt>
      <trkpt lat="62.4864494" lon="14.102574">
        <ele>727.4</ele>
        <time>2013-03-29T12:50:39Z</time>
      </trkpt>
      <trkpt lat="62.4863573" lon="14.1027232">
        <ele>726.2</ele>
        <time>2013-03-29T12:50:41Z</time>
      </trkpt>
      <trkpt lat="62.4863164" lon="14.1027994">
        <ele>725.4</ele>
        <time>2013-03-29T12:50:42Z</time>
      </trkpt>
      <trkpt lat="62.4862168" lon="14.1030528">
        <ele>723.6</ele>
        <time>2013-03-29T12:50:45Z</time>
      </trkpt>
      <trkpt lat="62.4860397" lon="14.1033614">
        <ele>719.8</ele>
        <time>2013-03-29T12:50:49Z</time>
      </trkpt>
      <trkpt lat="62.4858723" lon="14.1036086">
        <ele>716.8</ele>
        <time>2013-03-29T12:50:52Z</time>
      </trkpt>
      <trkpt lat="62.4857645" lon="14.1037806">
        <ele>715</ele>
        <time>2013-03-29T12:50:54Z</time>
      </trkpt>
      <trkpt lat="62.4857095" lon="14.1038714">
        <ele>713.4</ele>
        <time>2013-03-29T12:50:55Z</time>
      </trkpt>
      <trkpt lat="62.4855126" lon="14.1041488">
        <ele>712.2</ele>
        <time>2013-03-29T12:50:58Z</time>
      </trkpt>
      <trkpt lat="62.4852912" lon="14.1044139">
        <ele>710.8</ele>
        <time>2013-03-29T12:51:01Z</time>
      </trkpt>
      <trkpt lat="62.4852101" lon="14.1044839">
        <ele>711</ele>
        <time>2013-03-29T12:51:02Z</time>
      </trkpt>
      <trkpt lat="62.4850467" lon="14.1045506">
        <ele>710.4</ele>
        <time>2013-03-29T12:51:04Z</time>
      </trkpt>
      <trkpt lat="62.4848415" lon="14.104472">
        <ele>708.4</ele>
        <time>2013-03-29T12:51:07Z</time>
      </trkpt>
      <trkpt lat="62.4847905" lon="14.1044276">
        <ele>708</ele>
        <time>2013-03-29T12:51:08Z</time>
      </trkpt>
      <trkpt lat="62.4846747" lon="14.1042548">
        <ele>707.4</ele>
        <time>2013-03-29T12:51:11Z</time>
      </trkpt>
      <trkpt lat="62.4845292" lon="14.1039186">
        <ele>705.2</ele>
        <time>2013-03-29T12:51:15Z</time>
      </trkpt>
      <trkpt lat="62.4844862" lon="14.1038157">
        <ele>705.2</ele>
        <time>2013-03-29T12:51:16Z</time>
      </trkpt>
      <trkpt lat="62.4844455" lon="14.1037259">
        <ele>705</ele>
        <time>2013-03-29T12:51:17Z</time>
      </trkpt>
      <trkpt lat="62.4843941" lon="14.103652">
        <ele>704.4</ele>
        <time>2013-03-29T12:51:18Z</time>
      </trkpt>
      <trkpt lat="62.4841943" lon="14.1035027">
        <ele>703.6</ele>
        <time>2013-03-29T12:51:21Z</time>
      </trkpt>
      <trkpt lat="62.484021" lon="14.1033215">
        <ele>701.4</ele>
        <time>2013-03-29T12:51:24Z</time>
      </trkpt>
      <trkpt lat="62.4838086" lon="14.1032623">
        <ele>699.6</ele>
        <time>2013-03-29T12:51:27Z</time>
      </trkpt>
      <trkpt lat="62.4835984" lon="14.1032396">
        <ele>697.2</ele>
        <time>2013-03-29T12:51:30Z</time>
      </trkpt>
      <trkpt lat="62.4833627" lon="14.1031672">
        <ele>694.8</ele>
        <time>2013-03-29T12:51:34Z</time>
      </trkpt>
      <trkpt lat="62.4831896" lon="14.1030687">
        <ele>692.2</ele>
        <time>2013-03-29T12:51:37Z</time>
      </trkpt>
      <trkpt lat="62.4831294" lon="14.1030256">
        <ele>691.6</ele>
        <time>2013-03-29T12:51:38Z</time>
      </trkpt>
      <trkpt lat="62.4830212" lon="14.1028963">
        <ele>690.4</ele>
        <time>2013-03-29T12:51:40Z</time>
      </trkpt>
      <trkpt lat="62.4828934" lon="14.1025113">
        <ele>688.4</ele>
        <time>2013-03-29T12:51:44Z</time>
      </trkpt>
      <trkpt lat="62.4828642" lon="14.1023264">
        <ele>688</ele>
        <time>2013-03-29T12:51:46Z</time>
      </trkpt>
      <trkpt lat="62.4828435" lon="14.1021384">
        <ele>687.4</ele>
        <time>2013-03-29T12:51:48Z</time>
      </trkpt>
      <trkpt lat="62.4828404" lon="14.1020468">
        <ele>687.4</ele>
        <time>2013-03-29T12:51:49Z</time>
      </trkpt>
      <trkpt lat="62.4828306" lon="14.1016794">
        <ele>688.6</ele>
        <time>2013-03-29T12:51:53Z</time>
      </trkpt>
      <trkpt lat="62.4828262" lon="14.1015945">
        <ele>688.6</ele>
        <time>2013-03-29T12:51:54Z</time>
      </trkpt>
      <trkpt lat="62.4828105" lon="14.1011919">
        <ele>689.2</ele>
        <time>2013-03-29T12:51:58Z</time>
      </trkpt>
      <trkpt lat="62.482798" lon="14.1009809">
        <ele>690</ele>
        <time>2013-03-29T12:52:00Z</time>
      </trkpt>
      <trkpt lat="62.4827915" lon="14.1007501">
        <ele>690.8</ele>
        <time>2013-03-29T12:52:02Z</time>
      </trkpt>
      <trkpt lat="62.4827891" lon="14.1006287">
        <ele>690.8</ele>
        <time>2013-03-29T12:52:03Z</time>
      </trkpt>
      <trkpt lat="62.4828102" lon="14.1002747">
        <ele>691.2</ele>
        <time>2013-03-29T12:52:06Z</time>
      </trkpt>
      <trkpt lat="62.482905" lon="14.0999805">
        <ele>691.6</ele>
        <time>2013-03-29T12:52:10Z</time>
      </trkpt>
      <trkpt lat="62.4829301" lon="14.0999118">
        <ele>691.4</ele>
        <time>2013-03-29T12:52:11Z</time>
      </trkpt>
      <trkpt lat="62.4830669" lon="14.0996017">
        <ele>693.4</ele>
        <time>2013-03-29T12:52:17Z</time>
      </trkpt>
      <trkpt lat="62.4830935" lon="14.09958">
        <ele>693</ele>
        <time>2013-03-29T12:52:18Z</time>
      </trkpt>
      <trkpt lat="62.4832511" lon="14.099455">
        <ele>692.4</ele>
        <time>2013-03-29T12:52:24Z</time>
      </trkpt>
      <trkpt lat="62.4833749" lon="14.0991478">
        <ele>696.2</ele>
        <time>2013-03-29T12:52:31Z</time>
      </trkpt>
      <trkpt lat="62.4834285" lon="14.0989162">
        <ele>699.2</ele>
        <time>2013-03-29T12:52:35Z</time>
      </trkpt>
      <trkpt lat="62.4834247" lon="14.0987888">
        <ele>700</ele>
        <time>2013-03-29T12:52:37Z</time>
      </trkpt>
      <trkpt lat="62.4833843" lon="14.0983512">
        <ele>701.6</ele>
        <time>2013-03-29T12:52:43Z</time>
      </trkpt>
      <trkpt lat="62.4833536" lon="14.0979102">
        <ele>702.8</ele>
        <time>2013-03-29T12:52:48Z</time>
      </trkpt>
      <trkpt lat="62.4833293" lon="14.0974898">
        <ele>703</ele>
        <time>2013-03-29T12:52:52Z</time>
      </trkpt>
      <trkpt lat="62.4831831" lon="14.0971811">
        <ele>700.6</ele>
        <time>2013-03-29T12:52:56Z</time>
      </trkpt>
      <trkpt lat="62.4830694" lon="14.0970881">
        <ele>698.2</ele>
        <time>2013-03-29T12:52:58Z</time>
      </trkpt>
      <trkpt lat="62.4830083" lon="14.0970277">
        <ele>697.2</ele>
        <time>2013-03-29T12:52:59Z</time>
      </trkpt>
      <trkpt lat="62.4828754" lon="14.0968082">
        <ele>696.6</ele>
        <time>2013-03-29T12:53:01Z</time>
      </trkpt>
      <trkpt lat="62.4828219" lon="14.0966664">
        <ele>696.2</ele>
        <time>2013-03-29T12:53:02Z</time>
      </trkpt>
      <trkpt lat="62.48279" lon="14.0962361">
        <ele>695.4</ele>
        <time>2013-03-29T12:53:06Z</time>
      </trkpt>
      <trkpt lat="62.4828108" lon="14.0958457">
        <ele>695.6</ele>
        <time>2013-03-29T12:53:11Z</time>
      </trkpt>
      <trkpt lat="62.4827512" lon="14.0957036">
        <ele>694.8</ele>
        <time>2013-03-29T12:53:13Z</time>
      </trkpt>
      <trkpt lat="62.4826592" lon="14.0955406">
        <ele>694</ele>
        <time>2013-03-29T12:53:15Z</time>
      </trkpt>
      <trkpt lat="62.482501" lon="14.0953005">
        <ele>692.2</ele>
        <time>2013-03-29T12:53:18Z</time>
      </trkpt>
      <trkpt lat="62.4824557" lon="14.0952056">
        <ele>691.6</ele>
        <time>2013-03-29T12:53:19Z</time>
      </trkpt>
      <trkpt lat="62.4823685" lon="14.0948774">
        <ele>690</ele>
        <time>2013-03-29T12:53:22Z</time>
      </trkpt>
      <trkpt lat="62.4823315" lon="14.0946671">
        <ele>689</ele>
        <time>2013-03-29T12:53:24Z</time>
      </trkpt>
      <trkpt lat="62.4823126" lon="14.0944877">
        <ele>688</ele>
        <time>2013-03-29T12:53:26Z</time>
      </trkpt>
      <trkpt lat="62.4823117" lon="14.0943966">
        <ele>687.6</ele>
        <time>2013-03-29T12:53:27Z</time>
      </trkpt>
      <trkpt lat="62.4822863" lon="14.0940526">
        <ele>686</ele>
        <time>2013-03-29T12:53:31Z</time>
      </trkpt>
      <trkpt lat="62.4822455" lon="14.0937053">
        <ele>684.6</ele>
        <time>2013-03-29T12:53:35Z</time>
      </trkpt>
      <trkpt lat="62.4822326" lon="14.093617">
        <ele>684</ele>
        <time>2013-03-29T12:53:36Z</time>
      </trkpt>
      <trkpt lat="62.4822234" lon="14.0935211">
        <ele>683.6</ele>
        <time>2013-03-29T12:53:37Z</time>
      </trkpt>
      <trkpt lat="62.4822037" lon="14.0932183">
        <ele>681</ele>
        <time>2013-03-29T12:53:40Z</time>
      </trkpt>
      <trkpt lat="62.482192" lon="14.0928168">
        <ele>679.8</ele>
        <time>2013-03-29T12:53:44Z</time>
      </trkpt>
      <trkpt lat="62.4821582" lon="14.0924118">
        <ele>678.8</ele>
        <time>2013-03-29T12:53:48Z</time>
      </trkpt>
      <trkpt lat="62.4821427" lon="14.0920178">
        <ele>678.8</ele>
        <time>2013-03-29T12:53:52Z</time>
      </trkpt>
      <trkpt lat="62.4821311" lon="14.0917408">
        <ele>680.2</ele>
        <time>2013-03-29T12:53:55Z</time>
      </trkpt>
      <trkpt lat="62.4821287" lon="14.0915596">
        <ele>680.4</ele>
        <time>2013-03-29T12:53:57Z</time>
      </trkpt>
      <trkpt lat="62.4821098" lon="14.0911172">
        <ele>680.6</ele>
        <time>2013-03-29T12:54:02Z</time>
      </trkpt>
      <trkpt lat="62.4821079" lon="14.0909464">
        <ele>680</ele>
        <time>2013-03-29T12:54:04Z</time>
      </trkpt>
      <trkpt lat="62.4820853" lon="14.0907059">
        <ele>681</ele>
        <time>2013-03-29T12:54:07Z</time>
      </trkpt>
      <trkpt lat="62.4820769" lon="14.0903068">
        <ele>683.2</ele>
        <time>2013-03-29T12:54:12Z</time>
      </trkpt>
      <trkpt lat="62.4820715" lon="14.0899129">
        <ele>686.2</ele>
        <time>2013-03-29T12:54:17Z</time>
      </trkpt>
      <trkpt lat="62.4820488" lon="14.0894565">
        <ele>689.6</ele>
        <time>2013-03-29T12:54:23Z</time>
      </trkpt>
      <trkpt lat="62.4820214" lon="14.089009">
        <ele>691.4</ele>
        <time>2013-03-29T12:54:28Z</time>
      </trkpt>
      <trkpt lat="62.4820055" lon="14.0886088">
        <ele>691.4</ele>
        <time>2013-03-29T12:54:32Z</time>
      </trkpt>
      <trkpt lat="62.4820018" lon="14.0885112">
        <ele>691.6</ele>
        <time>2013-03-29T12:54:33Z</time>
      </trkpt>
      <trkpt lat="62.4819809" lon="14.088205">
        <ele>692.8</ele>
        <time>2013-03-29T12:54:36Z</time>
      </trkpt>
      <trkpt lat="62.4819572" lon="14.0878273">
        <ele>692.2</ele>
        <time>2013-03-29T12:54:40Z</time>
      </trkpt>
      <trkpt lat="62.4819492" lon="14.0877408">
        <ele>692.2</ele>
        <time>2013-03-29T12:54:41Z</time>
      </trkpt>
      <trkpt lat="62.4819147" lon="14.0873771">
        <ele>691.2</ele>
        <time>2013-03-29T12:54:45Z</time>
      </trkpt>
      <trkpt lat="62.4819071" lon="14.0872884">
        <ele>691.2</ele>
        <time>2013-03-29T12:54:46Z</time>
      </trkpt>
      <trkpt lat="62.4818976" lon="14.087199">
        <ele>691</ele>
        <time>2013-03-29T12:54:47Z</time>
      </trkpt>
      <trkpt lat="62.4818774" lon="14.0868766">
        <ele>689.8</ele>
        <time>2013-03-29T12:54:50Z</time>
      </trkpt>
      <trkpt lat="62.4818571" lon="14.0866473">
        <ele>687.8</ele>
        <time>2013-03-29T12:54:52Z</time>
      </trkpt>
      <trkpt lat="62.4818437" lon="14.0864297">
        <ele>686</ele>
        <time>2013-03-29T12:54:54Z</time>
      </trkpt>
      <trkpt lat="62.4818427" lon="14.0863172">
        <ele>685.6</ele>
        <time>2013-03-29T12:54:55Z</time>
      </trkpt>
      <trkpt lat="62.4818402" lon="14.0860962">
        <ele>684.4</ele>
        <time>2013-03-29T12:54:57Z</time>
      </trkpt>
      <trkpt lat="62.4818351" lon="14.0859941">
        <ele>684</ele>
        <time>2013-03-29T12:54:58Z</time>
      </trkpt>
      <trkpt lat="62.4818058" lon="14.0855531">
        <ele>683.6</ele>
        <time>2013-03-29T12:55:02Z</time>
      </trkpt>
      <trkpt lat="62.4817895" lon="14.0853238">
        <ele>682.8</ele>
        <time>2013-03-29T12:55:04Z</time>
      </trkpt>
      <trkpt lat="62.4817822" lon="14.0852202">
        <ele>682.4</ele>
        <time>2013-03-29T12:55:05Z</time>
      </trkpt>
      <trkpt lat="62.4817791" lon="14.0851201">
        <ele>682.6</ele>
        <time>2013-03-29T12:55:06Z</time>
      </trkpt>
      <trkpt lat="62.4817633" lon="14.0846607">
        <ele>680.8</ele>
        <time>2013-03-29T12:55:11Z</time>
      </trkpt>
      <trkpt lat="62.4817234" lon="14.0841867">
        <ele>680.2</ele>
        <time>2013-03-29T12:55:17Z</time>
      </trkpt>
      <trkpt lat="62.4816998" lon="14.0837662">
        <ele>681.4</ele>
        <time>2013-03-29T12:55:22Z</time>
      </trkpt>
      <trkpt lat="62.4816976" lon="14.0832992">
        <ele>683.6</ele>
        <time>2013-03-29T12:55:28Z</time>
      </trkpt>
      <trkpt lat="62.4816794" lon="14.0828834">
        <ele>684.6</ele>
        <time>2013-03-29T12:55:33Z</time>
      </trkpt>
      <trkpt lat="62.4816403" lon="14.0824342">
        <ele>685.2</ele>
        <time>2013-03-29T12:55:38Z</time>
      </trkpt>
      <trkpt lat="62.4816428" lon="14.0819824">
        <ele>686.6</ele>
        <time>2013-03-29T12:55:44Z</time>
      </trkpt>
      <trkpt lat="62.4816291" lon="14.0815764">
        <ele>687</ele>
        <time>2013-03-29T12:55:49Z</time>
      </trkpt>
      <trkpt lat="62.4815825" lon="14.0811263">
        <ele>687.2</ele>
        <time>2013-03-29T12:55:54Z</time>
      </trkpt>
      <trkpt lat="62.4815561" lon="14.0808787">
        <ele>687.2</ele>
        <time>2013-03-29T12:55:57Z</time>
      </trkpt>
      <trkpt lat="62.4815418" lon="14.0807187">
        <ele>687</ele>
        <time>2013-03-29T12:55:59Z</time>
      </trkpt>
      <trkpt lat="62.4815299" lon="14.0805499">
        <ele>687.2</ele>
        <time>2013-03-29T12:56:01Z</time>
      </trkpt>
      <trkpt lat="62.4815174" lon="14.080315">
        <ele>687.4</ele>
        <time>2013-03-29T12:56:04Z</time>
      </trkpt>
      <trkpt lat="62.4815064" lon="14.0798465">
        <ele>688.2</ele>
        <time>2013-03-29T12:56:10Z</time>
      </trkpt>
      <trkpt lat="62.4814945" lon="14.079378">
        <ele>690.4</ele>
        <time>2013-03-29T12:56:16Z</time>
      </trkpt>
      <trkpt lat="62.4814859" lon="14.0789637">
        <ele>691.4</ele>
        <time>2013-03-29T12:56:21Z</time>
      </trkpt>
      <trkpt lat="62.4814588" lon="14.0785405">
        <ele>692</ele>
        <time>2013-03-29T12:56:26Z</time>
      </trkpt>
      <trkpt lat="62.4814465" lon="14.0781442">
        <ele>692.8</ele>
        <time>2013-03-29T12:56:31Z</time>
      </trkpt>
      <trkpt lat="62.4814303" lon="14.0777466">
        <ele>694.8</ele>
        <time>2013-03-29T12:56:36Z</time>
      </trkpt>
      <trkpt lat="62.4813905" lon="14.0773125">
        <ele>695.4</ele>
        <time>2013-03-29T12:56:42Z</time>
      </trkpt>
      <trkpt lat="62.4813563" lon="14.0769429">
        <ele>695.2</ele>
        <time>2013-03-29T12:56:46Z</time>
      </trkpt>
      <trkpt lat="62.4813382" lon="14.0765729">
        <ele>695</ele>
        <time>2013-03-29T12:56:50Z</time>
      </trkpt>
      <trkpt lat="62.4813345" lon="14.0764859">
        <ele>694.8</ele>
        <time>2013-03-29T12:56:51Z</time>
      </trkpt>
      <trkpt lat="62.4813268" lon="14.0763959">
        <ele>694.8</ele>
        <time>2013-03-29T12:56:52Z</time>
      </trkpt>
      <trkpt lat="62.4812893" lon="14.0760386">
        <ele>693</ele>
        <time>2013-03-29T12:56:56Z</time>
      </trkpt>
      <trkpt lat="62.481275" lon="14.0758556">
        <ele>691.6</ele>
        <time>2013-03-29T12:56:58Z</time>
      </trkpt>
      <trkpt lat="62.4812573" lon="14.0755872">
        <ele>690.2</ele>
        <time>2013-03-29T12:57:01Z</time>
      </trkpt>
      <trkpt lat="62.4812517" lon="14.0754951">
        <ele>690</ele>
        <time>2013-03-29T12:57:02Z</time>
      </trkpt>
      <trkpt lat="62.4812212" lon="14.0752102">
        <ele>689.2</ele>
        <time>2013-03-29T12:57:05Z</time>
      </trkpt>
      <trkpt lat="62.4812082" lon="14.0747932">
        <ele>688.8</ele>
        <time>2013-03-29T12:57:09Z</time>
      </trkpt>
      <trkpt lat="62.4811963" lon="14.074403">
        <ele>688.4</ele>
        <time>2013-03-29T12:57:13Z</time>
      </trkpt>
      <trkpt lat="62.4811787" lon="14.0740831">
        <ele>687.8</ele>
        <time>2013-03-29T12:57:16Z</time>
      </trkpt>
      <trkpt lat="62.4811751" lon="14.0739669">
        <ele>687.6</ele>
        <time>2013-03-29T12:57:17Z</time>
      </trkpt>
      <trkpt lat="62.4811642" lon="14.0734886">
        <ele>686</ele>
        <time>2013-03-29T12:57:21Z</time>
      </trkpt>
      <trkpt lat="62.4811569" lon="14.0731286">
        <ele>684.2</ele>
        <time>2013-03-29T12:57:24Z</time>
      </trkpt>
      <trkpt lat="62.4811516" lon="14.0730175">
        <ele>684.4</ele>
        <time>2013-03-29T12:57:25Z</time>
      </trkpt>
      <trkpt lat="62.4811013" lon="14.0726372">
        <ele>683</ele>
        <time>2013-03-29T12:57:29Z</time>
      </trkpt>
      <trkpt lat="62.4810941" lon="14.072557">
        <ele>682</ele>
        <time>2013-03-29T12:57:30Z</time>
      </trkpt>
      <trkpt lat="62.4810899" lon="14.0721842">
        <ele>679.8</ele>
        <time>2013-03-29T12:57:34Z</time>
      </trkpt>
      <trkpt lat="62.4810912" lon="14.0720767">
        <ele>679.4</ele>
        <time>2013-03-29T12:57:35Z</time>
      </trkpt>
      <trkpt lat="62.4810927" lon="14.0718149">
        <ele>678.2</ele>
        <time>2013-03-29T12:57:37Z</time>
      </trkpt>
      <trkpt lat="62.4810806" lon="14.0716343">
        <ele>679.4</ele>
        <time>2013-03-29T12:57:38Z</time>
      </trkpt>
      <trkpt lat="62.481059" lon="14.0711775">
        <ele>682.2</ele>
        <time>2013-03-29T12:57:42Z</time>
      </trkpt>
      <trkpt lat="62.4810614" lon="14.0710182">
        <ele>685</ele>
        <time>2013-03-29T12:57:45Z</time>
      </trkpt>
      <trkpt lat="62.4810707" lon="14.0709126">
        <ele>686.8</ele>
        <time>2013-03-29T12:57:47Z</time>
      </trkpt>
      <trkpt lat="62.4810925" lon="14.0707418">
        <ele>689</ele>
        <time>2013-03-29T12:57:50Z</time>
      </trkpt>
      <trkpt lat="62.4811678" lon="14.0703368">
        <ele>689.6</ele>
        <time>2013-03-29T12:57:55Z</time>
      </trkpt>
      <trkpt lat="62.4812641" lon="14.0699569">
        <ele>689.6</ele>
        <time>2013-03-29T12:58:00Z</time>
      </trkpt>
      <trkpt lat="62.4813319" lon="14.0696458">
        <ele>688.8</ele>
        <time>2013-03-29T12:58:04Z</time>
      </trkpt>
      <trkpt lat="62.4813495" lon="14.0695731">
        <ele>688.8</ele>
        <time>2013-03-29T12:58:05Z</time>
      </trkpt>
      <trkpt lat="62.4814352" lon="14.0691929">
        <ele>689</ele>
        <time>2013-03-29T12:58:10Z</time>
      </trkpt>
      <trkpt lat="62.4814712" lon="14.0689086">
        <ele>690.4</ele>
        <time>2013-03-29T12:58:13Z</time>
      </trkpt>
      <trkpt lat="62.4814817" lon="14.0687414">
        <ele>691.8</ele>
        <time>2013-03-29T12:58:15Z</time>
      </trkpt>
      <trkpt lat="62.4814702" lon="14.068567">
        <ele>691.8</ele>
        <time>2013-03-29T12:58:17Z</time>
      </trkpt>
      <trkpt lat="62.481459" lon="14.0684703">
        <ele>691.4</ele>
        <time>2013-03-29T12:58:18Z</time>
      </trkpt>
      <trkpt lat="62.4814352" lon="14.0683608">
        <ele>691</ele>
        <time>2013-03-29T12:58:19Z</time>
      </trkpt>
      <trkpt lat="62.4812824" lon="14.0681424">
        <ele>688.8</ele>
        <time>2013-03-29T12:58:22Z</time>
      </trkpt>
      <trkpt lat="62.4810771" lon="14.0683613">
        <ele>684.8</ele>
        <time>2013-03-29T12:58:25Z</time>
      </trkpt>
      <trkpt lat="62.4808967" lon="14.0685075">
        <ele>682.2</ele>
        <time>2013-03-29T12:58:28Z</time>
      </trkpt>
      <trkpt lat="62.4807015" lon="14.0684268">
        <ele>679.8</ele>
        <time>2013-03-29T12:58:31Z</time>
      </trkpt>
      <trkpt lat="62.4805669" lon="14.0681962">
        <ele>678.2</ele>
        <time>2013-03-29T12:58:34Z</time>
      </trkpt>
      <trkpt lat="62.4805318" lon="14.0681026">
        <ele>677.8</ele>
        <time>2013-03-29T12:58:35Z</time>
      </trkpt>
      <trkpt lat="62.4804354" lon="14.0677378">
        <ele>675.8</ele>
        <time>2013-03-29T12:58:38Z</time>
      </trkpt>
      <trkpt lat="62.4803882" lon="14.0674875">
        <ele>674.8</ele>
        <time>2013-03-29T12:58:40Z</time>
      </trkpt>
      <trkpt lat="62.4803861" lon="14.0673562">
        <ele>674.6</ele>
        <time>2013-03-29T12:58:41Z</time>
      </trkpt>
      <trkpt lat="62.4804538" lon="14.0668826">
        <ele>672.2</ele>
        <time>2013-03-29T12:58:45Z</time>
      </trkpt>
      <trkpt lat="62.480497" lon="14.0664335">
        <ele>670.4</ele>
        <time>2013-03-29T12:58:49Z</time>
      </trkpt>
      <trkpt lat="62.4804804" lon="14.0659973">
        <ele>669.4</ele>
        <time>2013-03-29T12:58:53Z</time>
      </trkpt>
      <trkpt lat="62.4804382" lon="14.0658135">
        <ele>668.2</ele>
        <time>2013-03-29T12:58:55Z</time>
      </trkpt>
      <trkpt lat="62.4804063" lon="14.0657377">
        <ele>667.4</ele>
        <time>2013-03-29T12:58:56Z</time>
      </trkpt>
      <trkpt lat="62.4803654" lon="14.0656618">
        <ele>667.2</ele>
        <time>2013-03-29T12:58:57Z</time>
      </trkpt>
      <trkpt lat="62.4801956" lon="14.0654772">
        <ele>664.4</ele>
        <time>2013-03-29T12:59:00Z</time>
      </trkpt>
      <trkpt lat="62.4801591" lon="14.0650013">
        <ele>662.4</ele>
        <time>2013-03-29T12:59:04Z</time>
      </trkpt>
      <trkpt lat="62.4802683" lon="14.0645915">
        <ele>661.4</ele>
        <time>2013-03-29T12:59:09Z</time>
      </trkpt>
      <trkpt lat="62.480285" lon="14.0645275">
        <ele>661.4</ele>
        <time>2013-03-29T12:59:10Z</time>
      </trkpt>
      <trkpt lat="62.480382" lon="14.0642216">
        <ele>662.8</ele>
        <time>2013-03-29T12:59:15Z</time>
      </trkpt>
      <trkpt lat="62.4804097" lon="14.0641054">
        <ele>663.8</ele>
        <time>2013-03-29T12:59:17Z</time>
      </trkpt>
      <trkpt lat="62.4804517" lon="14.0638645">
        <ele>665</ele>
        <time>2013-03-29T12:59:21Z</time>
      </trkpt>
      <trkpt lat="62.4804756" lon="14.0634286">
        <ele>670.6</ele>
        <time>2013-03-29T12:59:27Z</time>
      </trkpt>
      <trkpt lat="62.4805304" lon="14.0630343">
        <ele>674.8</ele>
        <time>2013-03-29T12:59:33Z</time>
      </trkpt>
      <trkpt lat="62.4806392" lon="14.0626625">
        <ele>676.6</ele>
        <time>2013-03-29T12:59:40Z</time>
      </trkpt>
      <trkpt lat="62.4807403" lon="14.0623198">
        <ele>681</ele>
        <time>2013-03-29T12:59:46Z</time>
      </trkpt>
      <trkpt lat="62.480745" lon="14.0618973">
        <ele>683.8</ele>
        <time>2013-03-29T12:59:52Z</time>
      </trkpt>
      <trkpt lat="62.4807751" lon="14.0614606">
        <ele>684.6</ele>
        <time>2013-03-29T12:59:58Z</time>
      </trkpt>
      <trkpt lat="62.4807958" lon="14.0612238">
        <ele>691</ele>
        <time>2013-03-29T13:02:55Z</time>
      </trkpt>
      <trkpt lat="62.4808003" lon="14.0610634">
        <ele>690</ele>
        <time>2013-03-29T13:02:58Z</time>
      </trkpt>
      <trkpt lat="62.4807891" lon="14.0608618">
        <ele>687.2</ele>
        <time>2013-03-29T13:03:00Z</time>
      </trkpt>
      <trkpt lat="62.4807703" lon="14.0606037">
        <ele>684.8</ele>
        <time>2013-03-29T13:03:02Z</time>
      </trkpt>
      <trkpt lat="62.4807145" lon="14.0602164">
        <ele>682</ele>
        <time>2013-03-29T13:03:05Z</time>
      </trkpt>
      <trkpt lat="62.4806995" lon="14.0600868">
        <ele>681.6</ele>
        <time>2013-03-29T13:03:06Z</time>
      </trkpt>
      <trkpt lat="62.4806661" lon="14.0598316">
        <ele>679.2</ele>
        <time>2013-03-29T13:03:08Z</time>
      </trkpt>
      <trkpt lat="62.4806263" lon="14.0595817">
        <ele>678.6</ele>
        <time>2013-03-29T13:03:10Z</time>
      </trkpt>
      <trkpt lat="62.4805993" lon="14.0593488">
        <ele>677.6</ele>
        <time>2013-03-29T13:03:12Z</time>
      </trkpt>
      <trkpt lat="62.4805699" lon="14.0589078">
        <ele>676.4</ele>
        <time>2013-03-29T13:03:16Z</time>
      </trkpt>
      <trkpt lat="62.48057" lon="14.0584203">
        <ele>674.6</ele>
        <time>2013-03-29T13:03:21Z</time>
      </trkpt>
      <trkpt lat="62.4805767" lon="14.0579609">
        <ele>672.6</ele>
        <time>2013-03-29T13:03:25Z</time>
      </trkpt>
      <trkpt lat="62.4806177" lon="14.0575165">
        <ele>671.8</ele>
        <time>2013-03-29T13:03:29Z</time>
      </trkpt>
      <trkpt lat="62.4806703" lon="14.057183">
        <ele>671.6</ele>
        <time>2013-03-29T13:03:33Z</time>
      </trkpt>
      <trkpt lat="62.4806777" lon="14.0571144">
        <ele>671.4</ele>
        <time>2013-03-29T13:03:34Z</time>
      </trkpt>
      <trkpt lat="62.4806955" lon="14.0568911">
        <ele>672.2</ele>
        <time>2013-03-29T13:03:37Z</time>
      </trkpt>
      <trkpt lat="62.4806963" lon="14.0568186">
        <ele>672</ele>
        <time>2013-03-29T13:03:38Z</time>
      </trkpt>
      <trkpt lat="62.4806882" lon="14.0566685">
        <ele>672</ele>
        <time>2013-03-29T13:03:40Z</time>
      </trkpt>
      <trkpt lat="62.4806948" lon="14.0562594">
        <ele>671.4</ele>
        <time>2013-03-29T13:03:45Z</time>
      </trkpt>
      <trkpt lat="62.4808047" lon="14.0559298">
        <ele>671.6</ele>
        <time>2013-03-29T13:03:50Z</time>
      </trkpt>
      <trkpt lat="62.4809197" lon="14.0556131">
        <ele>671.4</ele>
        <time>2013-03-29T13:03:55Z</time>
      </trkpt>
      <trkpt lat="62.4810642" lon="14.0553997">
        <ele>672.2</ele>
        <time>2013-03-29T13:04:00Z</time>
      </trkpt>
      <trkpt lat="62.4812361" lon="14.0552782">
        <ele>674.2</ele>
        <time>2013-03-29T13:04:05Z</time>
      </trkpt>
      <trkpt lat="62.4814319" lon="14.0553501">
        <ele>678.8</ele>
        <time>2013-03-29T13:04:12Z</time>
      </trkpt>
      <trkpt lat="62.4815645" lon="14.0553314">
        <ele>682.4</ele>
        <time>2013-03-29T13:05:19Z</time>
      </trkpt>
      <trkpt lat="62.4816369" lon="14.0549404">
        <ele>680.6</ele>
        <time>2013-03-29T13:05:24Z</time>
      </trkpt>
      <trkpt lat="62.4817406" lon="14.0546005">
        <ele>681.2</ele>
        <time>2013-03-29T13:05:30Z</time>
      </trkpt>
      <trkpt lat="62.4818151" lon="14.0542135">
        <ele>680.6</ele>
        <time>2013-03-29T13:05:36Z</time>
      </trkpt>
      <trkpt lat="62.4818879" lon="14.0537884">
        <ele>681.2</ele>
        <time>2013-03-29T13:05:41Z</time>
      </trkpt>
      <trkpt lat="62.481979" lon="14.0533983">
        <ele>682.6</ele>
        <time>2013-03-29T13:05:46Z</time>
      </trkpt>
      <trkpt lat="62.4819926" lon="14.0533215">
        <ele>682.4</ele>
        <time>2013-03-29T13:05:47Z</time>
      </trkpt>
      <trkpt lat="62.4820038" lon="14.0529537">
        <ele>681</ele>
        <time>2013-03-29T13:05:52Z</time>
      </trkpt>
      <trkpt lat="62.482033" lon="14.0525569">
        <ele>679.8</ele>
        <time>2013-03-29T13:05:57Z</time>
      </trkpt>
      <trkpt lat="62.4821366" lon="14.0522136">
        <ele>679.6</ele>
        <time>2013-03-29T13:06:02Z</time>
      </trkpt>
      <trkpt lat="62.4822007" lon="14.0518012">
        <ele>680</ele>
        <time>2013-03-29T13:06:07Z</time>
      </trkpt>
      <trkpt lat="62.4823064" lon="14.0514698">
        <ele>680</ele>
        <time>2013-03-29T13:06:12Z</time>
      </trkpt>
      <trkpt lat="62.4824248" lon="14.051104">
        <ele>682.6</ele>
        <time>2013-03-29T13:06:19Z</time>
      </trkpt>
      <trkpt lat="62.4825332" lon="14.0507319">
        <ele>683.8</ele>
        <time>2013-03-29T13:06:26Z</time>
      </trkpt>
      <trkpt lat="62.4826343" lon="14.0503643">
        <ele>683.4</ele>
        <time>2013-03-29T13:06:31Z</time>
      </trkpt>
      <trkpt lat="62.482781" lon="14.0500595">
        <ele>682.6</ele>
        <time>2013-03-29T13:06:37Z</time>
      </trkpt>
      <trkpt lat="62.4829285" lon="14.0497842">
        <ele>683.2</ele>
        <time>2013-03-29T13:06:43Z</time>
      </trkpt>
      <trkpt lat="62.4830764" lon="14.0494812">
        <ele>681.2</ele>
        <time>2013-03-29T13:06:49Z</time>
      </trkpt>
      <trkpt lat="62.4832108" lon="14.049197">
        <ele>682</ele>
        <time>2013-03-29T13:06:54Z</time>
      </trkpt>
      <trkpt lat="62.4833382" lon="14.0488857">
        <ele>685.8</ele>
        <time>2013-03-29T13:07:00Z</time>
      </trkpt>
      <trkpt lat="62.4834709" lon="14.0485985">
        <ele>689.2</ele>
        <time>2013-03-29T13:07:05Z</time>
      </trkpt>
      <trkpt lat="62.4836043" lon="14.0483226">
        <ele>691.4</ele>
        <time>2013-03-29T13:07:10Z</time>
      </trkpt>
      <trkpt lat="62.483746" lon="14.048031">
        <ele>690.8</ele>
        <time>2013-03-29T13:07:16Z</time>
      </trkpt>
      <trkpt lat="62.483889" lon="14.0477203">
        <ele>689.8</ele>
        <time>2013-03-29T13:07:21Z</time>
      </trkpt>
      <trkpt lat="62.4840215" lon="14.0473744">
        <ele>690</ele>
        <time>2013-03-29T13:07:26Z</time>
      </trkpt>
      <trkpt lat="62.4841007" lon="14.0470253">
        <ele>690.6</ele>
        <time>2013-03-29T13:07:31Z</time>
      </trkpt>
      <trkpt lat="62.4841852" lon="14.0466738">
        <ele>691.6</ele>
        <time>2013-03-29T13:07:36Z</time>
      </trkpt>
      <trkpt lat="62.4843037" lon="14.0463144">
        <ele>692</ele>
        <time>2013-03-29T13:07:42Z</time>
      </trkpt>
      <trkpt lat="62.4844402" lon="14.0459978">
        <ele>693</ele>
        <time>2013-03-29T13:07:47Z</time>
      </trkpt>
      <trkpt lat="62.4845944" lon="14.0457429">
        <ele>693.4</ele>
        <time>2013-03-29T13:07:52Z</time>
      </trkpt>
      <trkpt lat="62.48477" lon="14.0454987">
        <ele>692.8</ele>
        <time>2013-03-29T13:07:58Z</time>
      </trkpt>
      <trkpt lat="62.4849286" lon="14.045254">
        <ele>692.8</ele>
        <time>2013-03-29T13:08:03Z</time>
      </trkpt>
      <trkpt lat="62.4851032" lon="14.0450879">
        <ele>692.4</ele>
        <time>2013-03-29T13:08:09Z</time>
      </trkpt>
      <trkpt lat="62.4852817" lon="14.0449831">
        <ele>692.8</ele>
        <time>2013-03-29T13:08:14Z</time>
      </trkpt>
      <trkpt lat="62.4854888" lon="14.0448867">
        <ele>692.6</ele>
        <time>2013-03-29T13:08:20Z</time>
      </trkpt>
      <trkpt lat="62.4856733" lon="14.0448113">
        <ele>694.6</ele>
        <time>2013-03-29T13:08:26Z</time>
      </trkpt>
      <trkpt lat="62.4858303" lon="14.0445432">
        <ele>695.4</ele>
        <time>2013-03-29T13:08:32Z</time>
      </trkpt>
      <trkpt lat="62.4859521" lon="14.0442465">
        <ele>696.4</ele>
        <time>2013-03-29T13:08:36Z</time>
      </trkpt>
      <trkpt lat="62.4860541" lon="14.0439906">
        <ele>695.8</ele>
        <time>2013-03-29T13:08:40Z</time>
      </trkpt>
      <trkpt lat="62.4860822" lon="14.0439307">
        <ele>695.2</ele>
        <time>2013-03-29T13:08:41Z</time>
      </trkpt>
      <trkpt lat="62.4862023" lon="14.0437004">
        <ele>695.8</ele>
        <time>2013-03-29T13:08:45Z</time>
      </trkpt>
      <trkpt lat="62.4862246" lon="14.0436513">
        <ele>695.8</ele>
        <time>2013-03-29T13:08:46Z</time>
      </trkpt>
      <trkpt lat="62.4862992" lon="14.0435139">
        <ele>696</ele>
        <time>2013-03-29T13:08:49Z</time>
      </trkpt>
      <trkpt lat="62.4863804" lon="14.0433853">
        <ele>696.4</ele>
        <time>2013-03-29T13:08:52Z</time>
      </trkpt>
      <trkpt lat="62.4865442" lon="14.0431734">
        <ele>698.2</ele>
        <time>2013-03-29T13:08:58Z</time>
      </trkpt>
      <trkpt lat="62.4867136" lon="14.0429531">
        <ele>700.6</ele>
        <time>2013-03-29T13:09:05Z</time>
      </trkpt>
      <trkpt lat="62.4868669" lon="14.0426559">
        <ele>702.6</ele>
        <time>2013-03-29T13:09:10Z</time>
      </trkpt>
      <trkpt lat="62.4869907" lon="14.0422571">
        <ele>702.8</ele>
        <time>2013-03-29T13:09:15Z</time>
      </trkpt>
      <trkpt lat="62.4871907" lon="14.0420446">
        <ele>703</ele>
        <time>2013-03-29T13:09:19Z</time>
      </trkpt>
      <trkpt lat="62.4874005" lon="14.0419519">
        <ele>703.4</ele>
        <time>2013-03-29T13:09:23Z</time>
      </trkpt>
      <trkpt lat="62.4874987" lon="14.0419224">
        <ele>703</ele>
        <time>2013-03-29T13:09:25Z</time>
      </trkpt>
      <trkpt lat="62.4875894" lon="14.0418892">
        <ele>702.4</ele>
        <time>2013-03-29T13:09:27Z</time>
      </trkpt>
      <trkpt lat="62.4877179" lon="14.041816">
        <ele>700.2</ele>
        <time>2013-03-29T13:09:30Z</time>
      </trkpt>
      <trkpt lat="62.4877992" lon="14.0417541">
        <ele>698.6</ele>
        <time>2013-03-29T13:09:32Z</time>
      </trkpt>
      <trkpt lat="62.4879806" lon="14.041647">
        <ele>696.2</ele>
        <time>2013-03-29T13:09:37Z</time>
      </trkpt>
      <trkpt lat="62.488012" lon="14.0416269">
        <ele>696</ele>
        <time>2013-03-29T13:09:38Z</time>
      </trkpt>
      <trkpt lat="62.4882023" lon="14.0414457">
        <ele>695</ele>
        <time>2013-03-29T13:09:43Z</time>
      </trkpt>
      <trkpt lat="62.4883544" lon="14.0411765">
        <ele>693.2</ele>
        <time>2013-03-29T13:09:47Z</time>
      </trkpt>
      <trkpt lat="62.4884055" lon="14.0410713">
        <ele>693</ele>
        <time>2013-03-29T13:09:49Z</time>
      </trkpt>
      <trkpt lat="62.4885194" lon="14.0409374">
        <ele>693.6</ele>
        <time>2013-03-29T13:09:53Z</time>
      </trkpt>
      <trkpt lat="62.4887141" lon="14.0408566">
        <ele>694</ele>
        <time>2013-03-29T13:09:59Z</time>
      </trkpt>
      <trkpt lat="62.4889005" lon="14.0406476">
        <ele>695.8</ele>
        <time>2013-03-29T13:10:05Z</time>
      </trkpt>
      <trkpt lat="62.4890514" lon="14.0403476">
        <ele>697.4</ele>
        <time>2013-03-29T13:10:11Z</time>
      </trkpt>
      <trkpt lat="62.4890684" lon="14.0401708">
        <ele>698.4</ele>
        <time>2013-03-29T13:10:14Z</time>
      </trkpt>
      <trkpt lat="62.4890131" lon="14.0399642">
        <ele>699.6</ele>
        <time>2013-03-29T13:10:18Z</time>
      </trkpt>
      <trkpt lat="62.4889923" lon="14.039914">
        <ele>700.2</ele>
        <time>2013-03-29T13:10:19Z</time>
      </trkpt>
      <trkpt lat="62.4888737" lon="14.0396229">
        <ele>700.8</ele>
        <time>2013-03-29T13:10:23Z</time>
      </trkpt>
      <trkpt lat="62.4887007" lon="14.0393643">
        <ele>699.4</ele>
        <time>2013-03-29T13:10:28Z</time>
      </trkpt>
      <trkpt lat="62.4886704" lon="14.0393074">
        <ele>699.2</ele>
        <time>2013-03-29T13:10:29Z</time>
      </trkpt>
      <trkpt lat="62.488583" lon="14.0390598">
        <ele>698</ele>
        <time>2013-03-29T13:10:33Z</time>
      </trkpt>
      <trkpt lat="62.4885348" lon="14.0389607">
        <ele>697.4</ele>
        <time>2013-03-29T13:10:35Z</time>
      </trkpt>
      <trkpt lat="62.4884417" lon="14.0387548">
        <ele>698.2</ele>
        <time>2013-03-29T13:10:39Z</time>
      </trkpt>
      <trkpt lat="62.4883983" lon="14.0383355">
        <ele>698.2</ele>
        <time>2013-03-29T13:10:45Z</time>
      </trkpt>
      <trkpt lat="62.4885562" lon="14.0381212">
        <ele>698.6</ele>
        <time>2013-03-29T13:10:51Z</time>
      </trkpt>
      <trkpt lat="62.4886649" lon="14.0377652">
        <ele>701.8</ele>
        <time>2013-03-29T13:10:58Z</time>
      </trkpt>
      <trkpt lat="62.4887121" lon="14.0373695">
        <ele>704.6</ele>
        <time>2013-03-29T13:11:05Z</time>
      </trkpt>
      <trkpt lat="62.4887191" lon="14.0369852">
        <ele>707.4</ele>
        <time>2013-03-29T13:11:12Z</time>
      </trkpt>
      <trkpt lat="62.4886816" lon="14.0365771">
        <ele>707.2</ele>
        <time>2013-03-29T13:11:21Z</time>
      </trkpt>
      <trkpt lat="62.4886702" lon="14.0365403">
        <ele>707.2</ele>
        <time>2013-03-29T13:11:22Z</time>
      </trkpt>
      <trkpt lat="62.4886333" lon="14.0363315">
        <ele>707</ele>
        <time>2013-03-29T13:11:27Z</time>
      </trkpt>
      <trkpt lat="62.4886177" lon="14.0362154">
        <ele>707.6</ele>
        <time>2013-03-29T13:11:29Z</time>
      </trkpt>
      <trkpt lat="62.4886461" lon="14.0358035">
        <ele>708.4</ele>
        <time>2013-03-29T13:11:35Z</time>
      </trkpt>
      <trkpt lat="62.4887033" lon="14.0353914">
        <ele>709.2</ele>
        <time>2013-03-29T13:11:41Z</time>
      </trkpt>
      <trkpt lat="62.4887611" lon="14.0349881">
        <ele>710.6</ele>
        <time>2013-03-29T13:11:47Z</time>
      </trkpt>
      <trkpt lat="62.4886618" lon="14.0346899">
        <ele>711.6</ele>
        <time>2013-03-29T13:11:53Z</time>
      </trkpt>
      <trkpt lat="62.4886343" lon="14.0346624">
        <ele>712</ele>
        <time>2013-03-29T13:11:54Z</time>
      </trkpt>
      <trkpt lat="62.4884848" lon="14.0345462">
        <ele>712.8</ele>
        <time>2013-03-29T13:11:58Z</time>
      </trkpt>
      <trkpt lat="62.4883609" lon="14.0343231">
        <ele>714</ele>
        <time>2013-03-29T13:12:03Z</time>
      </trkpt>
      <trkpt lat="62.488348" lon="14.0342599">
        <ele>714.2</ele>
        <time>2013-03-29T13:12:04Z</time>
      </trkpt>
      <trkpt lat="62.4882245" lon="14.0339254">
        <ele>711.6</ele>
        <time>2013-03-29T13:12:10Z</time>
      </trkpt>
      <trkpt lat="62.4881495" lon="14.0337231">
        <ele>709.8</ele>
        <time>2013-03-29T13:12:14Z</time>
      </trkpt>
      <trkpt lat="62.4881281" lon="14.0336026">
        <ele>710.8</ele>
        <time>2013-03-29T13:12:16Z</time>
      </trkpt>
      <trkpt lat="62.488084" lon="14.0331836">
        <ele>712.2</ele>
        <time>2013-03-29T13:12:22Z</time>
      </trkpt>
      <trkpt lat="62.4880427" lon="14.0327678">
        <ele>713.6</ele>
        <time>2013-03-29T13:12:29Z</time>
      </trkpt>
      <trkpt lat="62.487918" lon="14.032451">
        <ele>714.8</ele>
        <time>2013-03-29T13:12:36Z</time>
      </trkpt>
      <trkpt lat="62.4877614" lon="14.0322889">
        <ele>714.6</ele>
        <time>2013-03-29T13:12:40Z</time>
      </trkpt>
      <trkpt lat="62.4875811" lon="14.0320546">
        <ele>714.6</ele>
        <time>2013-03-29T13:12:45Z</time>
      </trkpt>
      <trkpt lat="62.4874274" lon="14.0317264">
        <ele>712.2</ele>
        <time>2013-03-29T13:12:49Z</time>
      </trkpt>
      <trkpt lat="62.4873103" lon="14.0315107">
        <ele>709.8</ele>
        <time>2013-03-29T13:12:52Z</time>
      </trkpt>
      <trkpt lat="62.4872819" lon="14.0314346">
        <ele>709.2</ele>
        <time>2013-03-29T13:12:53Z</time>
      </trkpt>
      <trkpt lat="62.487231" lon="14.0312651">
        <ele>709.4</ele>
        <time>2013-03-29T13:12:55Z</time>
      </trkpt>
      <trkpt lat="62.4871782" lon="14.0310651">
        <ele>709.2</ele>
        <time>2013-03-29T13:12:58Z</time>
      </trkpt>
      <trkpt lat="62.4871104" lon="14.0307881">
        <ele>710.6</ele>
        <time>2013-03-29T13:13:03Z</time>
      </trkpt>
      <trkpt lat="62.4870955" lon="14.030655">
        <ele>711.4</ele>
        <time>2013-03-29T13:13:05Z</time>
      </trkpt>
      <trkpt lat="62.4871094" lon="14.0302151">
        <ele>714.8</ele>
        <time>2013-03-29T13:13:12Z</time>
      </trkpt>
      <trkpt lat="62.4870099" lon="14.0298794">
        <ele>716</ele>
        <time>2013-03-29T13:13:18Z</time>
      </trkpt>
      <trkpt lat="62.4869331" lon="14.029762">
        <ele>717.6</ele>
        <time>2013-03-29T13:13:21Z</time>
      </trkpt>
      <trkpt lat="62.4868543" lon="14.0295946">
        <ele>717.6</ele>
        <time>2013-03-29T13:13:25Z</time>
      </trkpt>
      <trkpt lat="62.4868395" lon="14.0295429">
        <ele>718.4</ele>
        <time>2013-03-29T13:13:26Z</time>
      </trkpt>
      <trkpt lat="62.4867561" lon="14.0292108">
        <ele>721.6</ele>
        <time>2013-03-29T13:13:32Z</time>
      </trkpt>
      <trkpt lat="62.4867001" lon="14.0288292">
        <ele>723.4</ele>
        <time>2013-03-29T13:13:38Z</time>
      </trkpt>
      <trkpt lat="62.4865906" lon="14.0284611">
        <ele>722</ele>
        <time>2013-03-29T13:13:44Z</time>
      </trkpt>
      <trkpt lat="62.4864638" lon="14.0282392">
        <ele>720.6</ele>
        <time>2013-03-29T13:13:49Z</time>
      </trkpt>
      <trkpt lat="62.4864335" lon="14.0282039">
        <ele>720.6</ele>
        <time>2013-03-29T13:13:50Z</time>
      </trkpt>
      <trkpt lat="62.4862687" lon="14.0279182">
        <ele>721.4</ele>
        <time>2013-03-29T13:13:55Z</time>
      </trkpt>
      <trkpt lat="62.4861789" lon="14.0276821">
        <ele>721.2</ele>
        <time>2013-03-29T13:13:58Z</time>
      </trkpt>
      <trkpt lat="62.486136" lon="14.0275325">
        <ele>720.4</ele>
        <time>2013-03-29T13:14:00Z</time>
      </trkpt>
      <trkpt lat="62.4860636" lon="14.0273176">
        <ele>720</ele>
        <time>2013-03-29T13:14:03Z</time>
      </trkpt>
      <trkpt lat="62.4860278" lon="14.0271772">
        <ele>719.6</ele>
        <time>2013-03-29T13:14:05Z</time>
      </trkpt>
      <trkpt lat="62.4859847" lon="14.0270291">
        <ele>720</ele>
        <time>2013-03-29T13:14:07Z</time>
      </trkpt>
      <trkpt lat="62.4859654" lon="14.026964">
        <ele>720.4</ele>
        <time>2013-03-29T13:14:08Z</time>
      </trkpt>
      <trkpt lat="62.485916" lon="14.0267788">
        <ele>722</ele>
        <time>2013-03-29T13:14:11Z</time>
      </trkpt>
      <trkpt lat="62.4857779" lon="14.026467">
        <ele>722</ele>
        <time>2013-03-29T13:14:17Z</time>
      </trkpt>
      <trkpt lat="62.4856196" lon="14.0262479">
        <ele>719.6</ele>
        <time>2013-03-29T13:14:22Z</time>
      </trkpt>
      <trkpt lat="62.4854681" lon="14.0259374">
        <ele>718.8</ele>
        <time>2013-03-29T13:14:27Z</time>
      </trkpt>
      <trkpt lat="62.4853708" lon="14.0256071">
        <ele>717</ele>
        <time>2013-03-29T13:14:32Z</time>
      </trkpt>
      <trkpt lat="62.4852673" lon="14.0252828">
        <ele>717</ele>
        <time>2013-03-29T13:14:37Z</time>
      </trkpt>
      <trkpt lat="62.4851517" lon="14.0249083">
        <ele>716.6</ele>
        <time>2013-03-29T13:14:44Z</time>
      </trkpt>
      <trkpt lat="62.4850565" lon="14.0245134">
        <ele>719.4</ele>
        <time>2013-03-29T13:14:52Z</time>
      </trkpt>
      <trkpt lat="62.4849679" lon="14.0242002">
        <ele>717.4</ele>
        <time>2013-03-29T13:14:56Z</time>
      </trkpt>
      <trkpt lat="62.484853" lon="14.0238053">
        <ele>719.2</ele>
        <time>2013-03-29T13:15:01Z</time>
      </trkpt>
      <trkpt lat="62.4848389" lon="14.0237208">
        <ele>719</ele>
        <time>2013-03-29T13:15:02Z</time>
      </trkpt>
      <trkpt lat="62.4849006" lon="14.0234224">
        <ele>720</ele>
        <time>2013-03-29T13:15:06Z</time>
      </trkpt>
      <trkpt lat="62.4850302" lon="14.0232684">
        <ele>721.8</ele>
        <time>2013-03-29T13:15:10Z</time>
      </trkpt>
      <trkpt lat="62.4850731" lon="14.0232219">
        <ele>723.6</ele>
        <time>2013-03-29T13:15:12Z</time>
      </trkpt>
      <trkpt lat="62.4851757" lon="14.0229212">
        <ele>724.4</ele>
        <time>2013-03-29T13:15:18Z</time>
      </trkpt>
      <trkpt lat="62.4852084" lon="14.0225299">
        <ele>725.4</ele>
        <time>2013-03-29T13:15:24Z</time>
      </trkpt>
      <trkpt lat="62.4852646" lon="14.0221167">
        <ele>727.8</ele>
        <time>2013-03-29T13:15:31Z</time>
      </trkpt>
      <trkpt lat="62.4854128" lon="14.0217918">
        <ele>731</ele>
        <time>2013-03-29T13:15:38Z</time>
      </trkpt>
      <trkpt lat="62.4855003" lon="14.0214103">
        <ele>732.2</ele>
        <time>2013-03-29T13:15:42Z</time>
      </trkpt>
      <trkpt lat="62.4855797" lon="14.0209672">
        <ele>731.2</ele>
        <time>2013-03-29T13:15:47Z</time>
      </trkpt>
      <trkpt lat="62.4856437" lon="14.0207402">
        <ele>731</ele>
        <time>2013-03-29T13:15:50Z</time>
      </trkpt>
      <trkpt lat="62.4856973" lon="14.0206213">
        <ele>731</ele>
        <time>2013-03-29T13:15:52Z</time>
      </trkpt>
      <trkpt lat="62.4856963" lon="14.0202099">
        <ele>730.2</ele>
        <time>2013-03-29T13:15:57Z</time>
      </trkpt>
      <trkpt lat="62.4856751" lon="14.0200493">
        <ele>729.4</ele>
        <time>2013-03-29T13:15:59Z</time>
      </trkpt>
      <trkpt lat="62.4855781" lon="14.0199664">
        <ele>729.6</ele>
        <time>2013-03-29T13:16:02Z</time>
      </trkpt>
      <trkpt lat="62.4853586" lon="14.0199302">
        <ele>728.8</ele>
        <time>2013-03-29T13:16:07Z</time>
      </trkpt>
      <trkpt lat="62.485244" lon="14.0198597">
        <ele>727.6</ele>
        <time>2013-03-29T13:16:09Z</time>
      </trkpt>
      <trkpt lat="62.4851431" lon="14.0197637">
        <ele>727.2</ele>
        <time>2013-03-29T13:16:11Z</time>
      </trkpt>
      <trkpt lat="62.4850509" lon="14.0196598">
        <ele>726.2</ele>
        <time>2013-03-29T13:16:13Z</time>
      </trkpt>
      <trkpt lat="62.4850092" lon="14.0196204">
        <ele>725.8</ele>
        <time>2013-03-29T13:16:14Z</time>
      </trkpt>
      <trkpt lat="62.4849687" lon="14.019583">
        <ele>725.6</ele>
        <time>2013-03-29T13:16:15Z</time>
      </trkpt>
      <trkpt lat="62.4848169" lon="14.019398">
        <ele>725.4</ele>
        <time>2013-03-29T13:16:19Z</time>
      </trkpt>
      <trkpt lat="62.4847862" lon="14.0193697">
        <ele>725.4</ele>
        <time>2013-03-29T13:16:20Z</time>
      </trkpt>
      <trkpt lat="62.4846094" lon="14.0194318">
        <ele>725.2</ele>
        <time>2013-03-29T13:16:25Z</time>
      </trkpt>
      <trkpt lat="62.484397" lon="14.0195219">
        <ele>724.6</ele>
        <time>2013-03-29T13:16:28Z</time>
      </trkpt>
      <trkpt lat="62.4841765" lon="14.0193441">
        <ele>725</ele>
        <time>2013-03-29T13:16:32Z</time>
      </trkpt>
      <trkpt lat="62.4840698" lon="14.0190262">
        <ele>724.8</ele>
        <time>2013-03-29T13:16:36Z</time>
      </trkpt>
      <trkpt lat="62.4841114" lon="14.0186481">
        <ele>725.8</ele>
        <time>2013-03-29T13:16:40Z</time>
      </trkpt>
      <trkpt lat="62.484121" lon="14.0185694">
        <ele>726.4</ele>
        <time>2013-03-29T13:16:41Z</time>
      </trkpt>
      <trkpt lat="62.4841163" lon="14.0182467">
        <ele>725.8</ele>
        <time>2013-03-29T13:16:45Z</time>
      </trkpt>
      <trkpt lat="62.4839736" lon="14.0179233">
        <ele>722.4</ele>
        <time>2013-03-29T13:16:51Z</time>
      </trkpt>
      <trkpt lat="62.4838557" lon="14.0176547">
        <ele>719.2</ele>
        <time>2013-03-29T13:16:56Z</time>
      </trkpt>
      <trkpt lat="62.4838468" lon="14.0175959">
        <ele>719</ele>
        <time>2013-03-29T13:16:57Z</time>
      </trkpt>
      <trkpt lat="62.4838293" lon="14.0171351">
        <ele>717.4</ele>
        <time>2013-03-29T13:17:02Z</time>
      </trkpt>
      <trkpt lat="62.4838085" lon="14.0167303">
        <ele>714.6</ele>
        <time>2013-03-29T13:17:06Z</time>
      </trkpt>
      <trkpt lat="62.4837864" lon="14.0165412">
        <ele>715.4</ele>
        <time>2013-03-29T13:17:08Z</time>
      </trkpt>
      <trkpt lat="62.4836951" lon="14.0163823">
        <ele>715.2</ele>
        <time>2013-03-29T13:17:11Z</time>
      </trkpt>
      <trkpt lat="62.4836527" lon="14.0163326">
        <ele>715.2</ele>
        <time>2013-03-29T13:17:12Z</time>
      </trkpt>
      <trkpt lat="62.4835787" lon="14.0162574">
        <ele>715.2</ele>
        <time>2013-03-29T13:17:14Z</time>
      </trkpt>
      <trkpt lat="62.483503" lon="14.0162015">
        <ele>715.4</ele>
        <time>2013-03-29T13:17:16Z</time>
      </trkpt>
      <trkpt lat="62.4832978" lon="14.0161705">
        <ele>715</ele>
        <time>2013-03-29T13:17:20Z</time>
      </trkpt>
      <trkpt lat="62.4832368" lon="14.016187">
        <ele>715</ele>
        <time>2013-03-29T13:17:21Z</time>
      </trkpt>
      <trkpt lat="62.4831749" lon="14.0162124">
        <ele>714.6</ele>
        <time>2013-03-29T13:17:22Z</time>
      </trkpt>
      <trkpt lat="62.4831182" lon="14.0162469">
        <ele>714.6</ele>
        <time>2013-03-29T13:17:23Z</time>
      </trkpt>
      <trkpt lat="62.4830088" lon="14.0162933">
        <ele>714.8</ele>
        <time>2013-03-29T13:17:25Z</time>
      </trkpt>
      <trkpt lat="62.4828979" lon="14.0162668">
        <ele>713.2</ele>
        <time>2013-03-29T13:17:27Z</time>
      </trkpt>
      <trkpt lat="62.4827825" lon="14.0162469">
        <ele>712.6</ele>
        <time>2013-03-29T13:17:29Z</time>
      </trkpt>
      <trkpt lat="62.4826778" lon="14.0162128">
        <ele>710.8</ele>
        <time>2013-03-29T13:17:31Z</time>
      </trkpt>
      <trkpt lat="62.4825633" lon="14.0161083">
        <ele>709.8</ele>
        <time>2013-03-29T13:17:33Z</time>
      </trkpt>
      <trkpt lat="62.4824973" lon="14.0160349">
        <ele>709.8</ele>
        <time>2013-03-29T13:17:34Z</time>
      </trkpt>
      <trkpt lat="62.4822893" lon="14.0158396">
        <ele>711.8</ele>
        <time>2013-03-29T13:17:37Z</time>
      </trkpt>
      <trkpt lat="62.482181" lon="14.0155183">
        <ele>710.6</ele>
        <time>2013-03-29T13:17:40Z</time>
      </trkpt>
      <trkpt lat="62.4822476" lon="14.0151534">
        <ele>710.6</ele>
        <time>2013-03-29T13:17:43Z</time>
      </trkpt>
      <trkpt lat="62.4823585" lon="14.014847">
        <ele>709.4</ele>
        <time>2013-03-29T13:17:46Z</time>
      </trkpt>
      <trkpt lat="62.4823997" lon="14.0147568">
        <ele>709.4</ele>
        <time>2013-03-29T13:17:47Z</time>
      </trkpt>
      <trkpt lat="62.4824867" lon="14.0145978">
        <ele>709.2</ele>
        <time>2013-03-29T13:17:49Z</time>
      </trkpt>
      <trkpt lat="62.4825328" lon="14.0145362">
        <ele>709</ele>
        <time>2013-03-29T13:17:50Z</time>
      </trkpt>
      <trkpt lat="62.4826586" lon="14.0143873">
        <ele>708.8</ele>
        <time>2013-03-29T13:17:53Z</time>
      </trkpt>
      <trkpt lat="62.4827016" lon="14.0143622">
        <ele>708.6</ele>
        <time>2013-03-29T13:17:54Z</time>
      </trkpt>
      <trkpt lat="62.4829014" lon="14.0142004">
        <ele>708.6</ele>
        <time>2013-03-29T13:17:59Z</time>
      </trkpt>
      <trkpt lat="62.4830414" lon="14.0139305">
        <ele>708.6</ele>
        <time>2013-03-29T13:18:04Z</time>
      </trkpt>
      <trkpt lat="62.4830716" lon="14.0135668">
        <ele>708</ele>
        <time>2013-03-29T13:18:09Z</time>
      </trkpt>
      <trkpt lat="62.4830319" lon="14.0132116">
        <ele>707.8</ele>
        <time>2013-03-29T13:18:13Z</time>
      </trkpt>
      <trkpt lat="62.4830218" lon="14.0131249">
        <ele>707.6</ele>
        <time>2013-03-29T13:18:14Z</time>
      </trkpt>
      <trkpt lat="62.4830011" lon="14.0127418">
        <ele>706.4</ele>
        <time>2013-03-29T13:18:18Z</time>
      </trkpt>
      <trkpt lat="62.483001" lon="14.0124491">
        <ele>704.8</ele>
        <time>2013-03-29T13:18:21Z</time>
      </trkpt>
      <trkpt lat="62.4830063" lon="14.0122686">
        <ele>703.8</ele>
        <time>2013-03-29T13:18:23Z</time>
      </trkpt>
      <trkpt lat="62.4829968" lon="14.0119876">
        <ele>702.2</ele>
        <time>2013-03-29T13:18:26Z</time>
      </trkpt>
      <trkpt lat="62.482975" lon="14.0118187">
        <ele>701.8</ele>
        <time>2013-03-29T13:18:28Z</time>
      </trkpt>
      <trkpt lat="62.4829226" lon="14.0115864">
        <ele>700</ele>
        <time>2013-03-29T13:18:31Z</time>
      </trkpt>
      <trkpt lat="62.4828833" lon="14.0114467">
        <ele>700</ele>
        <time>2013-03-29T13:18:33Z</time>
      </trkpt>
      <trkpt lat="62.4827741" lon="14.0110649">
        <ele>700.8</ele>
        <time>2013-03-29T13:18:39Z</time>
      </trkpt>
      <trkpt lat="62.482745" lon="14.0109825">
        <ele>701</ele>
        <time>2013-03-29T13:18:40Z</time>
      </trkpt>
      <trkpt lat="62.4826622" lon="14.0106903">
        <ele>703</ele>
        <time>2013-03-29T13:18:43Z</time>
      </trkpt>
      <trkpt lat="62.4826228" lon="14.0105096">
        <ele>703.8</ele>
        <time>2013-03-29T13:18:45Z</time>
      </trkpt>
      <trkpt lat="62.4825482" lon="14.0102896">
        <ele>704.8</ele>
        <time>2013-03-29T13:18:48Z</time>
      </trkpt>
      <trkpt lat="62.482386" lon="14.0101334">
        <ele>704.2</ele>
        <time>2013-03-29T13:18:52Z</time>
      </trkpt>
      <trkpt lat="62.4822524" lon="14.0100315">
        <ele>705</ele>
        <time>2013-03-29T13:18:55Z</time>
      </trkpt>
      <trkpt lat="62.4822246" lon="14.0098868">
        <ele>704.6</ele>
        <time>2013-03-29T13:18:57Z</time>
      </trkpt>
      <trkpt lat="62.4822183" lon="14.0097255">
        <ele>703.4</ele>
        <time>2013-03-29T13:18:59Z</time>
      </trkpt>
      <trkpt lat="62.4822279" lon="14.0095664">
        <ele>703.6</ele>
        <time>2013-03-29T13:19:01Z</time>
      </trkpt>
      <trkpt lat="62.4822359" lon="14.0094844">
        <ele>703.4</ele>
        <time>2013-03-29T13:19:02Z</time>
      </trkpt>
      <trkpt lat="62.4822281" lon="14.0090775">
        <ele>705.2</ele>
        <time>2013-03-29T13:19:08Z</time>
      </trkpt>
      <trkpt lat="62.482215" lon="14.008682">
        <ele>706.6</ele>
        <time>2013-03-29T13:19:14Z</time>
      </trkpt>
      <trkpt lat="62.4821456" lon="14.0082407">
        <ele>706</ele>
        <time>2013-03-29T13:19:20Z</time>
      </trkpt>
      <trkpt lat="62.4820946" lon="14.0078134">
        <ele>706</ele>
        <time>2013-03-29T13:19:26Z</time>
      </trkpt>
      <trkpt lat="62.4819672" lon="14.0074565">
        <ele>705</ele>
        <time>2013-03-29T13:19:31Z</time>
      </trkpt>
      <trkpt lat="62.4818863" lon="14.0071364">
        <ele>705.4</ele>
        <time>2013-03-29T13:19:35Z</time>
      </trkpt>
      <trkpt lat="62.4818758" lon="14.0070571">
        <ele>704.4</ele>
        <time>2013-03-29T13:19:36Z</time>
      </trkpt>
      <trkpt lat="62.4818288" lon="14.0067519">
        <ele>703.8</ele>
        <time>2013-03-29T13:19:40Z</time>
      </trkpt>
      <trkpt lat="62.4818135" lon="14.0066193">
        <ele>703.4</ele>
        <time>2013-03-29T13:19:42Z</time>
      </trkpt>
      <trkpt lat="62.4817976" lon="14.0062169">
        <ele>702.2</ele>
        <time>2013-03-29T13:19:48Z</time>
      </trkpt>
      <trkpt lat="62.4817765" lon="14.005791">
        <ele>703</ele>
        <time>2013-03-29T13:19:54Z</time>
      </trkpt>
      <trkpt lat="62.4817863" lon="14.0053534">
        <ele>704.2</ele>
        <time>2013-03-29T13:20:00Z</time>
      </trkpt>
      <trkpt lat="62.4817685" lon="14.0049276">
        <ele>704</ele>
        <time>2013-03-29T13:20:06Z</time>
      </trkpt>
      <trkpt lat="62.4817211" lon="14.0045637">
        <ele>703.4</ele>
        <time>2013-03-29T13:20:10Z</time>
      </trkpt>
      <trkpt lat="62.4817003" lon="14.004326">
        <ele>700.8</ele>
        <time>2013-03-29T13:20:12Z</time>
      </trkpt>
      <trkpt lat="62.4816775" lon="14.0041937">
        <ele>700.2</ele>
        <time>2013-03-29T13:20:13Z</time>
      </trkpt>
      <trkpt lat="62.4816333" lon="14.0039292">
        <ele>700</ele>
        <time>2013-03-29T13:20:15Z</time>
      </trkpt>
      <trkpt lat="62.4816206" lon="14.0038087">
        <ele>700</ele>
        <time>2013-03-29T13:20:16Z</time>
      </trkpt>
      <trkpt lat="62.4815903" lon="14.0034417">
        <ele>700.8</ele>
        <time>2013-03-29T13:20:20Z</time>
      </trkpt>
      <trkpt lat="62.4815863" lon="14.0033736">
        <ele>701</ele>
        <time>2013-03-29T13:20:21Z</time>
      </trkpt>
      <trkpt lat="62.4815791" lon="14.0033112">
        <ele>701.4</ele>
        <time>2013-03-29T13:20:22Z</time>
      </trkpt>
      <trkpt lat="62.4815496" lon="14.0029684">
        <ele>702.4</ele>
        <time>2013-03-29T13:20:27Z</time>
      </trkpt>
      <trkpt lat="62.4815452" lon="14.0026013">
        <ele>703.2</ele>
        <time>2013-03-29T13:20:32Z</time>
      </trkpt>
      <trkpt lat="62.4815453" lon="14.0021825">
        <ele>704</ele>
        <time>2013-03-29T13:20:36Z</time>
      </trkpt>
      <trkpt lat="62.4815608" lon="14.0018853">
        <ele>705.2</ele>
        <time>2013-03-29T13:20:39Z</time>
      </trkpt>
      <trkpt lat="62.4815745" lon="14.0017834">
        <ele>705</ele>
        <time>2013-03-29T13:20:40Z</time>
      </trkpt>
      <trkpt lat="62.4816185" lon="14.0013866">
        <ele>705.8</ele>
        <time>2013-03-29T13:20:45Z</time>
      </trkpt>
      <trkpt lat="62.4816284" lon="14.0013475">
        <ele>706.8</ele>
        <time>2013-03-29T13:20:46Z</time>
      </trkpt>
      <trkpt lat="62.4817463" lon="14.0010753">
        <ele>713</ele>
        <time>2013-03-29T13:20:53Z</time>
      </trkpt>
      <trkpt lat="62.4818097" lon="14.0006814">
        <ele>717</ele>
        <time>2013-03-29T13:21:00Z</time>
      </trkpt>
      <trkpt lat="62.481837" lon="14.0002902">
        <ele>720</ele>
        <time>2013-03-29T13:21:06Z</time>
      </trkpt>
      <trkpt lat="62.4818282" lon="14.0001653">
        <ele>720.4</ele>
        <time>2013-03-29T13:21:08Z</time>
      </trkpt>
      <trkpt lat="62.4817938" lon="13.9998561">
        <ele>721</ele>
        <time>2013-03-29T13:21:12Z</time>
      </trkpt>
      <trkpt lat="62.4818002" lon="13.9996393">
        <ele>720</ele>
        <time>2013-03-29T13:21:14Z</time>
      </trkpt>
      <trkpt lat="62.481805" lon="13.9993868">
        <ele>719.4</ele>
        <time>2013-03-29T13:21:16Z</time>
      </trkpt>
      <trkpt lat="62.4818157" lon="13.9992783">
        <ele>719.6</ele>
        <time>2013-03-29T13:21:17Z</time>
      </trkpt>
      <trkpt lat="62.4818292" lon="13.999113">
        <ele>719.2</ele>
        <time>2013-03-29T13:21:19Z</time>
      </trkpt>
      <trkpt lat="62.48182" lon="13.9989444">
        <ele>718.6</ele>
        <time>2013-03-29T13:21:21Z</time>
      </trkpt>
      <trkpt lat="62.4817744" lon="13.9985603">
        <ele>715.2</ele>
        <time>2013-03-29T13:21:25Z</time>
      </trkpt>
      <trkpt lat="62.4817328" lon="13.9983546">
        <ele>713.8</ele>
        <time>2013-03-29T13:21:27Z</time>
      </trkpt>
      <trkpt lat="62.4816573" lon="13.9981587">
        <ele>712.6</ele>
        <time>2013-03-29T13:21:29Z</time>
      </trkpt>
      <trkpt lat="62.481606" lon="13.9981145">
        <ele>711.8</ele>
        <time>2013-03-29T13:21:30Z</time>
      </trkpt>
      <trkpt lat="62.4814703" lon="13.9979795">
        <ele>711.2</ele>
        <time>2013-03-29T13:21:33Z</time>
      </trkpt>
      <trkpt lat="62.4814371" lon="13.9979318">
        <ele>710.4</ele>
        <time>2013-03-29T13:21:34Z</time>
      </trkpt>
      <trkpt lat="62.4813456" lon="13.9977267">
        <ele>707.2</ele>
        <time>2013-03-29T13:21:37Z</time>
      </trkpt>
      <trkpt lat="62.4813142" lon="13.9976273">
        <ele>706</ele>
        <time>2013-03-29T13:21:38Z</time>
      </trkpt>
      <trkpt lat="62.4812837" lon="13.9974961">
        <ele>706</ele>
        <time>2013-03-29T13:21:39Z</time>
      </trkpt>
      <trkpt lat="62.4812548" lon="13.9973205">
        <ele>705.8</ele>
        <time>2013-03-29T13:21:40Z</time>
      </trkpt>
      <trkpt lat="62.4812318" lon="13.9967322">
        <ele>704.8</ele>
        <time>2013-03-29T13:21:43Z</time>
      </trkpt>
      <trkpt lat="62.4812644" lon="13.9963075">
        <ele>706</ele>
        <time>2013-03-29T13:21:46Z</time>
      </trkpt>
      <trkpt lat="62.4812955" lon="13.9959628">
        <ele>705.6</ele>
        <time>2013-03-29T13:21:50Z</time>
      </trkpt>
      <trkpt lat="62.4812993" lon="13.9958841">
        <ele>705.8</ele>
        <time>2013-03-29T13:21:51Z</time>
      </trkpt>
      <trkpt lat="62.481231" lon="13.9954664">
        <ele>706</ele>
        <time>2013-03-29T13:21:57Z</time>
      </trkpt>
      <trkpt lat="62.4812082" lon="13.9954146">
        <ele>705.6</ele>
        <time>2013-03-29T13:21:58Z</time>
      </trkpt>
      <trkpt lat="62.4811199" lon="13.9951553">
        <ele>705.8</ele>
        <time>2013-03-29T13:22:03Z</time>
      </trkpt>
      <trkpt lat="62.4810658" lon="13.9947885">
        <ele>721.2</ele>
        <time>2013-03-29T13:24:13Z</time>
      </trkpt>
      <trkpt lat="62.481091" lon="13.9943721">
        <ele>721</ele>
        <time>2013-03-29T13:24:20Z</time>
      </trkpt>
      <trkpt lat="62.4810948" lon="13.9939494">
        <ele>720.8</ele>
        <time>2013-03-29T13:24:27Z</time>
      </trkpt>
      <trkpt lat="62.4810673" lon="13.9935557">
        <ele>720.4</ele>
        <time>2013-03-29T13:24:32Z</time>
      </trkpt>
      <trkpt lat="62.4810465" lon="13.9930929">
        <ele>720.2</ele>
        <time>2013-03-29T13:24:37Z</time>
      </trkpt>
      <trkpt lat="62.4810521" lon="13.9927852">
        <ele>720</ele>
        <time>2013-03-29T13:24:40Z</time>
      </trkpt>
      <trkpt lat="62.4810605" lon="13.9926878">
        <ele>719.4</ele>
        <time>2013-03-29T13:24:41Z</time>
      </trkpt>
      <trkpt lat="62.4810777" lon="13.9925151">
        <ele>719.2</ele>
        <time>2013-03-29T13:24:43Z</time>
      </trkpt>
      <trkpt lat="62.481107" lon="13.9923103">
        <ele>719.4</ele>
        <time>2013-03-29T13:24:46Z</time>
      </trkpt>
      <trkpt lat="62.4811138" lon="13.9922466">
        <ele>719.4</ele>
        <time>2013-03-29T13:24:47Z</time>
      </trkpt>
      <trkpt lat="62.481161" lon="13.9918566">
        <ele>718.8</ele>
        <time>2013-03-29T13:24:53Z</time>
      </trkpt>
      <trkpt lat="62.4811517" lon="13.9914011">
        <ele>717</ele>
        <time>2013-03-29T13:24:59Z</time>
      </trkpt>
      <trkpt lat="62.4811321" lon="13.9909905">
        <ele>714</ele>
        <time>2013-03-29T13:25:04Z</time>
      </trkpt>
      <trkpt lat="62.4811935" lon="13.9905829">
        <ele>711.6</ele>
        <time>2013-03-29T13:25:09Z</time>
      </trkpt>
      <trkpt lat="62.4812233" lon="13.9903069">
        <ele>710.2</ele>
        <time>2013-03-29T13:25:12Z</time>
      </trkpt>
      <trkpt lat="62.4812273" lon="13.9901979">
        <ele>709.4</ele>
        <time>2013-03-29T13:25:13Z</time>
      </trkpt>
      <trkpt lat="62.4812468" lon="13.9899115">
        <ele>708.2</ele>
        <time>2013-03-29T13:25:16Z</time>
      </trkpt>
      <trkpt lat="62.4812724" lon="13.989739">
        <ele>707.2</ele>
        <time>2013-03-29T13:25:18Z</time>
      </trkpt>
      <trkpt lat="62.4813147" lon="13.9893821">
        <ele>705.6</ele>
        <time>2013-03-29T13:25:22Z</time>
      </trkpt>
      <trkpt lat="62.481319" lon="13.9892872">
        <ele>705.4</ele>
        <time>2013-03-29T13:25:23Z</time>
      </trkpt>
      <trkpt lat="62.4813313" lon="13.9890936">
        <ele>705.8</ele>
        <time>2013-03-29T13:25:25Z</time>
      </trkpt>
      <trkpt lat="62.4813506" lon="13.9889257">
        <ele>706.2</ele>
        <time>2013-03-29T13:25:27Z</time>
      </trkpt>
      <trkpt lat="62.4813536" lon="13.9888569">
        <ele>706</ele>
        <time>2013-03-29T13:25:28Z</time>
      </trkpt>
      <trkpt lat="62.4813154" lon="13.9883856">
        <ele>703.8</ele>
        <time>2013-03-29T13:25:34Z</time>
      </trkpt>
      <trkpt lat="62.481292" lon="13.9881286">
        <ele>703.6</ele>
        <time>2013-03-29T13:25:36Z</time>
      </trkpt>
      <trkpt lat="62.481292" lon="13.9880037">
        <ele>703.4</ele>
        <time>2013-03-29T13:25:37Z</time>
      </trkpt>
      <trkpt lat="62.4813092" lon="13.9875804">
        <ele>702.8</ele>
        <time>2013-03-29T13:25:41Z</time>
      </trkpt>
      <trkpt lat="62.4812434" lon="13.9871499">
        <ele>701.2</ele>
        <time>2013-03-29T13:25:46Z</time>
      </trkpt>
      <trkpt lat="62.4812288" lon="13.987074">
        <ele>701.2</ele>
        <time>2013-03-29T13:25:47Z</time>
      </trkpt>
      <trkpt lat="62.4811942" lon="13.9869211">
        <ele>700.2</ele>
        <time>2013-03-29T13:25:49Z</time>
      </trkpt>
      <trkpt lat="62.4811687" lon="13.986758">
        <ele>700.2</ele>
        <time>2013-03-29T13:25:51Z</time>
      </trkpt>
      <trkpt lat="62.4812258" lon="13.9864284">
        <ele>700.8</ele>
        <time>2013-03-29T13:25:55Z</time>
      </trkpt>
      <trkpt lat="62.4812463" lon="13.9863481">
        <ele>701</ele>
        <time>2013-03-29T13:25:56Z</time>
      </trkpt>
      <trkpt lat="62.4812857" lon="13.9861847">
        <ele>701.2</ele>
        <time>2013-03-29T13:25:58Z</time>
      </trkpt>
      <trkpt lat="62.4812941" lon="13.9859389">
        <ele>702</ele>
        <time>2013-03-29T13:26:01Z</time>
      </trkpt>
      <trkpt lat="62.4812962" lon="13.9856759">
        <ele>702.4</ele>
        <time>2013-03-29T13:26:04Z</time>
      </trkpt>
      <trkpt lat="62.4813012" lon="13.9855199">
        <ele>703</ele>
        <time>2013-03-29T13:26:06Z</time>
      </trkpt>
      <trkpt lat="62.48132" lon="13.9851075">
        <ele>703.4</ele>
        <time>2013-03-29T13:26:11Z</time>
      </trkpt>
      <trkpt lat="62.4813613" lon="13.9847268">
        <ele>704.2</ele>
        <time>2013-03-29T13:26:16Z</time>
      </trkpt>
      <trkpt lat="62.4813825" lon="13.9843165">
        <ele>705.6</ele>
        <time>2013-03-29T13:26:21Z</time>
      </trkpt>
      <trkpt lat="62.4814517" lon="13.9839148">
        <ele>706.2</ele>
        <time>2013-03-29T13:26:26Z</time>
      </trkpt>
      <trkpt lat="62.4815448" lon="13.9835517">
        <ele>708</ele>
        <time>2013-03-29T13:26:31Z</time>
      </trkpt>
      <trkpt lat="62.4815474" lon="13.9831282">
        <ele>709.4</ele>
        <time>2013-03-29T13:26:36Z</time>
      </trkpt>
      <trkpt lat="62.4815495" lon="13.9829329">
        <ele>709.2</ele>
        <time>2013-03-29T13:26:38Z</time>
      </trkpt>
      <trkpt lat="62.4815685" lon="13.9826515">
        <ele>709.2</ele>
        <time>2013-03-29T13:26:41Z</time>
      </trkpt>
      <trkpt lat="62.4816232" lon="13.9823473">
        <ele>710.8</ele>
        <time>2013-03-29T13:26:45Z</time>
      </trkpt>
      <trkpt lat="62.4816432" lon="13.9822232">
        <ele>711</ele>
        <time>2013-03-29T13:26:47Z</time>
      </trkpt>
      <trkpt lat="62.4817324" lon="13.982518">
        <ele>726</ele>
        <time>2013-03-29T13:36:55Z</time>
      </trkpt>
      <trkpt lat="62.4818271" lon="13.9828871">
        <ele>723</ele>
        <time>2013-03-29T13:37:01Z</time>
      </trkpt>
      <trkpt lat="62.4819664" lon="13.9831394">
        <ele>721.2</ele>
        <time>2013-03-29T13:37:07Z</time>
      </trkpt>
      <trkpt lat="62.4820303" lon="13.9835476">
        <ele>721</ele>
        <time>2013-03-29T13:37:13Z</time>
      </trkpt>
      <trkpt lat="62.4820189" lon="13.9840285">
        <ele>719.4</ele>
        <time>2013-03-29T13:37:18Z</time>
      </trkpt>
      <trkpt lat="62.4819904" lon="13.9844">
        <ele>718.4</ele>
        <time>2013-03-29T13:37:22Z</time>
      </trkpt>
      <trkpt lat="62.4819804" lon="13.9844936">
        <ele>718.4</ele>
        <time>2013-03-29T13:37:23Z</time>
      </trkpt>
      <trkpt lat="62.4819632" lon="13.9847791">
        <ele>717</ele>
        <time>2013-03-29T13:37:26Z</time>
      </trkpt>
      <trkpt lat="62.4819733" lon="13.9849582">
        <ele>717</ele>
        <time>2013-03-29T13:37:28Z</time>
      </trkpt>
      <trkpt lat="62.4819897" lon="13.9852329">
        <ele>717.4</ele>
        <time>2013-03-29T13:37:31Z</time>
      </trkpt>
      <trkpt lat="62.4820199" lon="13.9853966">
        <ele>717.4</ele>
        <time>2013-03-29T13:37:33Z</time>
      </trkpt>
      <trkpt lat="62.4821019" lon="13.9856961">
        <ele>717.4</ele>
        <time>2013-03-29T13:37:38Z</time>
      </trkpt>
      <trkpt lat="62.482119" lon="13.9857471">
        <ele>717</ele>
        <time>2013-03-29T13:37:39Z</time>
      </trkpt>
      <trkpt lat="62.4822968" lon="13.9859523">
        <ele>720</ele>
        <time>2013-03-29T13:37:48Z</time>
      </trkpt>
      <trkpt lat="62.4823626" lon="13.9859327">
        <ele>720.6</ele>
        <time>2013-03-29T13:37:51Z</time>
      </trkpt>
      <trkpt lat="62.4824711" lon="13.9857924">
        <ele>725</ele>
        <time>2013-03-29T13:37:56Z</time>
      </trkpt>
      <trkpt lat="62.482555" lon="13.9854658">
        <ele>726.8</ele>
        <time>2013-03-29T13:38:04Z</time>
      </trkpt>
      <trkpt lat="62.4827353" lon="13.9853603">
        <ele>725.2</ele>
        <time>2013-03-29T13:38:10Z</time>
      </trkpt>
      <trkpt lat="62.4829326" lon="13.9853629">
        <ele>725.4</ele>
        <time>2013-03-29T13:38:17Z</time>
      </trkpt>
      <trkpt lat="62.4831072" lon="13.9852677">
        <ele>727.4</ele>
        <time>2013-03-29T13:38:25Z</time>
      </trkpt>
      <trkpt lat="62.4832694" lon="13.9853725">
        <ele>732.2</ele>
        <time>2013-03-29T13:38:33Z</time>
      </trkpt>
      <trkpt lat="62.4833981" lon="13.985632">
        <ele>734.6</ele>
        <time>2013-03-29T13:38:41Z</time>
      </trkpt>
      <trkpt lat="62.4835284" lon="13.9859087">
        <ele>738.6</ele>
        <time>2013-03-29T13:38:49Z</time>
      </trkpt>
      <trkpt lat="62.4836243" lon="13.9862431">
        <ele>743.8</ele>
        <time>2013-03-29T13:38:58Z</time>
      </trkpt>
      <trkpt lat="62.4836388" lon="13.9866647">
        <ele>746.2</ele>
        <time>2013-03-29T13:39:05Z</time>
      </trkpt>
      <trkpt lat="62.4836433" lon="13.986924">
        <ele>747.6</ele>
        <time>2013-03-29T13:39:09Z</time>
      </trkpt>
      <trkpt lat="62.48365" lon="13.9870708">
        <ele>748</ele>
        <time>2013-03-29T13:39:12Z</time>
      </trkpt>
      <trkpt lat="62.4836314" lon="13.9873052">
        <ele>747.6</ele>
        <time>2013-03-29T13:39:15Z</time>
      </trkpt>
      <trkpt lat="62.4836497" lon="13.9875106">
        <ele>746.6</ele>
        <time>2013-03-29T13:39:18Z</time>
      </trkpt>
      <trkpt lat="62.4836976" lon="13.987888">
        <ele>745.8</ele>
        <time>2013-03-29T13:39:23Z</time>
      </trkpt>
      <trkpt lat="62.4837252" lon="13.9883285">
        <ele>743.2</ele>
        <time>2013-03-29T13:39:27Z</time>
      </trkpt>
      <trkpt lat="62.4837437" lon="13.9885865">
        <ele>742.4</ele>
        <time>2013-03-29T13:39:29Z</time>
      </trkpt>
      <trkpt lat="62.4837615" lon="13.9888066">
        <ele>741.4</ele>
        <time>2013-03-29T13:39:31Z</time>
      </trkpt>
      <trkpt lat="62.4837718" lon="13.9889102">
        <ele>741.4</ele>
        <time>2013-03-29T13:39:32Z</time>
      </trkpt>
      <trkpt lat="62.4837945" lon="13.9891423">
        <ele>742</ele>
        <time>2013-03-29T13:39:35Z</time>
      </trkpt>
      <trkpt lat="62.4837999" lon="13.9892141">
        <ele>742.2</ele>
        <time>2013-03-29T13:39:36Z</time>
      </trkpt>
      <trkpt lat="62.483818" lon="13.9893451">
        <ele>741.6</ele>
        <time>2013-03-29T13:39:38Z</time>
      </trkpt>
      <trkpt lat="62.4838305" lon="13.9896302">
        <ele>740.8</ele>
        <time>2013-03-29T13:39:42Z</time>
      </trkpt>
      <trkpt lat="62.4838413" lon="13.9896803">
        <ele>741</ele>
        <time>2013-03-29T13:39:43Z</time>
      </trkpt>
      <trkpt lat="62.483923" lon="13.9900017">
        <ele>742.8</ele>
        <time>2013-03-29T13:39:50Z</time>
      </trkpt>
      <trkpt lat="62.483963" lon="13.9903809">
        <ele>746.2</ele>
        <time>2013-03-29T13:39:58Z</time>
      </trkpt>
      <trkpt lat="62.4839265" lon="13.990784">
        <ele>745.6</ele>
        <time>2013-03-29T13:40:05Z</time>
      </trkpt>
      <trkpt lat="62.4838588" lon="13.9911317">
        <ele>744.6</ele>
        <time>2013-03-29T13:40:09Z</time>
      </trkpt>
      <trkpt lat="62.4837852" lon="13.9916122">
        <ele>744</ele>
        <time>2013-03-29T13:40:14Z</time>
      </trkpt>
      <trkpt lat="62.4837708" lon="13.9919215">
        <ele>744.2</ele>
        <time>2013-03-29T13:40:18Z</time>
      </trkpt>
      <trkpt lat="62.4837662" lon="13.9919987">
        <ele>744.4</ele>
        <time>2013-03-29T13:40:19Z</time>
      </trkpt>
      <trkpt lat="62.4837256" lon="13.9924223">
        <ele>745.2</ele>
        <time>2013-03-29T13:40:24Z</time>
      </trkpt>
      <trkpt lat="62.4837593" lon="13.9928795">
        <ele>748.8</ele>
        <time>2013-03-29T13:40:31Z</time>
      </trkpt>
      <trkpt lat="62.4838229" lon="13.9932625">
        <ele>754</ele>
        <time>2013-03-29T13:40:38Z</time>
      </trkpt>
      <trkpt lat="62.4837874" lon="13.9936416">
        <ele>754</ele>
        <time>2013-03-29T13:40:43Z</time>
      </trkpt>
      <trkpt lat="62.4837418" lon="13.9940665">
        <ele>751.8</ele>
        <time>2013-03-29T13:40:47Z</time>
      </trkpt>
      <trkpt lat="62.4837089" lon="13.994358">
        <ele>750.2</ele>
        <time>2013-03-29T13:40:50Z</time>
      </trkpt>
      <trkpt lat="62.4837079" lon="13.9945434">
        <ele>748.4</ele>
        <time>2013-03-29T13:40:52Z</time>
      </trkpt>
      <trkpt lat="62.4837085" lon="13.9946415">
        <ele>748</ele>
        <time>2013-03-29T13:40:53Z</time>
      </trkpt>
      <trkpt lat="62.483748" lon="13.9948348">
        <ele>748.2</ele>
        <time>2013-03-29T13:40:56Z</time>
      </trkpt>
      <trkpt lat="62.4838017" lon="13.9949414">
        <ele>750</ele>
        <time>2013-03-29T13:40:59Z</time>
      </trkpt>
      <trkpt lat="62.4839334" lon="13.9952578">
        <ele>751.6</ele>
        <time>2013-03-29T13:41:07Z</time>
      </trkpt>
      <trkpt lat="62.4839981" lon="13.9954378">
        <ele>753.2</ele>
        <time>2013-03-29T13:41:12Z</time>
      </trkpt>
      <trkpt lat="62.4840255" lon="13.995592">
        <ele>753.6</ele>
        <time>2013-03-29T13:41:15Z</time>
      </trkpt>
      <trkpt lat="62.4840363" lon="13.9956432">
        <ele>754</ele>
        <time>2013-03-29T13:41:16Z</time>
      </trkpt>
      <trkpt lat="62.4840783" lon="13.9959944">
        <ele>755.4</ele>
        <time>2013-03-29T13:41:23Z</time>
      </trkpt>
      <trkpt lat="62.4840816" lon="13.9963764">
        <ele>756.6</ele>
        <time>2013-03-29T13:41:28Z</time>
      </trkpt>
      <trkpt lat="62.4840806" lon="13.9968109">
        <ele>757.2</ele>
        <time>2013-03-29T13:41:33Z</time>
      </trkpt>
      <trkpt lat="62.484105" lon="13.9971915">
        <ele>756.6</ele>
        <time>2013-03-29T13:41:37Z</time>
      </trkpt>
      <trkpt lat="62.4841126" lon="13.9972797">
        <ele>755.8</ele>
        <time>2013-03-29T13:41:38Z</time>
      </trkpt>
      <trkpt lat="62.4841277" lon="13.9974595">
        <ele>754.8</ele>
        <time>2013-03-29T13:41:40Z</time>
      </trkpt>
      <trkpt lat="62.4841343" lon="13.9976623">
        <ele>753.4</ele>
        <time>2013-03-29T13:41:42Z</time>
      </trkpt>
      <trkpt lat="62.4841376" lon="13.9977664">
        <ele>753.2</ele>
        <time>2013-03-29T13:41:43Z</time>
      </trkpt>
      <trkpt lat="62.4841364" lon="13.9980551">
        <ele>753.4</ele>
        <time>2013-03-29T13:41:46Z</time>
      </trkpt>
      <trkpt lat="62.4841292" lon="13.9985">
        <ele>752.2</ele>
        <time>2013-03-29T13:41:51Z</time>
      </trkpt>
      <trkpt lat="62.484122" lon="13.9986971">
        <ele>751.4</ele>
        <time>2013-03-29T13:41:53Z</time>
      </trkpt>
      <trkpt lat="62.4841048" lon="13.9988967">
        <ele>751.6</ele>
        <time>2013-03-29T13:41:55Z</time>
      </trkpt>
      <trkpt lat="62.484032" lon="13.9991678">
        <ele>750.4</ele>
        <time>2013-03-29T13:41:59Z</time>
      </trkpt>
      <trkpt lat="62.4840125" lon="13.9992544">
        <ele>750.4</ele>
        <time>2013-03-29T13:42:00Z</time>
      </trkpt>
      <trkpt lat="62.483995" lon="13.999346">
        <ele>750.4</ele>
        <time>2013-03-29T13:42:01Z</time>
      </trkpt>
      <trkpt lat="62.4839706" lon="13.9996392">
        <ele>749</ele>
        <time>2013-03-29T13:42:04Z</time>
      </trkpt>
      <trkpt lat="62.4839525" lon="14.0000615">
        <ele>748.2</ele>
        <time>2013-03-29T13:42:08Z</time>
      </trkpt>
      <trkpt lat="62.4840039" lon="14.0003909">
        <ele>747</ele>
        <time>2013-03-29T13:42:12Z</time>
      </trkpt>
      <trkpt lat="62.4840087" lon="14.0004705">
        <ele>747.2</ele>
        <time>2013-03-29T13:42:13Z</time>
      </trkpt>
      <trkpt lat="62.4839816" lon="14.0008962">
        <ele>746.4</ele>
        <time>2013-03-29T13:42:17Z</time>
      </trkpt>
      <trkpt lat="62.4839687" lon="14.0010254">
        <ele>746.6</ele>
        <time>2013-03-29T13:42:18Z</time>
      </trkpt>
      <trkpt lat="62.4839562" lon="14.001156">
        <ele>745.6</ele>
        <time>2013-03-29T13:42:19Z</time>
      </trkpt>
      <trkpt lat="62.4839505" lon="14.001277">
        <ele>745.4</ele>
        <time>2013-03-29T13:42:20Z</time>
      </trkpt>
      <trkpt lat="62.4839431" lon="14.0015253">
        <ele>745.2</ele>
        <time>2013-03-29T13:42:22Z</time>
      </trkpt>
      <trkpt lat="62.4839697" lon="14.0017419">
        <ele>744.4</ele>
        <time>2013-03-29T13:42:24Z</time>
      </trkpt>
      <trkpt lat="62.4839801" lon="14.0018562">
        <ele>744.2</ele>
        <time>2013-03-29T13:42:25Z</time>
      </trkpt>
      <trkpt lat="62.4838903" lon="14.0021107">
        <ele>743.4</ele>
        <time>2013-03-29T13:42:28Z</time>
      </trkpt>
      <trkpt lat="62.4836941" lon="14.0021887">
        <ele>740.6</ele>
        <time>2013-03-29T13:42:32Z</time>
      </trkpt>
      <trkpt lat="62.4835421" lon="14.0018621">
        <ele>735.2</ele>
        <time>2013-03-29T13:42:35Z</time>
      </trkpt>
      <trkpt lat="62.4834517" lon="14.0013518">
        <ele>732.2</ele>
        <time>2013-03-29T13:42:38Z</time>
      </trkpt>
      <trkpt lat="62.4833853" lon="14.0010337">
        <ele>730.2</ele>
        <time>2013-03-29T13:42:40Z</time>
      </trkpt>
      <trkpt lat="62.4833279" lon="14.000881">
        <ele>729.6</ele>
        <time>2013-03-29T13:42:41Z</time>
      </trkpt>
      <trkpt lat="62.4831842" lon="14.0006321">
        <ele>729</ele>
        <time>2013-03-29T13:42:43Z</time>
      </trkpt>
      <trkpt lat="62.4829544" lon="14.0005209">
        <ele>729.4</ele>
        <time>2013-03-29T13:42:46Z</time>
      </trkpt>
      <trkpt lat="62.4828648" lon="14.0005393">
        <ele>729</ele>
        <time>2013-03-29T13:42:47Z</time>
      </trkpt>
      <trkpt lat="62.4827165" lon="14.000539">
        <ele>728</ele>
        <time>2013-03-29T13:42:49Z</time>
      </trkpt>
      <trkpt lat="62.4825826" lon="14.0001707">
        <ele>728</ele>
        <time>2013-03-29T13:42:53Z</time>
      </trkpt>
      <trkpt lat="62.482568" lon="14.0000727">
        <ele>728</ele>
        <time>2013-03-29T13:42:54Z</time>
      </trkpt>
      <trkpt lat="62.482545" lon="13.9999817">
        <ele>728.8</ele>
        <time>2013-03-29T13:42:55Z</time>
      </trkpt>
      <trkpt lat="62.4824576" lon="13.9998423">
        <ele>729.4</ele>
        <time>2013-03-29T13:42:58Z</time>
      </trkpt>
      <trkpt lat="62.4824156" lon="13.999824">
        <ele>729</ele>
        <time>2013-03-29T13:42:59Z</time>
      </trkpt>
      <trkpt lat="62.4823664" lon="13.999791">
        <ele>728.6</ele>
        <time>2013-03-29T13:43:00Z</time>
      </trkpt>
      <trkpt lat="62.4822825" lon="13.9996537">
        <ele>728.2</ele>
        <time>2013-03-29T13:43:02Z</time>
      </trkpt>
      <trkpt lat="62.4821104" lon="13.9993755">
        <ele>726.2</ele>
        <time>2013-03-29T13:43:06Z</time>
      </trkpt>
      <trkpt lat="62.4819344" lon="13.9994838">
        <ele>724.8</ele>
        <time>2013-03-29T13:43:09Z</time>
      </trkpt>
      <trkpt lat="62.4817853" lon="13.9992807">
        <ele>723</ele>
        <time>2013-03-29T13:43:14Z</time>
      </trkpt>
      <trkpt lat="62.4817731" lon="13.9995903">
        <ele>722</ele>
        <time>2013-03-29T13:43:18Z</time>
      </trkpt>
      <trkpt lat="62.4817723" lon="13.9996719">
        <ele>722</ele>
        <time>2013-03-29T13:43:19Z</time>
      </trkpt>
      <trkpt lat="62.4817679" lon="14.0000574">
        <ele>721.6</ele>
        <time>2013-03-29T13:43:24Z</time>
      </trkpt>
      <trkpt lat="62.4818003" lon="14.000413">
        <ele>721.6</ele>
        <time>2013-03-29T13:43:28Z</time>
      </trkpt>
      <trkpt lat="62.4817995" lon="14.0005269">
        <ele>721.2</ele>
        <time>2013-03-29T13:43:29Z</time>
      </trkpt>
      <trkpt lat="62.4817795" lon="14.0008923">
        <ele>720.4</ele>
        <time>2013-03-29T13:43:32Z</time>
      </trkpt>
      <trkpt lat="62.4817703" lon="14.0009912">
        <ele>720.2</ele>
        <time>2013-03-29T13:43:33Z</time>
      </trkpt>
      <trkpt lat="62.4816656" lon="14.0012716">
        <ele>717.4</ele>
        <time>2013-03-29T13:43:37Z</time>
      </trkpt>
      <trkpt lat="62.4815864" lon="14.0014537">
        <ele>714.8</ele>
        <time>2013-03-29T13:43:39Z</time>
      </trkpt>
      <trkpt lat="62.481549" lon="14.0016002">
        <ele>714.4</ele>
        <time>2013-03-29T13:43:40Z</time>
      </trkpt>
      <trkpt lat="62.4815098" lon="14.0020319">
        <ele>714.2</ele>
        <time>2013-03-29T13:43:43Z</time>
      </trkpt>
      <trkpt lat="62.4815049" lon="14.0021429">
        <ele>713.6</ele>
        <time>2013-03-29T13:43:44Z</time>
      </trkpt>
      <trkpt lat="62.481491" lon="14.0024505">
        <ele>712.2</ele>
        <time>2013-03-29T13:43:47Z</time>
      </trkpt>
      <trkpt lat="62.4815064" lon="14.0027069">
        <ele>711</ele>
        <time>2013-03-29T13:43:50Z</time>
      </trkpt>
      <trkpt lat="62.4815195" lon="14.0028545">
        <ele>710</ele>
        <time>2013-03-29T13:43:52Z</time>
      </trkpt>
      <trkpt lat="62.4815507" lon="14.0032455">
        <ele>710.8</ele>
        <time>2013-03-29T13:43:56Z</time>
      </trkpt>
      <trkpt lat="62.4815571" lon="14.003345">
        <ele>710.6</ele>
        <time>2013-03-29T13:43:57Z</time>
      </trkpt>
      <trkpt lat="62.4815737" lon="14.0037147">
        <ele>710.6</ele>
        <time>2013-03-29T13:44:00Z</time>
      </trkpt>
      <trkpt lat="62.4816437" lon="14.0041718">
        <ele>710.8</ele>
        <time>2013-03-29T13:44:05Z</time>
      </trkpt>
      <trkpt lat="62.481677" lon="14.0044399">
        <ele>712.4</ele>
        <time>2013-03-29T13:44:09Z</time>
      </trkpt>
      <trkpt lat="62.481695" lon="14.0045649">
        <ele>713.2</ele>
        <time>2013-03-29T13:44:11Z</time>
      </trkpt>
      <trkpt lat="62.4817162" lon="14.0046993">
        <ele>715.2</ele>
        <time>2013-03-29T13:44:14Z</time>
      </trkpt>
      <trkpt lat="62.4817769" lon="14.0049264">
        <ele>719.4</ele>
        <time>2013-03-29T13:44:18Z</time>
      </trkpt>
      <trkpt lat="62.4818179" lon="14.0052893">
        <ele>720</ele>
        <time>2013-03-29T13:44:22Z</time>
      </trkpt>
      <trkpt lat="62.4818092" lon="14.0057694">
        <ele>719.6</ele>
        <time>2013-03-29T13:44:27Z</time>
      </trkpt>
      <trkpt lat="62.481813" lon="14.0061806">
        <ele>718.8</ele>
        <time>2013-03-29T13:44:31Z</time>
      </trkpt>
      <trkpt lat="62.4818205" lon="14.0062905">
        <ele>718.8</ele>
        <time>2013-03-29T13:44:32Z</time>
      </trkpt>
      <trkpt lat="62.4818558" lon="14.0066073">
        <ele>717.4</ele>
        <time>2013-03-29T13:44:35Z</time>
      </trkpt>
      <trkpt lat="62.4818928" lon="14.0070078">
        <ele>716.2</ele>
        <time>2013-03-29T13:44:39Z</time>
      </trkpt>
      <trkpt lat="62.4819128" lon="14.0072781">
        <ele>715.8</ele>
        <time>2013-03-29T13:44:42Z</time>
      </trkpt>
      <trkpt lat="62.4819516" lon="14.0074337">
        <ele>716.8</ele>
        <time>2013-03-29T13:44:44Z</time>
      </trkpt>
      <trkpt lat="62.4819995" lon="14.007578">
        <ele>716.6</ele>
        <time>2013-03-29T13:44:46Z</time>
      </trkpt>
      <trkpt lat="62.4820694" lon="14.0078911">
        <ele>714.8</ele>
        <time>2013-03-29T13:44:49Z</time>
      </trkpt>
      <trkpt lat="62.4820965" lon="14.0081989">
        <ele>714.8</ele>
        <time>2013-03-29T13:44:53Z</time>
      </trkpt>
      <trkpt lat="62.4821255" lon="14.0084234">
        <ele>714.2</ele>
        <time>2013-03-29T13:44:55Z</time>
      </trkpt>
      <trkpt lat="62.4821609" lon="14.0087297">
        <ele>712.6</ele>
        <time>2013-03-29T13:44:57Z</time>
      </trkpt>
      <trkpt lat="62.4821821" lon="14.0090595">
        <ele>710.4</ele>
        <time>2013-03-29T13:45:01Z</time>
      </trkpt>
      <trkpt lat="62.4822013" lon="14.0093137">
        <ele>708.8</ele>
        <time>2013-03-29T13:45:03Z</time>
      </trkpt>
      <trkpt lat="62.4822034" lon="14.0095607">
        <ele>707.6</ele>
        <time>2013-03-29T13:45:04Z</time>
      </trkpt>
      <trkpt lat="62.4822197" lon="14.0099336">
        <ele>707</ele>
        <time>2013-03-29T13:45:08Z</time>
      </trkpt>
      <trkpt lat="62.4823038" lon="14.0101712">
        <ele>707.2</ele>
        <time>2013-03-29T13:45:11Z</time>
      </trkpt>
      <trkpt lat="62.4823968" lon="14.0101843">
        <ele>708</ele>
        <time>2013-03-29T13:45:12Z</time>
      </trkpt>
      <trkpt lat="62.4825368" lon="14.0103191">
        <ele>708.6</ele>
        <time>2013-03-29T13:45:17Z</time>
      </trkpt>
      <trkpt lat="62.4825922" lon="14.0104325">
        <ele>709.8</ele>
        <time>2013-03-29T13:45:18Z</time>
      </trkpt>
      <trkpt lat="62.4826064" lon="14.0105076">
        <ele>710.8</ele>
        <time>2013-03-29T13:45:20Z</time>
      </trkpt>
      <trkpt lat="62.4826415" lon="14.010639">
        <ele>711.2</ele>
        <time>2013-03-29T13:45:22Z</time>
      </trkpt>
      <trkpt lat="62.4827669" lon="14.0110603">
        <ele>711.6</ele>
        <time>2013-03-29T13:45:27Z</time>
      </trkpt>
      <trkpt lat="62.4828563" lon="14.0113281">
        <ele>711.2</ele>
        <time>2013-03-29T13:45:32Z</time>
      </trkpt>
      <trkpt lat="62.4829368" lon="14.0116788">
        <ele>709.4</ele>
        <time>2013-03-29T13:45:36Z</time>
      </trkpt>
      <trkpt lat="62.4829927" lon="14.0120284">
        <ele>709.2</ele>
        <time>2013-03-29T13:45:39Z</time>
      </trkpt>
      <trkpt lat="62.483001" lon="14.0121218">
        <ele>708.4</ele>
        <time>2013-03-29T13:45:41Z</time>
      </trkpt>
      <trkpt lat="62.483016" lon="14.0126485">
        <ele>708</ele>
        <time>2013-03-29T13:45:46Z</time>
      </trkpt>
      <trkpt lat="62.4830104" lon="14.0129317">
        <ele>708.6</ele>
        <time>2013-03-29T13:45:49Z</time>
      </trkpt>
      <trkpt lat="62.4830179" lon="14.0131023">
        <ele>708.6</ele>
        <time>2013-03-29T13:45:51Z</time>
      </trkpt>
      <trkpt lat="62.4830469" lon="14.0135239">
        <ele>710.8</ele>
        <time>2013-03-29T13:45:57Z</time>
      </trkpt>
      <trkpt lat="62.4830604" lon="14.0138343">
        <ele>713</ele>
        <time>2013-03-29T13:46:02Z</time>
      </trkpt>
      <trkpt lat="62.4830087" lon="14.0141539">
        <ele>712.8</ele>
        <time>2013-03-29T13:46:05Z</time>
      </trkpt>
      <trkpt lat="62.4829449" lon="14.014273">
        <ele>711.4</ele>
        <time>2013-03-29T13:46:07Z</time>
      </trkpt>
      <trkpt lat="62.4828293" lon="14.0144002">
        <ele>710</ele>
        <time>2013-03-29T13:46:10Z</time>
      </trkpt>
      <trkpt lat="62.4827451" lon="14.0144349">
        <ele>709.4</ele>
        <time>2013-03-29T13:46:12Z</time>
      </trkpt>
      <trkpt lat="62.4826628" lon="14.0145077">
        <ele>708.2</ele>
        <time>2013-03-29T13:46:14Z</time>
      </trkpt>
      <trkpt lat="62.4825509" lon="14.0146629">
        <ele>707.2</ele>
        <time>2013-03-29T13:46:17Z</time>
      </trkpt>
      <trkpt lat="62.4825199" lon="14.0147171">
        <ele>706.8</ele>
        <time>2013-03-29T13:46:18Z</time>
      </trkpt>
      <trkpt lat="62.4824318" lon="14.0148699">
        <ele>706</ele>
        <time>2013-03-29T13:46:21Z</time>
      </trkpt>
      <trkpt lat="62.4823984" lon="14.0149293">
        <ele>706.4</ele>
        <time>2013-03-29T13:46:22Z</time>
      </trkpt>
      <trkpt lat="62.4823478" lon="14.0150625">
        <ele>706</ele>
        <time>2013-03-29T13:46:24Z</time>
      </trkpt>
      <trkpt lat="62.4822847" lon="14.0152584">
        <ele>705.8</ele>
        <time>2013-03-29T13:46:27Z</time>
      </trkpt>
      <trkpt lat="62.4822406" lon="14.0156343">
        <ele>705.8</ele>
        <time>2013-03-29T13:46:33Z</time>
      </trkpt>
      <trkpt lat="62.4823388" lon="14.0158545">
        <ele>712.4</ele>
        <time>2013-03-29T13:46:41Z</time>
      </trkpt>
      <trkpt lat="62.4825284" lon="14.015947">
        <ele>714.6</ele>
        <time>2013-03-29T13:46:47Z</time>
      </trkpt>
      <trkpt lat="62.4827451" lon="14.0161068">
        <ele>718</ele>
        <time>2013-03-29T13:46:54Z</time>
      </trkpt>
      <trkpt lat="62.482943" lon="14.0161632">
        <ele>721.2</ele>
        <time>2013-03-29T13:47:02Z</time>
      </trkpt>
      <trkpt lat="62.4831233" lon="14.0161021">
        <ele>723.4</ele>
        <time>2013-03-29T13:47:10Z</time>
      </trkpt>
      <trkpt lat="62.483302" lon="14.015999">
        <ele>727.6</ele>
        <time>2013-03-29T13:47:16Z</time>
      </trkpt>
      <trkpt lat="62.4834991" lon="14.0160751">
        <ele>728.6</ele>
        <time>2013-03-29T13:47:24Z</time>
      </trkpt>
      <trkpt lat="62.4836694" lon="14.0162148">
        <ele>729</ele>
        <time>2013-03-29T13:47:30Z</time>
      </trkpt>
      <trkpt lat="62.4837408" lon="14.0163259">
        <ele>729.4</ele>
        <time>2013-03-29T13:47:33Z</time>
      </trkpt>
      <trkpt lat="62.4838105" lon="14.0165584">
        <ele>729.8</ele>
        <time>2013-03-29T13:47:36Z</time>
      </trkpt>
      <trkpt lat="62.4838367" lon="14.0169651">
        <ele>730</ele>
        <time>2013-03-29T13:47:41Z</time>
      </trkpt>
      <trkpt lat="62.4838332" lon="14.0173609">
        <ele>729.4</ele>
        <time>2013-03-29T13:47:47Z</time>
      </trkpt>
      <trkpt lat="62.4839438" lon="14.0176954">
        <ele>730.4</ele>
        <time>2013-03-29T13:47:53Z</time>
      </trkpt>
      <trkpt lat="62.4840749" lon="14.0179759">
        <ele>731.2</ele>
        <time>2013-03-29T13:47:58Z</time>
      </trkpt>
      <trkpt lat="62.4841684" lon="14.018312">
        <ele>731.6</ele>
        <time>2013-03-29T13:48:02Z</time>
      </trkpt>
      <trkpt lat="62.4841915" lon="14.0185761">
        <ele>730.6</ele>
        <time>2013-03-29T13:48:05Z</time>
      </trkpt>
      <trkpt lat="62.4841804" lon="14.0187412">
        <ele>730.2</ele>
        <time>2013-03-29T13:48:07Z</time>
      </trkpt>
      <trkpt lat="62.4841691" lon="14.0189966">
        <ele>728.6</ele>
        <time>2013-03-29T13:48:10Z</time>
      </trkpt>
      <trkpt lat="62.484172" lon="14.0192039">
        <ele>728.2</ele>
        <time>2013-03-29T13:48:12Z</time>
      </trkpt>
      <trkpt lat="62.4842145" lon="14.0194312">
        <ele>727.8</ele>
        <time>2013-03-29T13:48:16Z</time>
      </trkpt>
      <trkpt lat="62.4842406" lon="14.0194824">
        <ele>727.4</ele>
        <time>2013-03-29T13:48:17Z</time>
      </trkpt>
      <trkpt lat="62.4844342" lon="14.0194992">
        <ele>726.8</ele>
        <time>2013-03-29T13:48:22Z</time>
      </trkpt>
      <trkpt lat="62.4846378" lon="14.0193187">
        <ele>729.6</ele>
        <time>2013-03-29T13:48:30Z</time>
      </trkpt>
      <trkpt lat="62.4847711" lon="14.0193226">
        <ele>730.8</ele>
        <time>2013-03-29T13:48:35Z</time>
      </trkpt>
      <trkpt lat="62.4848486" lon="14.0194086">
        <ele>730</ele>
        <time>2013-03-29T13:48:37Z</time>
      </trkpt>
      <trkpt lat="62.4849943" lon="14.0196211">
        <ele>729.8</ele>
        <time>2013-03-29T13:48:42Z</time>
      </trkpt>
      <trkpt lat="62.4852248" lon="14.0197974">
        <ele>730</ele>
        <time>2013-03-29T13:48:47Z</time>
      </trkpt>
      <trkpt lat="62.485402" lon="14.0198744">
        <ele>731.8</ele>
        <time>2013-03-29T13:48:53Z</time>
      </trkpt>
      <trkpt lat="62.4855964" lon="14.0199196">
        <ele>733.4</ele>
        <time>2013-03-29T13:49:01Z</time>
      </trkpt>
      <trkpt lat="62.4857474" lon="14.0200203">
        <ele>734.6</ele>
        <time>2013-03-29T13:49:07Z</time>
      </trkpt>
      <trkpt lat="62.4857474" lon="14.0200203">
        <ele>734.8</ele>
        <time>2013-03-29T13:49:08Z</time>
      </trkpt>
      <trkpt lat="62.4858837" lon="14.0204055">
        <ele>733.8</ele>
        <time>2013-03-29T13:49:15Z</time>
      </trkpt>
      <trkpt lat="62.4859816" lon="14.0207427">
        <ele>733.8</ele>
        <time>2013-03-29T13:49:20Z</time>
      </trkpt>
      <trkpt lat="62.486004" lon="14.0210596">
        <ele>731.4</ele>
        <time>2013-03-29T13:49:24Z</time>
      </trkpt>
      <trkpt lat="62.486004" lon="14.0210596">
        <ele>731</ele>
        <time>2013-03-29T13:49:25Z</time>
      </trkpt>
      <trkpt lat="62.4859345" lon="14.0214941">
        <ele>729.4</ele>
        <time>2013-03-29T13:49:30Z</time>
      </trkpt>
      <trkpt lat="62.4859107" lon="14.021923">
        <ele>727.8</ele>
        <time>2013-03-29T13:49:35Z</time>
      </trkpt>
      <trkpt lat="62.4859828" lon="14.0223068">
        <ele>727.4</ele>
        <time>2013-03-29T13:49:39Z</time>
      </trkpt>
      <trkpt lat="62.4860107" lon="14.0223486">
        <ele>727.6</ele>
        <time>2013-03-29T13:49:40Z</time>
      </trkpt>
      <trkpt lat="62.4861847" lon="14.0225209">
        <ele>729.2</ele>
        <time>2013-03-29T13:49:46Z</time>
      </trkpt>
      <trkpt lat="62.4863273" lon="14.0226697">
        <ele>731.2</ele>
        <time>2013-03-29T13:49:52Z</time>
      </trkpt>
      <trkpt lat="62.4865591" lon="14.0227746">
        <ele>732.8</ele>
        <time>2013-03-29T13:49:57Z</time>
      </trkpt>
      <trkpt lat="62.4867631" lon="14.0227433">
        <ele>733.2</ele>
        <time>2013-03-29T13:50:03Z</time>
      </trkpt>
      <trkpt lat="62.4868498" lon="14.0227596">
        <ele>733.2</ele>
        <time>2013-03-29T13:50:06Z</time>
      </trkpt>
      <trkpt lat="62.48694" lon="14.0228319">
        <ele>732.8</ele>
        <time>2013-03-29T13:50:10Z</time>
      </trkpt>
      <trkpt lat="62.4869778" lon="14.0228496">
        <ele>733.2</ele>
        <time>2013-03-29T13:50:12Z</time>
      </trkpt>
      <trkpt lat="62.4870389" lon="14.0229185">
        <ele>733</ele>
        <time>2013-03-29T13:50:16Z</time>
      </trkpt>
      <trkpt lat="62.4870926" lon="14.0229626">
        <ele>732</ele>
        <time>2013-03-29T13:50:18Z</time>
      </trkpt>
      <trkpt lat="62.4872723" lon="14.0231049">
        <ele>731.6</ele>
        <time>2013-03-29T13:50:24Z</time>
      </trkpt>
      <trkpt lat="62.4874812" lon="14.0233641">
        <ele>736</ele>
        <time>2013-03-29T13:50:30Z</time>
      </trkpt>
      <trkpt lat="62.4876398" lon="14.0235883">
        <ele>736.8</ele>
        <time>2013-03-29T13:50:39Z</time>
      </trkpt>
      <trkpt lat="62.487823" lon="14.0236537">
        <ele>738.6</ele>
        <time>2013-03-29T13:50:45Z</time>
      </trkpt>
      <trkpt lat="62.4879754" lon="14.0238048">
        <ele>739</ele>
        <time>2013-03-29T13:50:50Z</time>
      </trkpt>
      <trkpt lat="62.4881288" lon="14.0241177">
        <ele>739.8</ele>
        <time>2013-03-29T13:50:56Z</time>
      </trkpt>
      <trkpt lat="62.4882567" lon="14.0244933">
        <ele>739.2</ele>
        <time>2013-03-29T13:51:01Z</time>
      </trkpt>
      <trkpt lat="62.4882789" lon="14.0245285">
        <ele>739.6</ele>
        <time>2013-03-29T13:51:02Z</time>
      </trkpt>
      <trkpt lat="62.4883752" lon="14.0247721">
        <ele>739.6</ele>
        <time>2013-03-29T13:51:08Z</time>
      </trkpt>
      <trkpt lat="62.4884071" lon="14.0252077">
        <ele>738</ele>
        <time>2013-03-29T13:51:14Z</time>
      </trkpt>
      <trkpt lat="62.488427" lon="14.0257376">
        <ele>736.8</ele>
        <time>2013-03-29T13:51:19Z</time>
      </trkpt>
      <trkpt lat="62.4884255" lon="14.0259602">
        <ele>736.4</ele>
        <time>2013-03-29T13:51:21Z</time>
      </trkpt>
      <trkpt lat="62.4883971" lon="14.0261879">
        <ele>735.6</ele>
        <time>2013-03-29T13:51:23Z</time>
      </trkpt>
      <trkpt lat="62.4883565" lon="14.0264354">
        <ele>733.8</ele>
        <time>2013-03-29T13:51:26Z</time>
      </trkpt>
      <trkpt lat="62.4883286" lon="14.0266993">
        <ele>733.4</ele>
        <time>2013-03-29T13:51:27Z</time>
      </trkpt>
      <trkpt lat="62.4883203" lon="14.0269809">
        <ele>732.8</ele>
        <time>2013-03-29T13:51:29Z</time>
      </trkpt>
      <trkpt lat="62.4883588" lon="14.0274113">
        <ele>732</ele>
        <time>2013-03-29T13:51:32Z</time>
      </trkpt>
      <trkpt lat="62.4883821" lon="14.0275494">
        <ele>731.4</ele>
        <time>2013-03-29T13:51:34Z</time>
      </trkpt>
      <trkpt lat="62.4884127" lon="14.0276791">
        <ele>731.4</ele>
        <time>2013-03-29T13:51:35Z</time>
      </trkpt>
      <trkpt lat="62.4885231" lon="14.0279939">
        <ele>731.4</ele>
        <time>2013-03-29T13:51:38Z</time>
      </trkpt>
      <trkpt lat="62.4886414" lon="14.0282959">
        <ele>730.6</ele>
        <time>2013-03-29T13:51:40Z</time>
      </trkpt>
      <trkpt lat="62.4886737" lon="14.0284047">
        <ele>730.4</ele>
        <time>2013-03-29T13:51:41Z</time>
      </trkpt>
      <trkpt lat="62.4887406" lon="14.0286286">
        <ele>728.6</ele>
        <time>2013-03-29T13:51:43Z</time>
      </trkpt>
      <trkpt lat="62.4887732" lon="14.0287426">
        <ele>728.4</ele>
        <time>2013-03-29T13:51:44Z</time>
      </trkpt>
      <trkpt lat="62.4888166" lon="14.0289953">
        <ele>726.6</ele>
        <time>2013-03-29T13:51:46Z</time>
      </trkpt>
      <trkpt lat="62.4888172" lon="14.0291407">
        <ele>724.6</ele>
        <time>2013-03-29T13:51:47Z</time>
      </trkpt>
      <trkpt lat="62.4888191" lon="14.0292773">
        <ele>724</ele>
        <time>2013-03-29T13:51:49Z</time>
      </trkpt>
      <trkpt lat="62.488797" lon="14.0295465">
        <ele>724.2</ele>
        <time>2013-03-29T13:51:50Z</time>
      </trkpt>
      <trkpt lat="62.4887929" lon="14.0297543">
        <ele>722.6</ele>
        <time>2013-03-29T13:51:53Z</time>
      </trkpt>
      <trkpt lat="62.4888023" lon="14.0299676">
        <ele>722</ele>
        <time>2013-03-29T13:51:54Z</time>
      </trkpt>
      <trkpt lat="62.4888209" lon="14.0301747">
        <ele>721.4</ele>
        <time>2013-03-29T13:51:56Z</time>
      </trkpt>
      <trkpt lat="62.4888359" lon="14.0302648">
        <ele>720.4</ele>
        <time>2013-03-29T13:51:58Z</time>
      </trkpt>
      <trkpt lat="62.4888571" lon="14.0304897">
        <ele>719.8</ele>
        <time>2013-03-29T13:51:59Z</time>
      </trkpt>
      <trkpt lat="62.4888752" lon="14.0307023">
        <ele>719.4</ele>
        <time>2013-03-29T13:52:02Z</time>
      </trkpt>
      <trkpt lat="62.4888968" lon="14.0311271">
        <ele>718.8</ele>
        <time>2013-03-29T13:52:06Z</time>
      </trkpt>
      <trkpt lat="62.4889232" lon="14.0315793">
        <ele>718.2</ele>
        <time>2013-03-29T13:52:09Z</time>
      </trkpt>
      <trkpt lat="62.4889224" lon="14.0316941">
        <ele>718</ele>
        <time>2013-03-29T13:52:10Z</time>
      </trkpt>
      <trkpt lat="62.4888887" lon="14.031906">
        <ele>717.6</ele>
        <time>2013-03-29T13:52:12Z</time>
      </trkpt>
      <trkpt lat="62.488859" lon="14.0319947">
        <ele>717.2</ele>
        <time>2013-03-29T13:52:14Z</time>
      </trkpt>
      <trkpt lat="62.4886695" lon="14.0324614">
        <ele>715.4</ele>
        <time>2013-03-29T13:52:19Z</time>
      </trkpt>
      <trkpt lat="62.4885474" lon="14.0327499">
        <ele>713.6</ele>
        <time>2013-03-29T13:52:22Z</time>
      </trkpt>
      <trkpt lat="62.4884956" lon="14.0329763">
        <ele>712</ele>
        <time>2013-03-29T13:52:25Z</time>
      </trkpt>
      <trkpt lat="62.4884988" lon="14.0332975">
        <ele>712</ele>
        <time>2013-03-29T13:52:26Z</time>
      </trkpt>
      <trkpt lat="62.4885694" lon="14.033526">
        <ele>710.6</ele>
        <time>2013-03-29T13:52:29Z</time>
      </trkpt>
      <trkpt lat="62.4886219" lon="14.0336215">
        <ele>710.2</ele>
        <time>2013-03-29T13:52:30Z</time>
      </trkpt>
      <trkpt lat="62.4887316" lon="14.033789">
        <ele>709.4</ele>
        <time>2013-03-29T13:52:32Z</time>
      </trkpt>
      <trkpt lat="62.4889238" lon="14.0340447">
        <ele>709</ele>
        <time>2013-03-29T13:52:36Z</time>
      </trkpt>
      <trkpt lat="62.4890074" lon="14.0341147">
        <ele>708.8</ele>
        <time>2013-03-29T13:52:37Z</time>
      </trkpt>
      <trkpt lat="62.489091" lon="14.0341874">
        <ele>708.6</ele>
        <time>2013-03-29T13:52:40Z</time>
      </trkpt>
      <trkpt lat="62.489169" lon="14.034261">
        <ele>708</ele>
        <time>2013-03-29T13:52:41Z</time>
      </trkpt>
      <trkpt lat="62.489241" lon="14.0343312">
        <ele>707.2</ele>
        <time>2013-03-29T13:52:43Z</time>
      </trkpt>
      <trkpt lat="62.4893125" lon="14.0343698">
        <ele>707</ele>
        <time>2013-03-29T13:52:45Z</time>
      </trkpt>
      <trkpt lat="62.4893461" lon="14.0343963">
        <ele>706.6</ele>
        <time>2013-03-29T13:52:47Z</time>
      </trkpt>
      <trkpt lat="62.4894166" lon="14.0346079">
        <ele>705.2</ele>
        <time>2013-03-29T13:52:50Z</time>
      </trkpt>
      <trkpt lat="62.4894019" lon="14.0349855">
        <ele>703.2</ele>
        <time>2013-03-29T13:52:53Z</time>
      </trkpt>
      <trkpt lat="62.4894093" lon="14.0351877">
        <ele>704</ele>
        <time>2013-03-29T13:52:54Z</time>
      </trkpt>
      <trkpt lat="62.4894744" lon="14.0354938">
        <ele>704.2</ele>
        <time>2013-03-29T13:52:58Z</time>
      </trkpt>
      <trkpt lat="62.4895689" lon="14.0358783">
        <ele>705</ele>
        <time>2013-03-29T13:53:03Z</time>
      </trkpt>
      <trkpt lat="62.4896549" lon="14.0361563">
        <ele>704.8</ele>
        <time>2013-03-29T13:53:08Z</time>
      </trkpt>
      <trkpt lat="62.4896839" lon="14.0363392">
        <ele>704.4</ele>
        <time>2013-03-29T13:53:09Z</time>
      </trkpt>
      <trkpt lat="62.489748" lon="14.036722">
        <ele>702.8</ele>
        <time>2013-03-29T13:53:12Z</time>
      </trkpt>
      <trkpt lat="62.4898106" lon="14.037015">
        <ele>702.2</ele>
        <time>2013-03-29T13:53:14Z</time>
      </trkpt>
      <trkpt lat="62.4898465" lon="14.0371432">
        <ele>702</ele>
        <time>2013-03-29T13:53:15Z</time>
      </trkpt>
      <trkpt lat="62.4898719" lon="14.0372714">
        <ele>701</ele>
        <time>2013-03-29T13:53:17Z</time>
      </trkpt>
      <trkpt lat="62.4898807" lon="14.0375612">
        <ele>701.2</ele>
        <time>2013-03-29T13:53:18Z</time>
      </trkpt>
      <trkpt lat="62.489859" lon="14.0376915">
        <ele>699.6</ele>
        <time>2013-03-29T13:53:20Z</time>
      </trkpt>
      <trkpt lat="62.4897868" lon="14.0378773">
        <ele>698.8</ele>
        <time>2013-03-29T13:53:21Z</time>
      </trkpt>
      <trkpt lat="62.4897435" lon="14.03793">
        <ele>697.8</ele>
        <time>2013-03-29T13:53:23Z</time>
      </trkpt>
      <trkpt lat="62.4895922" lon="14.0380367">
        <ele>696.4</ele>
        <time>2013-03-29T13:53:25Z</time>
      </trkpt>
      <trkpt lat="62.4894995" lon="14.0381216">
        <ele>692.4</ele>
        <time>2013-03-29T13:53:28Z</time>
      </trkpt>
      <trkpt lat="62.4894522" lon="14.0381629">
        <ele>692.2</ele>
        <time>2013-03-29T13:53:29Z</time>
      </trkpt>
      <trkpt lat="62.4894096" lon="14.038208">
        <ele>691.8</ele>
        <time>2013-03-29T13:53:30Z</time>
      </trkpt>
      <trkpt lat="62.4892373" lon="14.0383967">
        <ele>692</ele>
        <time>2013-03-29T13:53:33Z</time>
      </trkpt>
      <trkpt lat="62.489045" lon="14.0386918">
        <ele>692.2</ele>
        <time>2013-03-29T13:53:38Z</time>
      </trkpt>
      <trkpt lat="62.4889632" lon="14.0390212">
        <ele>692.6</ele>
        <time>2013-03-29T13:53:41Z</time>
      </trkpt>
      <trkpt lat="62.4889498" lon="14.0391473">
        <ele>693</ele>
        <time>2013-03-29T13:53:42Z</time>
      </trkpt>
      <trkpt lat="62.4889457" lon="14.0392718">
        <ele>692</ele>
        <time>2013-03-29T13:53:44Z</time>
      </trkpt>
      <trkpt lat="62.488961" lon="14.0396643">
        <ele>692.8</ele>
        <time>2013-03-29T13:53:46Z</time>
      </trkpt>
      <trkpt lat="62.4890076" lon="14.0399512">
        <ele>694</ele>
        <time>2013-03-29T13:53:50Z</time>
      </trkpt>
      <trkpt lat="62.4890466" lon="14.0400816">
        <ele>693.8</ele>
        <time>2013-03-29T13:53:51Z</time>
      </trkpt>
      <trkpt lat="62.4891059" lon="14.0401875">
        <ele>693.8</ele>
        <time>2013-03-29T13:53:54Z</time>
      </trkpt>
      <trkpt lat="62.4892368" lon="14.0403069">
        <ele>694.2</ele>
        <time>2013-03-29T13:53:56Z</time>
      </trkpt>
      <trkpt lat="62.489267" lon="14.0403559">
        <ele>694.2</ele>
        <time>2013-03-29T13:53:57Z</time>
      </trkpt>
      <trkpt lat="62.4893012" lon="14.0405655">
        <ele>695.8</ele>
        <time>2013-03-29T13:54:02Z</time>
      </trkpt>
      <trkpt lat="62.4893012" lon="14.0406207">
        <ele>696.4</ele>
        <time>2013-03-29T13:54:04Z</time>
      </trkpt>
      <trkpt lat="62.489286" lon="14.0410066">
        <ele>698.6</ele>
        <time>2013-03-29T13:54:11Z</time>
      </trkpt>
      <trkpt lat="62.4891825" lon="14.0414332">
        <ele>703.2</ele>
        <time>2013-03-29T13:54:20Z</time>
      </trkpt>
      <trkpt lat="62.4890444" lon="14.0417259">
        <ele>705.2</ele>
        <time>2013-03-29T13:54:28Z</time>
      </trkpt>
      <trkpt lat="62.4888487" lon="14.0420554">
        <ele>711</ele>
        <time>2013-03-29T13:55:05Z</time>
      </trkpt>
      <trkpt lat="62.4887306" lon="14.0423678">
        <ele>711</ele>
        <time>2013-03-29T13:55:11Z</time>
      </trkpt>
      <trkpt lat="62.4886509" lon="14.0427573">
        <ele>710.8</ele>
        <time>2013-03-29T13:55:17Z</time>
      </trkpt>
      <trkpt lat="62.4885603" lon="14.0430628">
        <ele>710</ele>
        <time>2013-03-29T13:55:23Z</time>
      </trkpt>
      <trkpt lat="62.4883961" lon="14.043324">
        <ele>709.2</ele>
        <time>2013-03-29T13:55:30Z</time>
      </trkpt>
      <trkpt lat="62.4882522" lon="14.0436015">
        <ele>710.8</ele>
        <time>2013-03-29T13:55:37Z</time>
      </trkpt>
      <trkpt lat="62.4881661" lon="14.0440511">
        <ele>712.2</ele>
        <time>2013-03-29T13:55:43Z</time>
      </trkpt>
      <trkpt lat="62.4881361" lon="14.0443809">
        <ele>713.2</ele>
        <time>2013-03-29T13:55:49Z</time>
      </trkpt>
      <trkpt lat="62.4881706" lon="14.0448496">
        <ele>716.6</ele>
        <time>2013-03-29T13:55:59Z</time>
      </trkpt>
      <trkpt lat="62.4881571" lon="14.0450874">
        <ele>717</ele>
        <time>2013-03-29T13:56:06Z</time>
      </trkpt>
      <trkpt lat="62.4881338" lon="14.0452459">
        <ele>716.6</ele>
        <time>2013-03-29T13:56:09Z</time>
      </trkpt>
      <trkpt lat="62.4881163" lon="14.0456065">
        <ele>718</ele>
        <time>2013-03-29T13:56:18Z</time>
      </trkpt>
      <trkpt lat="62.4881226" lon="14.0460704">
        <ele>718.8</ele>
        <time>2013-03-29T13:56:27Z</time>
      </trkpt>
      <trkpt lat="62.4881407" lon="14.0465037">
        <ele>721.8</ele>
        <time>2013-03-29T13:56:36Z</time>
      </trkpt>
      <trkpt lat="62.4881272" lon="14.0468657">
        <ele>722.4</ele>
        <time>2013-03-29T13:56:43Z</time>
      </trkpt>
      <trkpt lat="62.4880941" lon="14.0472831">
        <ele>722.8</ele>
        <time>2013-03-29T13:56:50Z</time>
      </trkpt>
      <trkpt lat="62.4880719" lon="14.0477156">
        <ele>725.2</ele>
        <time>2013-03-29T13:56:58Z</time>
      </trkpt>
      <trkpt lat="62.4880401" lon="14.0481242">
        <ele>727</ele>
        <time>2013-03-29T13:57:06Z</time>
      </trkpt>
      <trkpt lat="62.4880442" lon="14.0482154">
        <ele>727.4</ele>
        <time>2013-03-29T13:57:07Z</time>
      </trkpt>
      <trkpt lat="62.4880703" lon="14.0485856">
        <ele>730</ele>
        <time>2013-03-29T13:57:15Z</time>
      </trkpt>
      <trkpt lat="62.4880185" lon="14.0489885">
        <ele>731.8</ele>
        <time>2013-03-29T13:57:21Z</time>
      </trkpt>
      <trkpt lat="62.4879377" lon="14.0493173">
        <ele>732.4</ele>
        <time>2013-03-29T13:57:29Z</time>
      </trkpt>
      <trkpt lat="62.4879139" lon="14.0493635">
        <ele>731.8</ele>
        <time>2013-03-29T13:57:30Z</time>
      </trkpt>
      <trkpt lat="62.4877406" lon="14.0496266">
        <ele>729.4</ele>
        <time>2013-03-29T13:57:34Z</time>
      </trkpt>
      <trkpt lat="62.4876458" lon="14.049956">
        <ele>728.4</ele>
        <time>2013-03-29T13:57:40Z</time>
      </trkpt>
      <trkpt lat="62.4875523" lon="14.050383">
        <ele>726.6</ele>
        <time>2013-03-29T13:57:46Z</time>
      </trkpt>
      <trkpt lat="62.4874513" lon="14.0506683">
        <ele>725.2</ele>
        <time>2013-03-29T13:57:52Z</time>
      </trkpt>
      <trkpt lat="62.4872651" lon="14.0509746">
        <ele>724</ele>
        <time>2013-03-29T13:57:57Z</time>
      </trkpt>
      <trkpt lat="62.487098" lon="14.0511826">
        <ele>721.6</ele>
        <time>2013-03-29T13:58:01Z</time>
      </trkpt>
      <trkpt lat="62.4870558" lon="14.0512297">
        <ele>720.8</ele>
        <time>2013-03-29T13:58:02Z</time>
      </trkpt>
      <trkpt lat="62.4869457" lon="14.0512982">
        <ele>719.8</ele>
        <time>2013-03-29T13:58:05Z</time>
      </trkpt>
      <trkpt lat="62.4868305" lon="14.0514095">
        <ele>721.8</ele>
        <time>2013-03-29T13:58:06Z</time>
      </trkpt>
      <trkpt lat="62.4867114" lon="14.0516341">
        <ele>720.4</ele>
        <time>2013-03-29T13:58:09Z</time>
      </trkpt>
      <trkpt lat="62.486681" lon="14.0517137">
        <ele>719</ele>
        <time>2013-03-29T13:58:11Z</time>
      </trkpt>
      <trkpt lat="62.4865925" lon="14.0519063">
        <ele>718.4</ele>
        <time>2013-03-29T13:58:14Z</time>
      </trkpt>
      <trkpt lat="62.4864395" lon="14.0522">
        <ele>718.6</ele>
        <time>2013-03-29T13:58:18Z</time>
      </trkpt>
      <trkpt lat="62.4864043" lon="14.0522639">
        <ele>718.2</ele>
        <time>2013-03-29T13:58:19Z</time>
      </trkpt>
      <trkpt lat="62.4863499" lon="14.0523986">
        <ele>718.2</ele>
        <time>2013-03-29T13:58:21Z</time>
      </trkpt>
      <trkpt lat="62.4862812" lon="14.0525581">
        <ele>719.4</ele>
        <time>2013-03-29T13:58:25Z</time>
      </trkpt>
      <trkpt lat="62.4862275" lon="14.0525716">
        <ele>734.8</ele>
        <time>2013-03-29T14:00:40Z</time>
      </trkpt>
      <trkpt lat="62.4861485" lon="14.0527819">
        <ele>733.2</ele>
        <time>2013-03-29T14:00:43Z</time>
      </trkpt>
      <trkpt lat="62.4859908" lon="14.0530591">
        <ele>730.4</ele>
        <time>2013-03-29T14:00:47Z</time>
      </trkpt>
      <trkpt lat="62.4858049" lon="14.0533494">
        <ele>726</ele>
        <time>2013-03-29T14:00:51Z</time>
      </trkpt>
      <trkpt lat="62.4856968" lon="14.0535174">
        <ele>722.6</ele>
        <time>2013-03-29T14:00:54Z</time>
      </trkpt>
      <trkpt lat="62.4855574" lon="14.0536044">
        <ele>722</ele>
        <time>2013-03-29T14:00:55Z</time>
      </trkpt>
      <trkpt lat="62.4853999" lon="14.0535729">
        <ele>720.6</ele>
        <time>2013-03-29T14:00:57Z</time>
      </trkpt>
      <trkpt lat="62.485228" lon="14.0535666">
        <ele>717</ele>
        <time>2013-03-29T14:00:59Z</time>
      </trkpt>
      <trkpt lat="62.4851304" lon="14.0535984">
        <ele>716</ele>
        <time>2013-03-29T14:01:00Z</time>
      </trkpt>
      <trkpt lat="62.4850345" lon="14.0536677">
        <ele>713.6</ele>
        <time>2013-03-29T14:01:02Z</time>
      </trkpt>
      <trkpt lat="62.4847296" lon="14.0539415">
        <ele>711.2</ele>
        <time>2013-03-29T14:01:04Z</time>
      </trkpt>
      <trkpt lat="62.4846327" lon="14.054029">
        <ele>708.4</ele>
        <time>2013-03-29T14:01:06Z</time>
      </trkpt>
      <trkpt lat="62.4845416" lon="14.0541374">
        <ele>708</ele>
        <time>2013-03-29T14:01:07Z</time>
      </trkpt>
      <trkpt lat="62.4844088" lon="14.0544515">
        <ele>707</ele>
        <time>2013-03-29T14:01:08Z</time>
      </trkpt>
      <trkpt lat="62.4843248" lon="14.0547408">
        <ele>704.2</ele>
        <time>2013-03-29T14:01:11Z</time>
      </trkpt>
      <trkpt lat="62.4841905" lon="14.0550146">
        <ele>705</ele>
        <time>2013-03-29T14:01:13Z</time>
      </trkpt>
      <trkpt lat="62.4840954" lon="14.0551568">
        <ele>703.6</ele>
        <time>2013-03-29T14:01:15Z</time>
      </trkpt>
      <trkpt lat="62.4839869" lon="14.0553279">
        <ele>701.8</ele>
        <time>2013-03-29T14:01:17Z</time>
      </trkpt>
      <trkpt lat="62.4839288" lon="14.0554261">
        <ele>701.2</ele>
        <time>2013-03-29T14:01:18Z</time>
      </trkpt>
      <trkpt lat="62.4837749" lon="14.0556968">
        <ele>699.2</ele>
        <time>2013-03-29T14:01:21Z</time>
      </trkpt>
      <trkpt lat="62.4836312" lon="14.0560309">
        <ele>696.2</ele>
        <time>2013-03-29T14:01:24Z</time>
      </trkpt>
      <trkpt lat="62.483532" lon="14.0562049">
        <ele>694.4</ele>
        <time>2013-03-29T14:01:26Z</time>
      </trkpt>
      <trkpt lat="62.483478" lon="14.0562782">
        <ele>693.6</ele>
        <time>2013-03-29T14:01:27Z</time>
      </trkpt>
      <trkpt lat="62.4833237" lon="14.0565091">
        <ele>691</ele>
        <time>2013-03-29T14:01:30Z</time>
      </trkpt>
      <trkpt lat="62.4832765" lon="14.0566068">
        <ele>690.2</ele>
        <time>2013-03-29T14:01:31Z</time>
      </trkpt>
      <trkpt lat="62.483191" lon="14.0568036">
        <ele>689.6</ele>
        <time>2013-03-29T14:01:33Z</time>
      </trkpt>
      <trkpt lat="62.4829901" lon="14.0569753">
        <ele>689.4</ele>
        <time>2013-03-29T14:01:36Z</time>
      </trkpt>
      <trkpt lat="62.4827585" lon="14.0567444">
        <ele>688.2</ele>
        <time>2013-03-29T14:01:39Z</time>
      </trkpt>
      <trkpt lat="62.4825668" lon="14.0564027">
        <ele>687.4</ele>
        <time>2013-03-29T14:01:42Z</time>
      </trkpt>
      <trkpt lat="62.4824365" lon="14.0562447">
        <ele>687</ele>
        <time>2013-03-29T14:01:44Z</time>
      </trkpt>
      <trkpt lat="62.4823629" lon="14.056201">
        <ele>686.6</ele>
        <time>2013-03-29T14:01:45Z</time>
      </trkpt>
      <trkpt lat="62.4821288" lon="14.056151">
        <ele>686</ele>
        <time>2013-03-29T14:01:48Z</time>
      </trkpt>
      <trkpt lat="62.4820545" lon="14.0561557">
        <ele>685.4</ele>
        <time>2013-03-29T14:01:49Z</time>
      </trkpt>
      <trkpt lat="62.4819758" lon="14.0561496">
        <ele>685.2</ele>
        <time>2013-03-29T14:01:50Z</time>
      </trkpt>
      <trkpt lat="62.4818951" lon="14.0561198">
        <ele>684.4</ele>
        <time>2013-03-29T14:01:51Z</time>
      </trkpt>
      <trkpt lat="62.481731" lon="14.0559563">
        <ele>683.8</ele>
        <time>2013-03-29T14:01:53Z</time>
      </trkpt>
      <trkpt lat="62.4815588" lon="14.0556039">
        <ele>683.8</ele>
        <time>2013-03-29T14:01:56Z</time>
      </trkpt>
      <trkpt lat="62.4814034" lon="14.0553829">
        <ele>683.6</ele>
        <time>2013-03-29T14:01:59Z</time>
      </trkpt>
      <trkpt lat="62.4813839" lon="14.05537">
        <ele>683.8</ele>
        <time>2013-03-29T14:02:00Z</time>
      </trkpt>
      <trkpt lat="62.4813603" lon="14.0553901">
        <ele>683.8</ele>
        <time>2013-03-29T14:02:02Z</time>
      </trkpt>
      <trkpt lat="62.4812507" lon="14.0553772">
        <ele>681.8</ele>
        <time>2013-03-29T14:02:06Z</time>
      </trkpt>
      <trkpt lat="62.481217" lon="14.0553911">
        <ele>681.8</ele>
        <time>2013-03-29T14:02:07Z</time>
      </trkpt>
      <trkpt lat="62.4810772" lon="14.055522">
        <ele>679.2</ele>
        <time>2013-03-29T14:02:11Z</time>
      </trkpt>
      <trkpt lat="62.4810438" lon="14.0555616">
        <ele>678.4</ele>
        <time>2013-03-29T14:02:12Z</time>
      </trkpt>
      <trkpt lat="62.4808478" lon="14.0559783">
        <ele>682</ele>
        <time>2013-03-29T14:02:59Z</time>
      </trkpt>
      <trkpt lat="62.4808264" lon="14.0560384">
        <ele>682</ele>
        <time>2013-03-29T14:03:01Z</time>
      </trkpt>
      <trkpt lat="62.4807555" lon="14.0563163">
        <ele>682</ele>
        <time>2013-03-29T14:03:06Z</time>
      </trkpt>
      <trkpt lat="62.4807275" lon="14.0567333">
        <ele>680.2</ele>
        <time>2013-03-29T14:03:12Z</time>
      </trkpt>
      <trkpt lat="62.4807402" lon="14.0571207">
        <ele>678.4</ele>
        <time>2013-03-29T14:03:18Z</time>
      </trkpt>
      <trkpt lat="62.4806967" lon="14.0575232">
        <ele>676.6</ele>
        <time>2013-03-29T14:03:23Z</time>
      </trkpt>
      <trkpt lat="62.4806481" lon="14.0579094">
        <ele>676.2</ele>
        <time>2013-03-29T14:03:27Z</time>
      </trkpt>
      <trkpt lat="62.4806398" lon="14.0580011">
        <ele>676.6</ele>
        <time>2013-03-29T14:03:28Z</time>
      </trkpt>
      <trkpt lat="62.4806266" lon="14.0583447">
        <ele>677.4</ele>
        <time>2013-03-29T14:03:32Z</time>
      </trkpt>
      <trkpt lat="62.4806373" lon="14.0587358">
        <ele>676.6</ele>
        <time>2013-03-29T14:03:37Z</time>
      </trkpt>
      <trkpt lat="62.4806545" lon="14.0591257">
        <ele>676.2</ele>
        <time>2013-03-29T14:03:42Z</time>
      </trkpt>
      <trkpt lat="62.4806993" lon="14.05955">
        <ele>678.2</ele>
        <time>2013-03-29T14:03:48Z</time>
      </trkpt>
      <trkpt lat="62.4807579" lon="14.0599557">
        <ele>681</ele>
        <time>2013-03-29T14:03:54Z</time>
      </trkpt>
      <trkpt lat="62.4808" lon="14.0603465">
        <ele>680.6</ele>
        <time>2013-03-29T14:03:59Z</time>
      </trkpt>
      <trkpt lat="62.4808281" lon="14.0607561">
        <ele>680</ele>
        <time>2013-03-29T14:04:04Z</time>
      </trkpt>
      <trkpt lat="62.480828" lon="14.0611742">
        <ele>681.2</ele>
        <time>2013-03-29T14:04:10Z</time>
      </trkpt>
      <trkpt lat="62.4807933" lon="14.0615788">
        <ele>681</ele>
        <time>2013-03-29T14:04:17Z</time>
      </trkpt>
      <trkpt lat="62.4807638" lon="14.0620595">
        <ele>679</ele>
        <time>2013-03-29T14:04:22Z</time>
      </trkpt>
      <trkpt lat="62.4807561" lon="14.0623873">
        <ele>677.2</ele>
        <time>2013-03-29T14:04:25Z</time>
      </trkpt>
      <trkpt lat="62.480731" lon="14.0625042">
        <ele>676.6</ele>
        <time>2013-03-29T14:04:26Z</time>
      </trkpt>
      <trkpt lat="62.4806027" lon="14.0628484">
        <ele>675.8</ele>
        <time>2013-03-29T14:04:29Z</time>
      </trkpt>
      <trkpt lat="62.4805234" lon="14.0630777">
        <ele>675.6</ele>
        <time>2013-03-29T14:04:31Z</time>
      </trkpt>
      <trkpt lat="62.4804919" lon="14.0631981">
        <ele>675.8</ele>
        <time>2013-03-29T14:04:32Z</time>
      </trkpt>
      <trkpt lat="62.4804473" lon="14.0635697">
        <ele>675.8</ele>
        <time>2013-03-29T14:04:35Z</time>
      </trkpt>
      <trkpt lat="62.480437" lon="14.0636944">
        <ele>675.6</ele>
        <time>2013-03-29T14:04:36Z</time>
      </trkpt>
      <trkpt lat="62.4803935" lon="14.0641325">
        <ele>675.2</ele>
        <time>2013-03-29T14:04:40Z</time>
      </trkpt>
      <trkpt lat="62.4803106" lon="14.064598">
        <ele>673.6</ele>
        <time>2013-03-29T14:04:44Z</time>
      </trkpt>
      <trkpt lat="62.4801944" lon="14.0650333">
        <ele>668.8</ele>
        <time>2013-03-29T14:04:48Z</time>
      </trkpt>
      <trkpt lat="62.4801473" lon="14.0652633">
        <ele>667</ele>
        <time>2013-03-29T14:04:50Z</time>
      </trkpt>
      <trkpt lat="62.4801305" lon="14.065498">
        <ele>666.2</ele>
        <time>2013-03-29T14:04:52Z</time>
      </trkpt>
      <trkpt lat="62.4801239" lon="14.0657091">
        <ele>666</ele>
        <time>2013-03-29T14:04:54Z</time>
      </trkpt>
      <trkpt lat="62.4801974" lon="14.065843">
        <ele>667.6</ele>
        <time>2013-03-29T14:04:58Z</time>
      </trkpt>
      <trkpt lat="62.4803802" lon="14.0659093">
        <ele>671</ele>
        <time>2013-03-29T14:05:05Z</time>
      </trkpt>
      <trkpt lat="62.480452" lon="14.0660896">
        <ele>673.6</ele>
        <time>2013-03-29T14:05:09Z</time>
      </trkpt>
      <trkpt lat="62.4804659" lon="14.0662691">
        <ele>674.4</ele>
        <time>2013-03-29T14:05:12Z</time>
      </trkpt>
      <trkpt lat="62.4804431" lon="14.066718">
        <ele>673.4</ele>
        <time>2013-03-29T14:05:18Z</time>
      </trkpt>
      <trkpt lat="62.4804089" lon="14.0671">
        <ele>671.2</ele>
        <time>2013-03-29T14:05:23Z</time>
      </trkpt>
      <trkpt lat="62.480389" lon="14.0674944">
        <ele>670.6</ele>
        <time>2013-03-29T14:05:28Z</time>
      </trkpt>
      <trkpt lat="62.4804621" lon="14.0678482">
        <ele>671.2</ele>
        <time>2013-03-29T14:05:34Z</time>
      </trkpt>
      <trkpt lat="62.4805705" lon="14.0681581">
        <ele>669.8</ele>
        <time>2013-03-29T14:05:40Z</time>
      </trkpt>
      <trkpt lat="62.4807185" lon="14.0684491">
        <ele>675</ele>
        <time>2013-03-29T14:05:47Z</time>
      </trkpt>
      <trkpt lat="62.4809055" lon="14.0685506">
        <ele>680.6</ele>
        <time>2013-03-29T14:05:54Z</time>
      </trkpt>
      <trkpt lat="62.4809194" lon="14.068547">
        <ele>680.6</ele>
        <time>2013-03-29T14:05:55Z</time>
      </trkpt>
      <trkpt lat="62.4810681" lon="14.0683714">
        <ele>683.2</ele>
        <time>2013-03-29T14:06:02Z</time>
      </trkpt>
      <trkpt lat="62.4812522" lon="14.0682144">
        <ele>686</ele>
        <time>2013-03-29T14:06:09Z</time>
      </trkpt>
      <trkpt lat="62.4814152" lon="14.0683579">
        <ele>690.2</ele>
        <time>2013-03-29T14:06:16Z</time>
      </trkpt>
      <trkpt lat="62.481425" lon="14.068387">
        <ele>691.2</ele>
        <time>2013-03-29T14:06:18Z</time>
      </trkpt>
      <trkpt lat="62.4814651" lon="14.0687354">
        <ele>691.8</ele>
        <time>2013-03-29T14:06:29Z</time>
      </trkpt>
      <trkpt lat="62.4814701" lon="14.0688262">
        <ele>692.6</ele>
        <time>2013-03-29T14:06:31Z</time>
      </trkpt>
      <trkpt lat="62.4814572" lon="14.0691329">
        <ele>692.8</ele>
        <time>2013-03-29T14:06:36Z</time>
      </trkpt>
      <trkpt lat="62.4813753" lon="14.0695051">
        <ele>690</ele>
        <time>2013-03-29T14:06:42Z</time>
      </trkpt>
      <trkpt lat="62.4812844" lon="14.069866">
        <ele>690.2</ele>
        <time>2013-03-29T14:06:48Z</time>
      </trkpt>
      <trkpt lat="62.4811986" lon="14.0702761">
        <ele>690.4</ele>
        <time>2013-03-29T14:06:53Z</time>
      </trkpt>
      <trkpt lat="62.4811133" lon="14.0707088">
        <ele>690.8</ele>
        <time>2013-03-29T14:06:58Z</time>
      </trkpt>
      <trkpt lat="62.4810657" lon="14.0709645">
        <ele>690.4</ele>
        <time>2013-03-29T14:07:01Z</time>
      </trkpt>
      <trkpt lat="62.4810574" lon="14.0711231">
        <ele>690</ele>
        <time>2013-03-29T14:07:03Z</time>
      </trkpt>
      <trkpt lat="62.4810603" lon="14.0712218">
        <ele>690</ele>
        <time>2013-03-29T14:07:04Z</time>
      </trkpt>
      <trkpt lat="62.4810915" lon="14.0716217">
        <ele>689.8</ele>
        <time>2013-03-29T14:07:07Z</time>
      </trkpt>
      <trkpt lat="62.481101" lon="14.0720731">
        <ele>689.4</ele>
        <time>2013-03-29T14:07:10Z</time>
      </trkpt>
      <trkpt lat="62.4811016" lon="14.0723999">
        <ele>689</ele>
        <time>2013-03-29T14:07:15Z</time>
      </trkpt>
      <trkpt lat="62.4811092" lon="14.0724889">
        <ele>690.4</ele>
        <time>2013-03-29T14:07:17Z</time>
      </trkpt>
      <trkpt lat="62.4811414" lon="14.0729136">
        <ele>692</ele>
        <time>2013-03-29T14:07:25Z</time>
      </trkpt>
      <trkpt lat="62.4811704" lon="14.0733216">
        <ele>691.4</ele>
        <time>2013-03-29T14:07:30Z</time>
      </trkpt>
      <trkpt lat="62.4811932" lon="14.0737209">
        <ele>688.8</ele>
        <time>2013-03-29T14:07:35Z</time>
      </trkpt>
      <trkpt lat="62.481203" lon="14.0741468">
        <ele>689.6</ele>
        <time>2013-03-29T14:07:41Z</time>
      </trkpt>
      <trkpt lat="62.4812277" lon="14.0745738">
        <ele>691.6</ele>
        <time>2013-03-29T14:07:48Z</time>
      </trkpt>
      <trkpt lat="62.4812496" lon="14.0749654">
        <ele>692.8</ele>
        <time>2013-03-29T14:07:54Z</time>
      </trkpt>
      <trkpt lat="62.4812953" lon="14.0754091">
        <ele>694</ele>
        <time>2013-03-29T14:08:00Z</time>
      </trkpt>
      <trkpt lat="62.481306" lon="14.0758721">
        <ele>692.2</ele>
        <time>2013-03-29T14:08:06Z</time>
      </trkpt>
      <trkpt lat="62.4813223" lon="14.0762717">
        <ele>691.8</ele>
        <time>2013-03-29T14:08:11Z</time>
      </trkpt>
      <trkpt lat="62.4813404" lon="14.0767021">
        <ele>691.4</ele>
        <time>2013-03-29T14:08:16Z</time>
      </trkpt>
      <trkpt lat="62.4813582" lon="14.0770903">
        <ele>691.8</ele>
        <time>2013-03-29T14:08:21Z</time>
      </trkpt>
      <trkpt lat="62.4813909" lon="14.0775375">
        <ele>692</ele>
        <time>2013-03-29T14:08:27Z</time>
      </trkpt>
      <trkpt lat="62.4814139" lon="14.0779443">
        <ele>692</ele>
        <time>2013-03-29T14:08:32Z</time>
      </trkpt>
      <trkpt lat="62.4814377" lon="14.0783874">
        <ele>693</ele>
        <time>2013-03-29T14:08:37Z</time>
      </trkpt>
      <trkpt lat="62.481461" lon="14.078659">
        <ele>693</ele>
        <time>2013-03-29T14:08:40Z</time>
      </trkpt>
      <trkpt lat="62.4814758" lon="14.0788324">
        <ele>692.2</ele>
        <time>2013-03-29T14:08:42Z</time>
      </trkpt>
      <trkpt lat="62.4815112" lon="14.0793055">
        <ele>692</ele>
        <time>2013-03-29T14:08:47Z</time>
      </trkpt>
      <trkpt lat="62.4815278" lon="14.0795796">
        <ele>691.8</ele>
        <time>2013-03-29T14:08:50Z</time>
      </trkpt>
      <trkpt lat="62.4815292" lon="14.0797794">
        <ele>691.6</ele>
        <time>2013-03-29T14:08:52Z</time>
      </trkpt>
      <trkpt lat="62.4815546" lon="14.080054">
        <ele>691.2</ele>
        <time>2013-03-29T14:08:55Z</time>
      </trkpt>
      <trkpt lat="62.4815588" lon="14.0801621">
        <ele>691.6</ele>
        <time>2013-03-29T14:08:56Z</time>
      </trkpt>
      <trkpt lat="62.4815864" lon="14.0805612">
        <ele>690.6</ele>
        <time>2013-03-29T14:09:00Z</time>
      </trkpt>
      <trkpt lat="62.4816019" lon="14.0807724">
        <ele>689.2</ele>
        <time>2013-03-29T14:09:02Z</time>
      </trkpt>
      <trkpt lat="62.481603" lon="14.0809827">
        <ele>688</ele>
        <time>2013-03-29T14:09:04Z</time>
      </trkpt>
      <trkpt lat="62.4816112" lon="14.0811875">
        <ele>687.6</ele>
        <time>2013-03-29T14:09:06Z</time>
      </trkpt>
      <trkpt lat="62.481637" lon="14.0814432">
        <ele>687.6</ele>
        <time>2013-03-29T14:09:09Z</time>
      </trkpt>
      <trkpt lat="62.4816486" lon="14.0815245">
        <ele>687.4</ele>
        <time>2013-03-29T14:09:10Z</time>
      </trkpt>
      <trkpt lat="62.4816634" lon="14.0818381">
        <ele>686.8</ele>
        <time>2013-03-29T14:09:14Z</time>
      </trkpt>
      <trkpt lat="62.4816716" lon="14.0822865">
        <ele>686.4</ele>
        <time>2013-03-29T14:09:19Z</time>
      </trkpt>
      <trkpt lat="62.4816874" lon="14.082726">
        <ele>685.4</ele>
        <time>2013-03-29T14:09:23Z</time>
      </trkpt>
      <trkpt lat="62.4817227" lon="14.0831834">
        <ele>683.2</ele>
        <time>2013-03-29T14:09:27Z</time>
      </trkpt>
      <trkpt lat="62.4817525" lon="14.0835822">
        <ele>681.4</ele>
        <time>2013-03-29T14:09:31Z</time>
      </trkpt>
      <trkpt lat="62.4817573" lon="14.0840229">
        <ele>680.8</ele>
        <time>2013-03-29T14:09:35Z</time>
      </trkpt>
      <trkpt lat="62.4817626" lon="14.0841378">
        <ele>680.4</ele>
        <time>2013-03-29T14:09:36Z</time>
      </trkpt>
      <trkpt lat="62.4817894" lon="14.0844364">
        <ele>679</ele>
        <time>2013-03-29T14:09:39Z</time>
      </trkpt>
      <trkpt lat="62.4818163" lon="14.0848519">
        <ele>677.2</ele>
        <time>2013-03-29T14:09:43Z</time>
      </trkpt>
      <trkpt lat="62.4818282" lon="14.0850677">
        <ele>677.4</ele>
        <time>2013-03-29T14:09:45Z</time>
      </trkpt>
      <trkpt lat="62.4818308" lon="14.0852558">
        <ele>677.8</ele>
        <time>2013-03-29T14:09:47Z</time>
      </trkpt>
      <trkpt lat="62.4818583" lon="14.0855532">
        <ele>678.4</ele>
        <time>2013-03-29T14:09:50Z</time>
      </trkpt>
      <trkpt lat="62.4818753" lon="14.0856416">
        <ele>679</ele>
        <time>2013-03-29T14:09:51Z</time>
      </trkpt>
      <trkpt lat="62.4819059" lon="14.085804">
        <ele>679.4</ele>
        <time>2013-03-29T14:09:53Z</time>
      </trkpt>
      <trkpt lat="62.4819164" lon="14.0860213">
        <ele>679.8</ele>
        <time>2013-03-29T14:09:56Z</time>
      </trkpt>
      <trkpt lat="62.4819168" lon="14.0860949">
        <ele>680.2</ele>
        <time>2013-03-29T14:09:57Z</time>
      </trkpt>
      <trkpt lat="62.4819128" lon="14.086473">
        <ele>680.4</ele>
        <time>2013-03-29T14:10:02Z</time>
      </trkpt>
      <trkpt lat="62.4819261" lon="14.0868999">
        <ele>683.2</ele>
        <time>2013-03-29T14:10:07Z</time>
      </trkpt>
      <trkpt lat="62.4819686" lon="14.0873229">
        <ele>685.2</ele>
        <time>2013-03-29T14:10:13Z</time>
      </trkpt>
      <trkpt lat="62.4819805" lon="14.087777">
        <ele>688</ele>
        <time>2013-03-29T14:10:20Z</time>
      </trkpt>
      <trkpt lat="62.482008" lon="14.0881848">
        <ele>689</ele>
        <time>2013-03-29T14:10:25Z</time>
      </trkpt>
      <trkpt lat="62.4820489" lon="14.0886052">
        <ele>690.2</ele>
        <time>2013-03-29T14:10:30Z</time>
      </trkpt>
      <trkpt lat="62.48207" lon="14.089011">
        <ele>691.8</ele>
        <time>2013-03-29T14:10:35Z</time>
      </trkpt>
      <trkpt lat="62.4820971" lon="14.0894409">
        <ele>691.4</ele>
        <time>2013-03-29T14:10:40Z</time>
      </trkpt>
      <trkpt lat="62.4821236" lon="14.0898352">
        <ele>691.4</ele>
        <time>2013-03-29T14:10:45Z</time>
      </trkpt>
      <trkpt lat="62.4821535" lon="14.09029">
        <ele>691.4</ele>
        <time>2013-03-29T14:10:50Z</time>
      </trkpt>
      <trkpt lat="62.4821713" lon="14.0907032">
        <ele>690.4</ele>
        <time>2013-03-29T14:10:54Z</time>
      </trkpt>
      <trkpt lat="62.4821841" lon="14.0911432">
        <ele>690.4</ele>
        <time>2013-03-29T14:10:58Z</time>
      </trkpt>
      <trkpt lat="62.4821971" lon="14.0915674">
        <ele>690.4</ele>
        <time>2013-03-29T14:11:02Z</time>
      </trkpt>
      <trkpt lat="62.4822121" lon="14.0918868">
        <ele>690</ele>
        <time>2013-03-29T14:11:05Z</time>
      </trkpt>
      <trkpt lat="62.4822199" lon="14.0919819">
        <ele>690</ele>
        <time>2013-03-29T14:11:06Z</time>
      </trkpt>
      <trkpt lat="62.4822303" lon="14.0921833">
        <ele>690.4</ele>
        <time>2013-03-29T14:11:08Z</time>
      </trkpt>
      <trkpt lat="62.4822469" lon="14.0924485">
        <ele>690.6</ele>
        <time>2013-03-29T14:11:11Z</time>
      </trkpt>
      <trkpt lat="62.4822544" lon="14.0927976">
        <ele>688.8</ele>
        <time>2013-03-29T14:11:15Z</time>
      </trkpt>
      <trkpt lat="62.4822603" lon="14.0928785">
        <ele>688.8</ele>
        <time>2013-03-29T14:11:16Z</time>
      </trkpt>
      <trkpt lat="62.4822763" lon="14.093301">
        <ele>689</ele>
        <time>2013-03-29T14:11:21Z</time>
      </trkpt>
      <trkpt lat="62.4823001" lon="14.0937259">
        <ele>690</ele>
        <time>2013-03-29T14:11:27Z</time>
      </trkpt>
      <trkpt lat="62.4823538" lon="14.0941741">
        <ele>690</ele>
        <time>2013-03-29T14:11:33Z</time>
      </trkpt>
      <trkpt lat="62.482374" lon="14.094616">
        <ele>688.8</ele>
        <time>2013-03-29T14:11:38Z</time>
      </trkpt>
      <trkpt lat="62.4824296" lon="14.0950513">
        <ele>686.4</ele>
        <time>2013-03-29T14:11:43Z</time>
      </trkpt>
      <trkpt lat="62.482541" lon="14.0953561">
        <ele>685.2</ele>
        <time>2013-03-29T14:11:48Z</time>
      </trkpt>
      <trkpt lat="62.4826653" lon="14.0955528">
        <ele>686.6</ele>
        <time>2013-03-29T14:11:53Z</time>
      </trkpt>
      <trkpt lat="62.4826862" lon="14.0955857">
        <ele>687.4</ele>
        <time>2013-03-29T14:11:54Z</time>
      </trkpt>
      <trkpt lat="62.4828381" lon="14.0958802">
        <ele>691.2</ele>
        <time>2013-03-29T14:12:01Z</time>
      </trkpt>
      <trkpt lat="62.4828442" lon="14.096289">
        <ele>692.6</ele>
        <time>2013-03-29T14:12:07Z</time>
      </trkpt>
      <trkpt lat="62.4828218" lon="14.0967577">
        <ele>692.4</ele>
        <time>2013-03-29T14:12:12Z</time>
      </trkpt>
      <trkpt lat="62.4829068" lon="14.0969868">
        <ele>693.4</ele>
        <time>2013-03-29T14:12:16Z</time>
      </trkpt>
      <trkpt lat="62.4829466" lon="14.097039">
        <ele>694</ele>
        <time>2013-03-29T14:12:18Z</time>
      </trkpt>
      <trkpt lat="62.483116" lon="14.0971894">
        <ele>695.4</ele>
        <time>2013-03-29T14:12:26Z</time>
      </trkpt>
      <trkpt lat="62.4832735" lon="14.097407">
        <ele>697.6</ele>
        <time>2013-03-29T14:12:33Z</time>
      </trkpt>
      <trkpt lat="62.4833357" lon="14.0978162">
        <ele>698.6</ele>
        <time>2013-03-29T14:12:41Z</time>
      </trkpt>
      <trkpt lat="62.4833564" lon="14.0982305">
        <ele>699.2</ele>
        <time>2013-03-29T14:12:48Z</time>
      </trkpt>
      <trkpt lat="62.4833859" lon="14.0986651">
        <ele>698.8</ele>
        <time>2013-03-29T14:12:54Z</time>
      </trkpt>
      <trkpt lat="62.4834066" lon="14.0991011">
        <ele>698.2</ele>
        <time>2013-03-29T14:12:59Z</time>
      </trkpt>
      <trkpt lat="62.4833512" lon="14.0994415">
        <ele>695.8</ele>
        <time>2013-03-29T14:13:03Z</time>
      </trkpt>
      <trkpt lat="62.4833174" lon="14.09952">
        <ele>695.4</ele>
        <time>2013-03-29T14:13:04Z</time>
      </trkpt>
      <trkpt lat="62.4831619" lon="14.0997048">
        <ele>691.8</ele>
        <time>2013-03-29T14:13:07Z</time>
      </trkpt>
      <trkpt lat="62.4831015" lon="14.0997457">
        <ele>690.6</ele>
        <time>2013-03-29T14:13:08Z</time>
      </trkpt>
      <trkpt lat="62.4829938" lon="14.0998351">
        <ele>689.2</ele>
        <time>2013-03-29T14:13:10Z</time>
      </trkpt>
      <trkpt lat="62.482949" lon="14.0999024">
        <ele>689</ele>
        <time>2013-03-29T14:13:11Z</time>
      </trkpt>
      <trkpt lat="62.4828164" lon="14.1002409">
        <ele>688</ele>
        <time>2013-03-29T14:13:15Z</time>
      </trkpt>
      <trkpt lat="62.482773" lon="14.1006558">
        <ele>688</ele>
        <time>2013-03-29T14:13:19Z</time>
      </trkpt>
      <trkpt lat="62.482776" lon="14.1008547">
        <ele>688.2</ele>
        <time>2013-03-29T14:13:21Z</time>
      </trkpt>
      <trkpt lat="62.4827799" lon="14.1009364">
        <ele>688.4</ele>
        <time>2013-03-29T14:13:22Z</time>
      </trkpt>
      <trkpt lat="62.4827957" lon="14.1010763">
        <ele>688.8</ele>
        <time>2013-03-29T14:13:24Z</time>
      </trkpt>
      <trkpt lat="62.4828056" lon="14.1011468">
        <ele>689</ele>
        <time>2013-03-29T14:13:25Z</time>
      </trkpt>
      <trkpt lat="62.4828415" lon="14.1014577">
        <ele>689.6</ele>
        <time>2013-03-29T14:13:29Z</time>
      </trkpt>
      <trkpt lat="62.4828555" lon="14.1018564">
        <ele>690.6</ele>
        <time>2013-03-29T14:13:34Z</time>
      </trkpt>
      <trkpt lat="62.482891" lon="14.1022787">
        <ele>692.4</ele>
        <time>2013-03-29T14:13:40Z</time>
      </trkpt>
      <trkpt lat="62.4829794" lon="14.102717">
        <ele>693</ele>
        <time>2013-03-29T14:13:46Z</time>
      </trkpt>
      <trkpt lat="62.4831284" lon="14.1029915">
        <ele>693</ele>
        <time>2013-03-29T14:13:51Z</time>
      </trkpt>
      <trkpt lat="62.4833201" lon="14.1031258">
        <ele>696.4</ele>
        <time>2013-03-29T14:13:57Z</time>
      </trkpt>
      <trkpt lat="62.4835142" lon="14.1032148">
        <ele>699.4</ele>
        <time>2013-03-29T14:14:04Z</time>
      </trkpt>
      <trkpt lat="62.4837216" lon="14.1032811">
        <ele>702</ele>
        <time>2013-03-29T14:14:11Z</time>
      </trkpt>
      <trkpt lat="62.4839095" lon="14.1032681">
        <ele>704</ele>
        <time>2013-03-29T14:14:17Z</time>
      </trkpt>
      <trkpt lat="62.4840878" lon="14.1033933">
        <ele>706.4</ele>
        <time>2013-03-29T14:14:25Z</time>
      </trkpt>
      <trkpt lat="62.4842716" lon="14.1035861">
        <ele>707.2</ele>
        <time>2013-03-29T14:14:33Z</time>
      </trkpt>
      <trkpt lat="62.4844453" lon="14.1037478">
        <ele>707.4</ele>
        <time>2013-03-29T14:14:40Z</time>
      </trkpt>
      <trkpt lat="62.4846022" lon="14.1039819">
        <ele>709.4</ele>
        <time>2013-03-29T14:14:47Z</time>
      </trkpt>
      <trkpt lat="62.4847398" lon="14.1043077">
        <ele>711.6</ele>
        <time>2013-03-29T14:14:56Z</time>
      </trkpt>
      <trkpt lat="62.4849057" lon="14.1044502">
        <ele>711.8</ele>
        <time>2013-03-29T14:15:02Z</time>
      </trkpt>
      <trkpt lat="62.4850921" lon="14.104493">
        <ele>713</ele>
        <time>2013-03-29T14:15:08Z</time>
      </trkpt>
      <trkpt lat="62.4852589" lon="14.1043424">
        <ele>713.6</ele>
        <time>2013-03-29T14:15:15Z</time>
      </trkpt>
      <trkpt lat="62.4854199" lon="14.1041051">
        <ele>715.6</ele>
        <time>2013-03-29T14:15:23Z</time>
      </trkpt>
      <trkpt lat="62.485561" lon="14.103852">
        <ele>715.2</ele>
        <time>2013-03-29T14:15:31Z</time>
      </trkpt>
      <trkpt lat="62.4856798" lon="14.1036602">
        <ele>716</ele>
        <time>2013-03-29T14:15:37Z</time>
      </trkpt>
      <trkpt lat="62.4857231" lon="14.1036041">
        <ele>716.6</ele>
        <time>2013-03-29T14:15:39Z</time>
      </trkpt>
      <trkpt lat="62.4858795" lon="14.1033697">
        <ele>718</ele>
        <time>2013-03-29T14:15:46Z</time>
      </trkpt>
      <trkpt lat="62.4860329" lon="14.1031407">
        <ele>719.6</ele>
        <time>2013-03-29T14:15:53Z</time>
      </trkpt>
      <trkpt lat="62.4861904" lon="14.1028938">
        <ele>721.2</ele>
        <time>2013-03-29T14:16:01Z</time>
      </trkpt>
      <trkpt lat="62.4863369" lon="14.1026046">
        <ele>723.4</ele>
        <time>2013-03-29T14:16:09Z</time>
      </trkpt>
      <trkpt lat="62.4864908" lon="14.1023772">
        <ele>725.2</ele>
        <time>2013-03-29T14:16:16Z</time>
      </trkpt>
      <trkpt lat="62.4866391" lon="14.1021076">
        <ele>727.2</ele>
        <time>2013-03-29T14:16:24Z</time>
      </trkpt>
      <trkpt lat="62.4867279" lon="14.1018985">
        <ele>727.4</ele>
        <time>2013-03-29T14:16:29Z</time>
      </trkpt>
      <trkpt lat="62.4867731" lon="14.1018326">
        <ele>726.6</ele>
        <time>2013-03-29T14:16:31Z</time>
      </trkpt>
      <trkpt lat="62.4869451" lon="14.101652">
        <ele>727.2</ele>
        <time>2013-03-29T14:16:39Z</time>
      </trkpt>
      <trkpt lat="62.4870721" lon="14.1014659">
        <ele>728</ele>
        <time>2013-03-29T14:16:45Z</time>
      </trkpt>
      <trkpt lat="62.4871069" lon="14.101411">
        <ele>728.2</ele>
        <time>2013-03-29T14:16:47Z</time>
      </trkpt>
      <trkpt lat="62.4872523" lon="14.1011797">
        <ele>729.4</ele>
        <time>2013-03-29T14:16:55Z</time>
      </trkpt>
      <trkpt lat="62.4873905" lon="14.1009112">
        <ele>730.2</ele>
        <time>2013-03-29T14:17:03Z</time>
      </trkpt>
      <trkpt lat="62.4875367" lon="14.100603">
        <ele>733.6</ele>
        <time>2013-03-29T14:17:59Z</time>
      </trkpt>
      <trkpt lat="62.4876963" lon="14.1004089">
        <ele>732.8</ele>
        <time>2013-03-29T14:18:04Z</time>
      </trkpt>
      <trkpt lat="62.4878802" lon="14.1002611">
        <ele>733</ele>
        <time>2013-03-29T14:18:11Z</time>
      </trkpt>
      <trkpt lat="62.4880594" lon="14.100081">
        <ele>735.2</ele>
        <time>2013-03-29T14:18:19Z</time>
      </trkpt>
      <trkpt lat="62.4882045" lon="14.0998092">
        <ele>738.2</ele>
        <time>2013-03-29T14:18:28Z</time>
      </trkpt>
      <trkpt lat="62.4883087" lon="14.0994666">
        <ele>738.4</ele>
        <time>2013-03-29T14:18:37Z</time>
      </trkpt>
      <trkpt lat="62.4883754" lon="14.0990881">
        <ele>736.4</ele>
        <time>2013-03-29T14:18:44Z</time>
      </trkpt>
      <trkpt lat="62.4884111" lon="14.0987826">
        <ele>739.6</ele>
        <time>2013-03-29T14:18:58Z</time>
      </trkpt>
      <trkpt lat="62.4883978" lon="14.0987082">
        <ele>747.8</ele>
        <time>2013-03-29T14:25:57Z</time>
      </trkpt>
      <trkpt lat="62.4884126" lon="14.0986817">
        <ele>747.6</ele>
        <time>2013-03-29T14:25:58Z</time>
      </trkpt>
      <trkpt lat="62.4884266" lon="14.0986426">
        <ele>747.2</ele>
        <time>2013-03-29T14:25:59Z</time>
      </trkpt>
      <trkpt lat="62.4884988" lon="14.098303">
        <ele>744.2</ele>
        <time>2013-03-29T14:26:06Z</time>
      </trkpt>
      <trkpt lat="62.4886147" lon="14.0979434">
        <ele>742.8</ele>
        <time>2013-03-29T14:26:13Z</time>
      </trkpt>
      <trkpt lat="62.4887137" lon="14.0975975">
        <ele>742.8</ele>
        <time>2013-03-29T14:26:21Z</time>
      </trkpt>
      <trkpt lat="62.4888482" lon="14.0974728">
        <ele>743.2</ele>
        <time>2013-03-29T14:26:27Z</time>
      </trkpt>
      <trkpt lat="62.4888958" lon="14.0975203">
        <ele>743.4</ele>
        <time>2013-03-29T14:26:29Z</time>
      </trkpt>
      <trkpt lat="62.4890175" lon="14.0978038">
        <ele>743.8</ele>
        <time>2013-03-29T14:26:35Z</time>
      </trkpt>
      <trkpt lat="62.4891411" lon="14.0981927">
        <ele>742.8</ele>
        <time>2013-03-29T14:26:40Z</time>
      </trkpt>
      <trkpt lat="62.4892368" lon="14.0985242">
        <ele>741.8</ele>
        <time>2013-03-29T14:26:44Z</time>
      </trkpt>
      <trkpt lat="62.4893544" lon="14.098862">
        <ele>740</ele>
        <time>2013-03-29T14:26:48Z</time>
      </trkpt>
      <trkpt lat="62.4894741" lon="14.0991892">
        <ele>738.6</ele>
        <time>2013-03-29T14:26:52Z</time>
      </trkpt>
      <trkpt lat="62.4895896" lon="14.0995538">
        <ele>737.2</ele>
        <time>2013-03-29T14:26:56Z</time>
      </trkpt>
      <trkpt lat="62.4896113" lon="14.0996447">
        <ele>736.8</ele>
        <time>2013-03-29T14:26:57Z</time>
      </trkpt>
      <trkpt lat="62.4896756" lon="14.0999093">
        <ele>735.6</ele>
        <time>2013-03-29T14:27:00Z</time>
      </trkpt>
      <trkpt lat="62.4897564" lon="14.1001752">
        <ele>735</ele>
        <time>2013-03-29T14:27:03Z</time>
      </trkpt>
      <trkpt lat="62.4897817" lon="14.100257">
        <ele>734.6</ele>
        <time>2013-03-29T14:27:04Z</time>
      </trkpt>
      <trkpt lat="62.4898326" lon="14.1004096">
        <ele>733.8</ele>
        <time>2013-03-29T14:27:06Z</time>
      </trkpt>
      <trkpt lat="62.489943" lon="14.1005761">
        <ele>732.8</ele>
        <time>2013-03-29T14:27:09Z</time>
      </trkpt>
      <trkpt lat="62.4900838" lon="14.1006321">
        <ele>732</ele>
        <time>2013-03-29T14:27:12Z</time>
      </trkpt>
      <trkpt lat="62.4901307" lon="14.1006463">
        <ele>731.8</ele>
        <time>2013-03-29T14:27:13Z</time>
      </trkpt>
      <trkpt lat="62.4901809" lon="14.1006541">
        <ele>731.4</ele>
        <time>2013-03-29T14:27:14Z</time>
      </trkpt>
      <trkpt lat="62.4903395" lon="14.1007035">
        <ele>730.4</ele>
        <time>2013-03-29T14:27:17Z</time>
      </trkpt>
      <trkpt lat="62.4905179" lon="14.1009535">
        <ele>729</ele>
        <time>2013-03-29T14:27:21Z</time>
      </trkpt>
      <trkpt lat="62.490582" lon="14.1013293">
        <ele>729</ele>
        <time>2013-03-29T14:27:25Z</time>
      </trkpt>
      <trkpt lat="62.4906055" lon="14.1016235">
        <ele>727</ele>
        <time>2013-03-29T14:27:28Z</time>
      </trkpt>
      <trkpt lat="62.4906076" lon="14.1017384">
        <ele>726.4</ele>
        <time>2013-03-29T14:27:29Z</time>
      </trkpt>
      <trkpt lat="62.4906219" lon="14.1021824">
        <ele>723</ele>
        <time>2013-03-29T14:27:33Z</time>
      </trkpt>
      <trkpt lat="62.4906397" lon="14.1025891">
        <ele>721.4</ele>
        <time>2013-03-29T14:27:37Z</time>
      </trkpt>
      <trkpt lat="62.4906608" lon="14.1027784">
        <ele>721.2</ele>
        <time>2013-03-29T14:27:39Z</time>
      </trkpt>
      <trkpt lat="62.4906653" lon="14.1029775">
        <ele>721.6</ele>
        <time>2013-03-29T14:27:41Z</time>
      </trkpt>
      <trkpt lat="62.4906556" lon="14.103173">
        <ele>722.4</ele>
        <time>2013-03-29T14:27:43Z</time>
      </trkpt>
      <trkpt lat="62.490651" lon="14.1034078">
        <ele>723.4</ele>
        <time>2013-03-29T14:27:46Z</time>
      </trkpt>
      <trkpt lat="62.4906554" lon="14.1034851">
        <ele>724.2</ele>
        <time>2013-03-29T14:27:47Z</time>
      </trkpt>
      <trkpt lat="62.4906619" lon="14.1035601">
        <ele>725.2</ele>
        <time>2013-03-29T14:27:48Z</time>
      </trkpt>
      <trkpt lat="62.4907125" lon="14.1037717">
        <ele>727</ele>
        <time>2013-03-29T14:27:51Z</time>
      </trkpt>
      <trkpt lat="62.4908556" lon="14.1040228">
        <ele>729.4</ele>
        <time>2013-03-29T14:27:56Z</time>
      </trkpt>
      <trkpt lat="62.4908819" lon="14.1040534">
        <ele>730</ele>
        <time>2013-03-29T14:27:57Z</time>
      </trkpt>
      <trkpt lat="62.4910258" lon="14.1042569">
        <ele>731.8</ele>
        <time>2013-03-29T14:28:03Z</time>
      </trkpt>
      <trkpt lat="62.4912027" lon="14.1043424">
        <ele>733.6</ele>
        <time>2013-03-29T14:28:08Z</time>
      </trkpt>
      <trkpt lat="62.4913897" lon="14.1043501">
        <ele>735.2</ele>
        <time>2013-03-29T14:28:14Z</time>
      </trkpt>
      <trkpt lat="62.4915941" lon="14.1043972">
        <ele>738.4</ele>
        <time>2013-03-29T14:28:20Z</time>
      </trkpt>
      <trkpt lat="62.4918108" lon="14.1045024">
        <ele>739.6</ele>
        <time>2013-03-29T14:28:26Z</time>
      </trkpt>
      <trkpt lat="62.4920247" lon="14.1046093">
        <ele>738.2</ele>
        <time>2013-03-29T14:28:31Z</time>
      </trkpt>
      <trkpt lat="62.4920632" lon="14.1046277">
        <ele>738.4</ele>
        <time>2013-03-29T14:28:32Z</time>
      </trkpt>
      <trkpt lat="62.4921856" lon="14.1046969">
        <ele>738.4</ele>
        <time>2013-03-29T14:28:35Z</time>
      </trkpt>
      <trkpt lat="62.4922221" lon="14.1047211">
        <ele>738</ele>
        <time>2013-03-29T14:28:36Z</time>
      </trkpt>
      <trkpt lat="62.4922579" lon="14.1047564">
        <ele>738.2</ele>
        <time>2013-03-29T14:28:37Z</time>
      </trkpt>
      <trkpt lat="62.4924226" lon="14.1049517">
        <ele>738.8</ele>
        <time>2013-03-29T14:28:41Z</time>
      </trkpt>
      <trkpt lat="62.492593" lon="14.1051851">
        <ele>740.6</ele>
        <time>2013-03-29T14:28:46Z</time>
      </trkpt>
      <trkpt lat="62.4927589" lon="14.1054054">
        <ele>740.2</ele>
        <time>2013-03-29T14:28:50Z</time>
      </trkpt>
      <trkpt lat="62.4929388" lon="14.1054788">
        <ele>741.2</ele>
        <time>2013-03-29T14:28:55Z</time>
      </trkpt>
      <trkpt lat="62.4930046" lon="14.1055063">
        <ele>741.2</ele>
        <time>2013-03-29T14:28:57Z</time>
      </trkpt>
      <trkpt lat="62.4931137" lon="14.1055729">
        <ele>741.6</ele>
        <time>2013-03-29T14:29:00Z</time>
      </trkpt>
      <trkpt lat="62.4931671" lon="14.1055966">
        <ele>741.8</ele>
        <time>2013-03-29T14:29:02Z</time>
      </trkpt>
      <trkpt lat="62.4932959" lon="14.1056142">
        <ele>741.8</ele>
        <time>2013-03-29T14:29:06Z</time>
      </trkpt>
      <trkpt lat="62.4935087" lon="14.1056205">
        <ele>741</ele>
        <time>2013-03-29T14:29:10Z</time>
      </trkpt>
      <trkpt lat="62.4937044" lon="14.1056406">
        <ele>741.8</ele>
        <time>2013-03-29T14:29:15Z</time>
      </trkpt>
      <trkpt lat="62.4937588" lon="14.1056459">
        <ele>742</ele>
        <time>2013-03-29T14:29:17Z</time>
      </trkpt>
      <trkpt lat="62.4938896" lon="14.1056454">
        <ele>742.8</ele>
        <time>2013-03-29T14:29:22Z</time>
      </trkpt>
      <trkpt lat="62.4939414" lon="14.1056091">
        <ele>742.2</ele>
        <time>2013-03-29T14:29:24Z</time>
      </trkpt>
      <trkpt lat="62.4940771" lon="14.1054931">
        <ele>741.8</ele>
        <time>2013-03-29T14:29:28Z</time>
      </trkpt>
      <trkpt lat="62.494268" lon="14.1055109">
        <ele>742.4</ele>
        <time>2013-03-29T14:29:33Z</time>
      </trkpt>
      <trkpt lat="62.4944491" lon="14.1056592">
        <ele>740.6</ele>
        <time>2013-03-29T14:29:37Z</time>
      </trkpt>
      <trkpt lat="62.4946852" lon="14.1056924">
        <ele>738.8</ele>
        <time>2013-03-29T14:29:41Z</time>
      </trkpt>
      <trkpt lat="62.4948971" lon="14.1056663">
        <ele>737</ele>
        <time>2013-03-29T14:29:45Z</time>
      </trkpt>
      <trkpt lat="62.4951186" lon="14.1056457">
        <ele>736.4</ele>
        <time>2013-03-29T14:29:50Z</time>
      </trkpt>
      <trkpt lat="62.4952321" lon="14.105653">
        <ele>735.2</ele>
        <time>2013-03-29T14:29:53Z</time>
      </trkpt>
      <trkpt lat="62.4952695" lon="14.105661">
        <ele>734.6</ele>
        <time>2013-03-29T14:29:54Z</time>
      </trkpt>
      <trkpt lat="62.4953135" lon="14.105678">
        <ele>733.8</ele>
        <time>2013-03-29T14:29:55Z</time>
      </trkpt>
      <trkpt lat="62.4954908" lon="14.1059389">
        <ele>730.2</ele>
        <time>2013-03-29T14:29:59Z</time>
      </trkpt>
      <trkpt lat="62.4955962" lon="14.1062937">
        <ele>727.6</ele>
        <time>2013-03-29T14:30:02Z</time>
      </trkpt>
      <trkpt lat="62.49569" lon="14.1066671">
        <ele>724.4</ele>
        <time>2013-03-29T14:30:05Z</time>
      </trkpt>
      <trkpt lat="62.4957886" lon="14.107056">
        <ele>720.8</ele>
        <time>2013-03-29T14:30:08Z</time>
      </trkpt>
      <trkpt lat="62.4958301" lon="14.1071807">
        <ele>719.6</ele>
        <time>2013-03-29T14:30:09Z</time>
      </trkpt>
      <trkpt lat="62.4959232" lon="14.1073926">
        <ele>718</ele>
        <time>2013-03-29T14:30:11Z</time>
      </trkpt>
      <trkpt lat="62.4960088" lon="14.1076106">
        <ele>716.8</ele>
        <time>2013-03-29T14:30:13Z</time>
      </trkpt>
      <trkpt lat="62.4960371" lon="14.1077426">
        <ele>715.8</ele>
        <time>2013-03-29T14:30:14Z</time>
      </trkpt>
      <trkpt lat="62.4960124" lon="14.1081554">
        <ele>713</ele>
        <time>2013-03-29T14:30:17Z</time>
      </trkpt>
      <trkpt lat="62.4958938" lon="14.1085074">
        <ele>711.2</ele>
        <time>2013-03-29T14:30:20Z</time>
      </trkpt>
      <trkpt lat="62.4958599" lon="14.108628">
        <ele>710.6</ele>
        <time>2013-03-29T14:30:21Z</time>
      </trkpt>
      <trkpt lat="62.4957922" lon="14.1088711">
        <ele>709.8</ele>
        <time>2013-03-29T14:30:23Z</time>
      </trkpt>
      <trkpt lat="62.4956929" lon="14.1092522">
        <ele>709</ele>
        <time>2013-03-29T14:30:26Z</time>
      </trkpt>
      <trkpt lat="62.4955974" lon="14.1096324">
        <ele>708.8</ele>
        <time>2013-03-29T14:30:29Z</time>
      </trkpt>
      <trkpt lat="62.4955147" lon="14.1100107">
        <ele>707.6</ele>
        <time>2013-03-29T14:30:32Z</time>
      </trkpt>
      <trkpt lat="62.4954878" lon="14.1104322">
        <ele>706.2</ele>
        <time>2013-03-29T14:30:35Z</time>
      </trkpt>
      <trkpt lat="62.4954535" lon="14.1108687">
        <ele>705.2</ele>
        <time>2013-03-29T14:30:38Z</time>
      </trkpt>
      <trkpt lat="62.4954146" lon="14.1111326">
        <ele>705.6</ele>
        <time>2013-03-29T14:30:40Z</time>
      </trkpt>
      <trkpt lat="62.4954104" lon="14.1112611">
        <ele>705.6</ele>
        <time>2013-03-29T14:30:41Z</time>
      </trkpt>
      <trkpt lat="62.4954182" lon="14.1117414">
        <ele>705.6</ele>
        <time>2013-03-29T14:30:45Z</time>
      </trkpt>
      <trkpt lat="62.4954149" lon="14.111852">
        <ele>705.8</ele>
        <time>2013-03-29T14:30:46Z</time>
      </trkpt>
      <trkpt lat="62.495397" lon="14.1121691">
        <ele>705.2</ele>
        <time>2013-03-29T14:30:49Z</time>
      </trkpt>
      <trkpt lat="62.4953701" lon="14.1125803">
        <ele>703.8</ele>
        <time>2013-03-29T14:30:54Z</time>
      </trkpt>
      <trkpt lat="62.4954783" lon="14.1129135">
        <ele>701</ele>
        <time>2013-03-29T14:31:01Z</time>
      </trkpt>
      <trkpt lat="62.4955807" lon="14.1129279">
        <ele>699.6</ele>
        <time>2013-03-29T14:31:13Z</time>
      </trkpt>
      <trkpt lat="62.4957493" lon="14.1133538">
        <ele>701.8</ele>
        <time>2013-03-29T14:33:16Z</time>
      </trkpt>
      <trkpt lat="62.4957644" lon="14.1137502">
        <ele>699</ele>
        <time>2013-03-29T14:33:20Z</time>
      </trkpt>
      <trkpt lat="62.4959115" lon="14.1141359">
        <ele>695.6</ele>
        <time>2013-03-29T14:33:24Z</time>
      </trkpt>
      <trkpt lat="62.4960497" lon="14.1143901">
        <ele>693.8</ele>
        <time>2013-03-29T14:33:27Z</time>
      </trkpt>
      <trkpt lat="62.4962336" lon="14.1147561">
        <ele>690.4</ele>
        <time>2013-03-29T14:33:31Z</time>
      </trkpt>
      <trkpt lat="62.4963542" lon="14.1150404">
        <ele>687.8</ele>
        <time>2013-03-29T14:33:33Z</time>
      </trkpt>
      <trkpt lat="62.4964982" lon="14.1153741">
        <ele>684.8</ele>
        <time>2013-03-29T14:33:35Z</time>
      </trkpt>
      <trkpt lat="62.4966376" lon="14.1157347">
        <ele>683</ele>
        <time>2013-03-29T14:33:37Z</time>
      </trkpt>
      <trkpt lat="62.4967329" lon="14.1160861">
        <ele>682.4</ele>
        <time>2013-03-29T14:33:39Z</time>
      </trkpt>
      <trkpt lat="62.496847" lon="14.116521">
        <ele>681.6</ele>
        <time>2013-03-29T14:33:42Z</time>
      </trkpt>
      <trkpt lat="62.4969014" lon="14.1167477">
        <ele>680.2</ele>
        <time>2013-03-29T14:33:44Z</time>
      </trkpt>
      <trkpt lat="62.4969672" lon="14.1169027">
        <ele>677.6</ele>
        <time>2013-03-29T14:33:46Z</time>
      </trkpt>
      <trkpt lat="62.4970404" lon="14.1170046">
        <ele>676.6</ele>
        <time>2013-03-29T14:33:48Z</time>
      </trkpt>
      <trkpt lat="62.497071" lon="14.1170346">
        <ele>675.6</ele>
        <time>2013-03-29T14:33:49Z</time>
      </trkpt>
      <trkpt lat="62.4971425" lon="14.1170356">
        <ele>674.8</ele>
        <time>2013-03-29T14:33:52Z</time>
      </trkpt>
      <trkpt lat="62.4971639" lon="14.1170449">
        <ele>675.2</ele>
        <time>2013-03-29T14:33:53Z</time>
      </trkpt>
      <trkpt lat="62.4973269" lon="14.1170921">
        <ele>677.6</ele>
        <time>2013-03-29T14:33:59Z</time>
      </trkpt>
      <trkpt lat="62.4974883" lon="14.1173622">
        <ele>683.2</ele>
        <time>2013-03-29T14:34:06Z</time>
      </trkpt>
      <trkpt lat="62.4976338" lon="14.1176418">
        <ele>688</ele>
        <time>2013-03-29T14:34:13Z</time>
      </trkpt>
      <trkpt lat="62.4977725" lon="14.1179024">
        <ele>692.8</ele>
        <time>2013-03-29T14:34:19Z</time>
      </trkpt>
      <trkpt lat="62.4979498" lon="14.1180257">
        <ele>694.8</ele>
        <time>2013-03-29T14:34:26Z</time>
      </trkpt>
      <trkpt lat="62.4981361" lon="14.1180282">
        <ele>697.2</ele>
        <time>2013-03-29T14:34:32Z</time>
      </trkpt>
      <trkpt lat="62.4983269" lon="14.1179817">
        <ele>700.2</ele>
        <time>2013-03-29T14:34:38Z</time>
      </trkpt>
      <trkpt lat="62.4985149" lon="14.1178236">
        <ele>700.8</ele>
        <time>2013-03-29T14:34:45Z</time>
      </trkpt>
      <trkpt lat="62.4986946" lon="14.1176702">
        <ele>700</ele>
        <time>2013-03-29T14:34:52Z</time>
      </trkpt>
      <trkpt lat="62.4988634" lon="14.1174958">
        <ele>699.6</ele>
        <time>2013-03-29T14:34:57Z</time>
      </trkpt>
      <trkpt lat="62.4990194" lon="14.1172354">
        <ele>700</ele>
        <time>2013-03-29T14:35:03Z</time>
      </trkpt>
      <trkpt lat="62.4991724" lon="14.1169129">
        <ele>698.8</ele>
        <time>2013-03-29T14:35:08Z</time>
      </trkpt>
      <trkpt lat="62.4993262" lon="14.1165787">
        <ele>696.8</ele>
        <time>2013-03-29T14:35:13Z</time>
      </trkpt>
      <trkpt lat="62.4994005" lon="14.1163421">
        <ele>695.8</ele>
        <time>2013-03-29T14:35:16Z</time>
      </trkpt>
      <trkpt lat="62.4994308" lon="14.116253">
        <ele>695.2</ele>
        <time>2013-03-29T14:35:17Z</time>
      </trkpt>
      <trkpt lat="62.499464" lon="14.1161613">
        <ele>694.4</ele>
        <time>2013-03-29T14:35:18Z</time>
      </trkpt>
      <trkpt lat="62.4995666" lon="14.1159965">
        <ele>692.8</ele>
        <time>2013-03-29T14:35:21Z</time>
      </trkpt>
      <trkpt lat="62.4996011" lon="14.1159615">
        <ele>692.4</ele>
        <time>2013-03-29T14:35:22Z</time>
      </trkpt>
      <trkpt lat="62.4996347" lon="14.1159351">
        <ele>692</ele>
        <time>2013-03-29T14:35:23Z</time>
      </trkpt>
      <trkpt lat="62.4997534" lon="14.1158159">
        <ele>691.8</ele>
        <time>2013-03-29T14:35:27Z</time>
      </trkpt>
      <trkpt lat="62.4998154" lon="14.1157538">
        <ele>692.6</ele>
        <time>2013-03-29T14:35:29Z</time>
      </trkpt>
      <trkpt lat="62.4999265" lon="14.1156362">
        <ele>693</ele>
        <time>2013-03-29T14:35:32Z</time>
      </trkpt>
      <trkpt lat="62.5000964" lon="14.1154635">
        <ele>693.8</ele>
        <time>2013-03-29T14:35:37Z</time>
      </trkpt>
      <trkpt lat="62.5002574" lon="14.1152746">
        <ele>694</ele>
        <time>2013-03-29T14:35:42Z</time>
      </trkpt>
      <trkpt lat="62.5002771" lon="14.1152114">
        <ele>694.2</ele>
        <time>2013-03-29T14:35:43Z</time>
      </trkpt>
      <trkpt lat="62.5003212" lon="14.1148948">
        <ele>694</ele>
        <time>2013-03-29T14:35:48Z</time>
      </trkpt>
      <trkpt lat="62.5004415" lon="14.1145903">
        <ele>694.2</ele>
        <time>2013-03-29T14:35:53Z</time>
      </trkpt>
      <trkpt lat="62.5005781" lon="14.114336">
        <ele>694.6</ele>
        <time>2013-03-29T14:35:59Z</time>
      </trkpt>
      <trkpt lat="62.5007262" lon="14.1140239">
        <ele>693.6</ele>
        <time>2013-03-29T14:36:05Z</time>
      </trkpt>
      <trkpt lat="62.5008768" lon="14.1137642">
        <ele>694.2</ele>
        <time>2013-03-29T14:36:10Z</time>
      </trkpt>
      <trkpt lat="62.5009817" lon="14.1134546">
        <ele>695.2</ele>
        <time>2013-03-29T14:36:15Z</time>
      </trkpt>
      <trkpt lat="62.5009406" lon="14.1130078">
        <ele>694.4</ele>
        <time>2013-03-29T14:36:20Z</time>
      </trkpt>
      <trkpt lat="62.500918" lon="14.1128056">
        <ele>694.4</ele>
        <time>2013-03-29T14:36:22Z</time>
      </trkpt>
      <trkpt lat="62.5009043" lon="14.1125969">
        <ele>694</ele>
        <time>2013-03-29T14:36:24Z</time>
      </trkpt>
      <trkpt lat="62.5008994" lon="14.1125069">
        <ele>693.4</ele>
        <time>2013-03-29T14:36:25Z</time>
      </trkpt>
      <trkpt lat="62.5009537" lon="14.1121769">
        <ele>693.2</ele>
        <time>2013-03-29T14:36:29Z</time>
      </trkpt>
      <trkpt lat="62.5009939" lon="14.1120361">
        <ele>692</ele>
        <time>2013-03-29T14:36:31Z</time>
      </trkpt>
      <trkpt lat="62.501036" lon="14.1118916">
        <ele>692</ele>
        <time>2013-03-29T14:36:33Z</time>
      </trkpt>
      <trkpt lat="62.50105" lon="14.1118193">
        <ele>691.8</ele>
        <time>2013-03-29T14:36:34Z</time>
      </trkpt>
      <trkpt lat="62.5010732" lon="14.1114165">
        <ele>689.6</ele>
        <time>2013-03-29T14:36:39Z</time>
      </trkpt>
      <trkpt lat="62.5010831" lon="14.1110223">
        <ele>688.6</ele>
        <time>2013-03-29T14:36:44Z</time>
      </trkpt>
      <trkpt lat="62.5010583" lon="14.1106351">
        <ele>688</ele>
        <time>2013-03-29T14:36:50Z</time>
      </trkpt>
      <trkpt lat="62.5011505" lon="14.1102189">
        <ele>688.6</ele>
        <time>2013-03-29T14:36:56Z</time>
      </trkpt>
      <trkpt lat="62.5012254" lon="14.1098307">
        <ele>689</ele>
        <time>2013-03-29T14:37:02Z</time>
      </trkpt>
      <trkpt lat="62.5012946" lon="14.1094439">
        <ele>690.6</ele>
        <time>2013-03-29T14:37:08Z</time>
      </trkpt>
      <trkpt lat="62.5013385" lon="14.1090348">
        <ele>693</ele>
        <time>2013-03-29T14:37:14Z</time>
      </trkpt>
      <trkpt lat="62.5012864" lon="14.1086175">
        <ele>695.6</ele>
        <time>2013-03-29T14:37:21Z</time>
      </trkpt>
      <trkpt lat="62.5013251" lon="14.1083206">
        <ele>697.8</ele>
        <time>2013-03-29T14:37:27Z</time>
      </trkpt>
      <trkpt lat="62.5013469" lon="14.1083054">
        <ele>698.4</ele>
        <time>2013-03-29T14:37:28Z</time>
      </trkpt>
      <trkpt lat="62.5014262" lon="14.1082574">
        <ele>698.6</ele>
        <time>2013-03-29T14:37:31Z</time>
      </trkpt>
      <trkpt lat="62.5015193" lon="14.1081823">
        <ele>700.2</ele>
        <time>2013-03-29T14:37:34Z</time>
      </trkpt>
    </trkseg>
  </trk>
</gpx>